<?xml version="1.0" encoding="UTF-8" standalone="no" ?>
<gpx xmlns="http://www.topografix.com/GPX/1/1" xmlns:xsi="http://www.w3.org/2001/XMLSchema-instance" xsi:schemaLocation="http://www.topografix.com/GPX/1/1 http://www.topografix.com/GPX/1/1/gpx.xsd" version="1.1" creator="VisuGPX - https://www.visugpx.com">
  <metadata>
    <name>circuit bergonne flat naves 19 11 12</name>
    <desc><![CDATA[circuit avec portions technique]]></desc>
  </metadata>
  <trk>
    <name><![CDATA[2012-11-19 14:29]]></name>
    <desc><![CDATA[<h1>OruxMaps</h1><br /><hr align="center" width="480" style="height: 2px; width: 517px"/><h2>Nom: 2012-11-19 14:29</h2><br /><p>Temps de départ: 11/19/2012 14:29</p><p>Temps d'arrivée: 11/19/2012 16:28</p><p>Distance: 33,7 km (01:52)</p><p>Temps déplacement: 01:47</p><p>Vitesse moyenne: 18 km/h</p><p>Vitesse moyenne: 18,8 km/h</p><p>Vitess Max.: 58,6 km/h</p><p>Altitude minimale: 362 m</p><p>Altitude maximale: 558 m</p><p>Vitesse d'élévation: 669,4 m/h</p><p>Vitesse de descente: -1083 m/h</p><p>Gain Altitude: 599 m</p><p>Perte Altitude: -570 m</p><p>Temps d'élévation: 00:53</p><p>Temps de descente: 00:31</p><hr align="center" width="480" style="height: 2px; width: 517px"/>]]></desc>
    <trkseg>
      <trkpt lat="45.50639" lon="3.22217">
        <ele>545</ele>
        <time>2012-11-19T13:36:34Z</time>
      </trkpt>
      <trkpt lat="45.50618" lon="3.22224">
        <ele>544</ele>
        <time>2012-11-19T13:36:38Z</time>
      </trkpt>
      <trkpt lat="45.506" lon="3.22212">
        <ele>544</ele>
        <time>2012-11-19T13:36:42Z</time>
      </trkpt>
      <trkpt lat="45.50599" lon="3.22186">
        <ele>545</ele>
        <time>2012-11-19T13:36:46Z</time>
      </trkpt>
      <trkpt lat="45.50595" lon="3.22161">
        <ele>548</ele>
        <time>2012-11-19T13:36:53Z</time>
      </trkpt>
      <trkpt lat="45.50598" lon="3.22132">
        <ele>550</ele>
        <time>2012-11-19T13:37:01Z</time>
      </trkpt>
      <trkpt lat="45.50612" lon="3.22112">
        <ele>551</ele>
        <time>2012-11-19T13:37:08Z</time>
      </trkpt>
      <trkpt lat="45.50624" lon="3.22091">
        <ele>552</ele>
        <time>2012-11-19T13:37:15Z</time>
      </trkpt>
      <trkpt lat="45.5064" lon="3.22071">
        <ele>554</ele>
        <time>2012-11-19T13:37:22Z</time>
      </trkpt>
      <trkpt lat="45.50658" lon="3.22059">
        <ele>554</ele>
        <time>2012-11-19T13:37:28Z</time>
      </trkpt>
      <trkpt lat="45.50675" lon="3.22042">
        <ele>555</ele>
        <time>2012-11-19T13:37:34Z</time>
      </trkpt>
      <trkpt lat="45.50679" lon="3.22016">
        <ele>555</ele>
        <time>2012-11-19T13:37:40Z</time>
      </trkpt>
      <trkpt lat="45.50681" lon="3.2199">
        <ele>555</ele>
        <time>2012-11-19T13:37:46Z</time>
      </trkpt>
      <trkpt lat="45.50698" lon="3.21974">
        <ele>555</ele>
        <time>2012-11-19T13:37:51Z</time>
      </trkpt>
      <trkpt lat="45.50717" lon="3.21972">
        <ele>556</ele>
        <time>2012-11-19T13:37:55Z</time>
      </trkpt>
      <trkpt lat="45.50736" lon="3.21968">
        <ele>556</ele>
        <time>2012-11-19T13:37:59Z</time>
      </trkpt>
      <trkpt lat="45.50757" lon="3.21966">
        <ele>557</ele>
        <time>2012-11-19T13:38:03Z</time>
      </trkpt>
      <trkpt lat="45.50777" lon="3.21965">
        <ele>557</ele>
        <time>2012-11-19T13:38:07Z</time>
      </trkpt>
      <trkpt lat="45.50799" lon="3.21961">
        <ele>557</ele>
        <time>2012-11-19T13:38:12Z</time>
      </trkpt>
      <trkpt lat="45.50818" lon="3.21962">
        <ele>557</ele>
        <time>2012-11-19T13:38:16Z</time>
      </trkpt>
      <trkpt lat="45.50836" lon="3.21959">
        <ele>557</ele>
        <time>2012-11-19T13:38:20Z</time>
      </trkpt>
      <trkpt lat="45.50859" lon="3.21957">
        <ele>557</ele>
        <time>2012-11-19T13:38:24Z</time>
      </trkpt>
      <trkpt lat="45.50881" lon="3.21949">
        <ele>557</ele>
        <time>2012-11-19T13:38:28Z</time>
      </trkpt>
      <trkpt lat="45.50899" lon="3.21944">
        <ele>557</ele>
        <time>2012-11-19T13:38:30Z</time>
      </trkpt>
      <trkpt lat="45.50917" lon="3.21936">
        <ele>557</ele>
        <time>2012-11-19T13:38:34Z</time>
      </trkpt>
      <trkpt lat="45.50934" lon="3.21927">
        <ele>557</ele>
        <time>2012-11-19T13:38:37Z</time>
      </trkpt>
      <trkpt lat="45.50952" lon="3.21919">
        <ele>557</ele>
        <time>2012-11-19T13:38:40Z</time>
      </trkpt>
      <trkpt lat="45.50971" lon="3.21911">
        <ele>557</ele>
        <time>2012-11-19T13:38:43Z</time>
      </trkpt>
      <trkpt lat="45.50989" lon="3.21905">
        <ele>557</ele>
        <time>2012-11-19T13:38:46Z</time>
      </trkpt>
      <trkpt lat="45.51009" lon="3.21901">
        <ele>557</ele>
        <time>2012-11-19T13:38:49Z</time>
      </trkpt>
      <trkpt lat="45.51031" lon="3.21893">
        <ele>556</ele>
        <time>2012-11-19T13:38:53Z</time>
      </trkpt>
      <trkpt lat="45.51052" lon="3.21883">
        <ele>556</ele>
        <time>2012-11-19T13:38:57Z</time>
      </trkpt>
      <trkpt lat="45.5107" lon="3.21878">
        <ele>556</ele>
        <time>2012-11-19T13:39:01Z</time>
      </trkpt>
      <trkpt lat="45.5109" lon="3.21875">
        <ele>556</ele>
        <time>2012-11-19T13:39:06Z</time>
      </trkpt>
      <trkpt lat="45.5111" lon="3.21869">
        <ele>556</ele>
        <time>2012-11-19T13:39:13Z</time>
      </trkpt>
      <trkpt lat="45.51128" lon="3.21867">
        <ele>556</ele>
        <time>2012-11-19T13:39:17Z</time>
      </trkpt>
      <trkpt lat="45.51149" lon="3.21866">
        <ele>556</ele>
        <time>2012-11-19T13:39:21Z</time>
      </trkpt>
      <trkpt lat="45.51167" lon="3.21866">
        <ele>556</ele>
        <time>2012-11-19T13:39:25Z</time>
      </trkpt>
      <trkpt lat="45.51187" lon="3.21864">
        <ele>556</ele>
        <time>2012-11-19T13:39:29Z</time>
      </trkpt>
      <trkpt lat="45.51208" lon="3.21863">
        <ele>556</ele>
        <time>2012-11-19T13:39:33Z</time>
      </trkpt>
      <trkpt lat="45.5123" lon="3.21863">
        <ele>556</ele>
        <time>2012-11-19T13:39:37Z</time>
      </trkpt>
      <trkpt lat="45.5125" lon="3.2187">
        <ele>556</ele>
        <time>2012-11-19T13:39:40Z</time>
      </trkpt>
      <trkpt lat="45.51267" lon="3.21879">
        <ele>555</ele>
        <time>2012-11-19T13:39:44Z</time>
      </trkpt>
      <trkpt lat="45.51288" lon="3.21884">
        <ele>555</ele>
        <time>2012-11-19T13:39:49Z</time>
      </trkpt>
      <trkpt lat="45.51307" lon="3.21885">
        <ele>554</ele>
        <time>2012-11-19T13:39:53Z</time>
      </trkpt>
      <trkpt lat="45.5133" lon="3.21885">
        <ele>554</ele>
        <time>2012-11-19T13:39:57Z</time>
      </trkpt>
      <trkpt lat="45.51351" lon="3.21885">
        <ele>553</ele>
        <time>2012-11-19T13:40:00Z</time>
      </trkpt>
      <trkpt lat="45.51371" lon="3.21896">
        <ele>553</ele>
        <time>2012-11-19T13:40:05Z</time>
      </trkpt>
      <trkpt lat="45.51388" lon="3.21905">
        <ele>553</ele>
        <time>2012-11-19T13:40:08Z</time>
      </trkpt>
      <trkpt lat="45.51409" lon="3.21918">
        <ele>552</ele>
        <time>2012-11-19T13:40:12Z</time>
      </trkpt>
      <trkpt lat="45.5143" lon="3.21934">
        <ele>551</ele>
        <time>2012-11-19T13:40:16Z</time>
      </trkpt>
      <trkpt lat="45.51447" lon="3.21948">
        <ele>551</ele>
        <time>2012-11-19T13:40:19Z</time>
      </trkpt>
      <trkpt lat="45.51466" lon="3.21957">
        <ele>550</ele>
        <time>2012-11-19T13:40:22Z</time>
      </trkpt>
      <trkpt lat="45.51485" lon="3.21952">
        <ele>550</ele>
        <time>2012-11-19T13:40:25Z</time>
      </trkpt>
      <trkpt lat="45.51504" lon="3.21943">
        <ele>547</ele>
        <time>2012-11-19T13:40:27Z</time>
      </trkpt>
      <trkpt lat="45.51527" lon="3.21943">
        <ele>546</ele>
        <time>2012-11-19T13:40:32Z</time>
      </trkpt>
      <trkpt lat="45.51547" lon="3.21947">
        <ele>545</ele>
        <time>2012-11-19T13:40:34Z</time>
      </trkpt>
      <trkpt lat="45.51568" lon="3.21955">
        <ele>545</ele>
        <time>2012-11-19T13:40:38Z</time>
      </trkpt>
      <trkpt lat="45.51591" lon="3.21957">
        <ele>539</ele>
        <time>2012-11-19T13:40:41Z</time>
      </trkpt>
      <trkpt lat="45.51614" lon="3.21962">
        <ele>538</ele>
        <time>2012-11-19T13:40:44Z</time>
      </trkpt>
      <trkpt lat="45.51634" lon="3.21974">
        <ele>537</ele>
        <time>2012-11-19T13:40:47Z</time>
      </trkpt>
      <trkpt lat="45.51654" lon="3.21991">
        <ele>535</ele>
        <time>2012-11-19T13:40:50Z</time>
      </trkpt>
      <trkpt lat="45.51673" lon="3.22014">
        <ele>532</ele>
        <time>2012-11-19T13:40:53Z</time>
      </trkpt>
      <trkpt lat="45.51695" lon="3.22031">
        <ele>532</ele>
        <time>2012-11-19T13:40:56Z</time>
      </trkpt>
      <trkpt lat="45.51719" lon="3.22042">
        <ele>531</ele>
        <time>2012-11-19T13:40:59Z</time>
      </trkpt>
      <trkpt lat="45.51741" lon="3.22056">
        <ele>530</ele>
        <time>2012-11-19T13:41:02Z</time>
      </trkpt>
      <trkpt lat="45.51763" lon="3.22066">
        <ele>527</ele>
        <time>2012-11-19T13:41:05Z</time>
      </trkpt>
      <trkpt lat="45.51785" lon="3.2207">
        <ele>526</ele>
        <time>2012-11-19T13:41:08Z</time>
      </trkpt>
      <trkpt lat="45.51808" lon="3.22067">
        <ele>525</ele>
        <time>2012-11-19T13:41:11Z</time>
      </trkpt>
      <trkpt lat="45.51831" lon="3.22065">
        <ele>525</ele>
        <time>2012-11-19T13:41:14Z</time>
      </trkpt>
      <trkpt lat="45.51855" lon="3.22063">
        <ele>521</ele>
        <time>2012-11-19T13:41:17Z</time>
      </trkpt>
      <trkpt lat="45.51879" lon="3.22062">
        <ele>520</ele>
        <time>2012-11-19T13:41:20Z</time>
      </trkpt>
      <trkpt lat="45.51902" lon="3.22063">
        <ele>519</ele>
        <time>2012-11-19T13:41:22Z</time>
      </trkpt>
      <trkpt lat="45.51924" lon="3.22065">
        <ele>515</ele>
        <time>2012-11-19T13:41:26Z</time>
      </trkpt>
      <trkpt lat="45.51943" lon="3.22072">
        <ele>515</ele>
        <time>2012-11-19T13:41:29Z</time>
      </trkpt>
      <trkpt lat="45.51964" lon="3.22078">
        <ele>513</ele>
        <time>2012-11-19T13:41:32Z</time>
      </trkpt>
      <trkpt lat="45.51986" lon="3.22085">
        <ele>512</ele>
        <time>2012-11-19T13:41:35Z</time>
      </trkpt>
      <trkpt lat="45.52009" lon="3.22091">
        <ele>509</ele>
        <time>2012-11-19T13:41:38Z</time>
      </trkpt>
      <trkpt lat="45.52031" lon="3.22096">
        <ele>508</ele>
        <time>2012-11-19T13:41:41Z</time>
      </trkpt>
      <trkpt lat="45.52052" lon="3.22103">
        <ele>507</ele>
        <time>2012-11-19T13:41:43Z</time>
      </trkpt>
      <trkpt lat="45.52072" lon="3.22115">
        <ele>506</ele>
        <time>2012-11-19T13:41:48Z</time>
      </trkpt>
      <trkpt lat="45.52091" lon="3.22134">
        <ele>501</ele>
        <time>2012-11-19T13:41:52Z</time>
      </trkpt>
      <trkpt lat="45.52108" lon="3.22149">
        <ele>500</ele>
        <time>2012-11-19T13:41:55Z</time>
      </trkpt>
      <trkpt lat="45.52127" lon="3.22165">
        <ele>499</ele>
        <time>2012-11-19T13:41:58Z</time>
      </trkpt>
      <trkpt lat="45.52146" lon="3.22184">
        <ele>497</ele>
        <time>2012-11-19T13:42:01Z</time>
      </trkpt>
      <trkpt lat="45.52164" lon="3.22203">
        <ele>496</ele>
        <time>2012-11-19T13:42:04Z</time>
      </trkpt>
      <trkpt lat="45.52181" lon="3.22225">
        <ele>492</ele>
        <time>2012-11-19T13:42:07Z</time>
      </trkpt>
      <trkpt lat="45.52197" lon="3.22254">
        <ele>491</ele>
        <time>2012-11-19T13:42:10Z</time>
      </trkpt>
      <trkpt lat="45.52207" lon="3.22276">
        <ele>491</ele>
        <time>2012-11-19T13:42:12Z</time>
      </trkpt>
      <trkpt lat="45.52219" lon="3.22298">
        <ele>490</ele>
        <time>2012-11-19T13:42:14Z</time>
      </trkpt>
      <trkpt lat="45.52238" lon="3.22324">
        <ele>488</ele>
        <time>2012-11-19T13:42:17Z</time>
      </trkpt>
      <trkpt lat="45.52254" lon="3.22336">
        <ele>486</ele>
        <time>2012-11-19T13:42:19Z</time>
      </trkpt>
      <trkpt lat="45.52272" lon="3.22349">
        <ele>485</ele>
        <time>2012-11-19T13:42:21Z</time>
      </trkpt>
      <trkpt lat="45.52289" lon="3.22361">
        <ele>484</ele>
        <time>2012-11-19T13:42:23Z</time>
      </trkpt>
      <trkpt lat="45.52305" lon="3.22373">
        <ele>483</ele>
        <time>2012-11-19T13:42:25Z</time>
      </trkpt>
      <trkpt lat="45.5232" lon="3.22388">
        <ele>482</ele>
        <time>2012-11-19T13:42:27Z</time>
      </trkpt>
      <trkpt lat="45.52336" lon="3.22405">
        <ele>478</ele>
        <time>2012-11-19T13:42:29Z</time>
      </trkpt>
      <trkpt lat="45.52351" lon="3.2242">
        <ele>478</ele>
        <time>2012-11-19T13:42:31Z</time>
      </trkpt>
      <trkpt lat="45.52367" lon="3.22432">
        <ele>477</ele>
        <time>2012-11-19T13:42:33Z</time>
      </trkpt>
      <trkpt lat="45.52385" lon="3.22451">
        <ele>476</ele>
        <time>2012-11-19T13:42:36Z</time>
      </trkpt>
      <trkpt lat="45.52408" lon="3.22469">
        <ele>475</ele>
        <time>2012-11-19T13:42:39Z</time>
      </trkpt>
      <trkpt lat="45.52421" lon="3.22496">
        <ele>473</ele>
        <time>2012-11-19T13:42:42Z</time>
      </trkpt>
      <trkpt lat="45.52435" lon="3.22525">
        <ele>470</ele>
        <time>2012-11-19T13:42:45Z</time>
      </trkpt>
      <trkpt lat="45.52447" lon="3.22546">
        <ele>470</ele>
        <time>2012-11-19T13:42:47Z</time>
      </trkpt>
      <trkpt lat="45.52462" lon="3.22569">
        <ele>469</ele>
        <time>2012-11-19T13:42:49Z</time>
      </trkpt>
      <trkpt lat="45.52485" lon="3.2259">
        <ele>465</ele>
        <time>2012-11-19T13:42:52Z</time>
      </trkpt>
      <trkpt lat="45.52504" lon="3.22595">
        <ele>464</ele>
        <time>2012-11-19T13:42:54Z</time>
      </trkpt>
      <trkpt lat="45.52528" lon="3.22603">
        <ele>464</ele>
        <time>2012-11-19T13:42:57Z</time>
      </trkpt>
      <trkpt lat="45.52542" lon="3.2262">
        <ele>465</ele>
        <time>2012-11-19T13:43:00Z</time>
      </trkpt>
      <trkpt lat="45.52554" lon="3.22647">
        <ele>465</ele>
        <time>2012-11-19T13:43:04Z</time>
      </trkpt>
      <trkpt lat="45.52569" lon="3.22671">
        <ele>464</ele>
        <time>2012-11-19T13:43:08Z</time>
      </trkpt>
      <trkpt lat="45.52584" lon="3.22688">
        <ele>464</ele>
        <time>2012-11-19T13:43:12Z</time>
      </trkpt>
      <trkpt lat="45.52602" lon="3.22706">
        <ele>464</ele>
        <time>2012-11-19T13:43:17Z</time>
      </trkpt>
      <trkpt lat="45.5262" lon="3.22713">
        <ele>463</ele>
        <time>2012-11-19T13:43:23Z</time>
      </trkpt>
      <trkpt lat="45.52617" lon="3.22683">
        <ele>464</ele>
        <time>2012-11-19T13:43:31Z</time>
      </trkpt>
      <trkpt lat="45.52621" lon="3.22657">
        <ele>467</ele>
        <time>2012-11-19T13:43:36Z</time>
      </trkpt>
      <trkpt lat="45.52627" lon="3.22629">
        <ele>467</ele>
        <time>2012-11-19T13:43:42Z</time>
      </trkpt>
      <trkpt lat="45.52634" lon="3.22604">
        <ele>468</ele>
        <time>2012-11-19T13:43:48Z</time>
      </trkpt>
      <trkpt lat="45.52641" lon="3.22578">
        <ele>472</ele>
        <time>2012-11-19T13:43:54Z</time>
      </trkpt>
      <trkpt lat="45.52654" lon="3.22557">
        <ele>472</ele>
        <time>2012-11-19T13:44:01Z</time>
      </trkpt>
      <trkpt lat="45.52669" lon="3.2258">
        <ele>472</ele>
        <time>2012-11-19T13:44:07Z</time>
      </trkpt>
      <trkpt lat="45.52682" lon="3.22597">
        <ele>470</ele>
        <time>2012-11-19T13:44:11Z</time>
      </trkpt>
      <trkpt lat="45.527" lon="3.22613">
        <ele>469</ele>
        <time>2012-11-19T13:44:15Z</time>
      </trkpt>
      <trkpt lat="45.52715" lon="3.22627">
        <ele>468</ele>
        <time>2012-11-19T13:44:18Z</time>
      </trkpt>
      <trkpt lat="45.52732" lon="3.22642">
        <ele>467</ele>
        <time>2012-11-19T13:44:21Z</time>
      </trkpt>
      <trkpt lat="45.52749" lon="3.22655">
        <ele>466</ele>
        <time>2012-11-19T13:44:24Z</time>
      </trkpt>
      <trkpt lat="45.52769" lon="3.22668">
        <ele>463</ele>
        <time>2012-11-19T13:44:27Z</time>
      </trkpt>
      <trkpt lat="45.52789" lon="3.2268">
        <ele>462</ele>
        <time>2012-11-19T13:44:30Z</time>
      </trkpt>
      <trkpt lat="45.52808" lon="3.22698">
        <ele>462</ele>
        <time>2012-11-19T13:44:33Z</time>
      </trkpt>
      <trkpt lat="45.52825" lon="3.22716">
        <ele>461</ele>
        <time>2012-11-19T13:44:36Z</time>
      </trkpt>
      <trkpt lat="45.52842" lon="3.22734">
        <ele>460</ele>
        <time>2012-11-19T13:44:39Z</time>
      </trkpt>
      <trkpt lat="45.52859" lon="3.22749">
        <ele>460</ele>
        <time>2012-11-19T13:44:42Z</time>
      </trkpt>
      <trkpt lat="45.52879" lon="3.22767">
        <ele>458</ele>
        <time>2012-11-19T13:44:46Z</time>
      </trkpt>
      <trkpt lat="45.52894" lon="3.22782">
        <ele>458</ele>
        <time>2012-11-19T13:44:49Z</time>
      </trkpt>
      <trkpt lat="45.52911" lon="3.22796">
        <ele>458</ele>
        <time>2012-11-19T13:44:52Z</time>
      </trkpt>
      <trkpt lat="45.52927" lon="3.2281">
        <ele>458</ele>
        <time>2012-11-19T13:44:55Z</time>
      </trkpt>
      <trkpt lat="45.52944" lon="3.22827">
        <ele>458</ele>
        <time>2012-11-19T13:44:58Z</time>
      </trkpt>
      <trkpt lat="45.5296" lon="3.22844">
        <ele>456</ele>
        <time>2012-11-19T13:45:01Z</time>
      </trkpt>
      <trkpt lat="45.52974" lon="3.22868">
        <ele>456</ele>
        <time>2012-11-19T13:45:04Z</time>
      </trkpt>
      <trkpt lat="45.52985" lon="3.22894">
        <ele>456</ele>
        <time>2012-11-19T13:45:07Z</time>
      </trkpt>
      <trkpt lat="45.52993" lon="3.2292">
        <ele>456</ele>
        <time>2012-11-19T13:45:10Z</time>
      </trkpt>
      <trkpt lat="45.53003" lon="3.2295">
        <ele>457</ele>
        <time>2012-11-19T13:45:13Z</time>
      </trkpt>
      <trkpt lat="45.53008" lon="3.22975">
        <ele>457</ele>
        <time>2012-11-19T13:45:16Z</time>
      </trkpt>
      <trkpt lat="45.53015" lon="3.23002">
        <ele>455</ele>
        <time>2012-11-19T13:45:19Z</time>
      </trkpt>
      <trkpt lat="45.53026" lon="3.23029">
        <ele>456</ele>
        <time>2012-11-19T13:45:22Z</time>
      </trkpt>
      <trkpt lat="45.53043" lon="3.23049">
        <ele>456</ele>
        <time>2012-11-19T13:45:26Z</time>
      </trkpt>
      <trkpt lat="45.53061" lon="3.23065">
        <ele>456</ele>
        <time>2012-11-19T13:45:30Z</time>
      </trkpt>
      <trkpt lat="45.53082" lon="3.23079">
        <ele>457</ele>
        <time>2012-11-19T13:45:34Z</time>
      </trkpt>
      <trkpt lat="45.53101" lon="3.23092">
        <ele>456</ele>
        <time>2012-11-19T13:45:38Z</time>
      </trkpt>
      <trkpt lat="45.53121" lon="3.23106">
        <ele>456</ele>
        <time>2012-11-19T13:45:42Z</time>
      </trkpt>
      <trkpt lat="45.53143" lon="3.23121">
        <ele>456</ele>
        <time>2012-11-19T13:45:45Z</time>
      </trkpt>
      <trkpt lat="45.53162" lon="3.23137">
        <ele>456</ele>
        <time>2012-11-19T13:45:50Z</time>
      </trkpt>
      <trkpt lat="45.5318" lon="3.23153">
        <ele>456</ele>
        <time>2012-11-19T13:45:54Z</time>
      </trkpt>
      <trkpt lat="45.53197" lon="3.2317">
        <ele>456</ele>
        <time>2012-11-19T13:45:58Z</time>
      </trkpt>
      <trkpt lat="45.53212" lon="3.23194">
        <ele>456</ele>
        <time>2012-11-19T13:46:02Z</time>
      </trkpt>
      <trkpt lat="45.53225" lon="3.23213">
        <ele>455</ele>
        <time>2012-11-19T13:46:06Z</time>
      </trkpt>
      <trkpt lat="45.53238" lon="3.23234">
        <ele>455</ele>
        <time>2012-11-19T13:46:09Z</time>
      </trkpt>
      <trkpt lat="45.53251" lon="3.23253">
        <ele>454</ele>
        <time>2012-11-19T13:46:13Z</time>
      </trkpt>
      <trkpt lat="45.53264" lon="3.23274">
        <ele>453</ele>
        <time>2012-11-19T13:46:16Z</time>
      </trkpt>
      <trkpt lat="45.53277" lon="3.23296">
        <ele>453</ele>
        <time>2012-11-19T13:46:19Z</time>
      </trkpt>
      <trkpt lat="45.5329" lon="3.23317">
        <ele>453</ele>
        <time>2012-11-19T13:46:22Z</time>
      </trkpt>
      <trkpt lat="45.53301" lon="3.23339">
        <ele>452</ele>
        <time>2012-11-19T13:46:25Z</time>
      </trkpt>
      <trkpt lat="45.53315" lon="3.2336">
        <ele>451</ele>
        <time>2012-11-19T13:46:28Z</time>
      </trkpt>
      <trkpt lat="45.53328" lon="3.23382">
        <ele>451</ele>
        <time>2012-11-19T13:46:31Z</time>
      </trkpt>
      <trkpt lat="45.53342" lon="3.23402">
        <ele>448</ele>
        <time>2012-11-19T13:46:34Z</time>
      </trkpt>
      <trkpt lat="45.53359" lon="3.23422">
        <ele>446</ele>
        <time>2012-11-19T13:46:37Z</time>
      </trkpt>
      <trkpt lat="45.53378" lon="3.23446">
        <ele>445</ele>
        <time>2012-11-19T13:46:40Z</time>
      </trkpt>
      <trkpt lat="45.53397" lon="3.23465">
        <ele>444</ele>
        <time>2012-11-19T13:46:43Z</time>
      </trkpt>
      <trkpt lat="45.53412" lon="3.23481">
        <ele>443</ele>
        <time>2012-11-19T13:46:46Z</time>
      </trkpt>
      <trkpt lat="45.53428" lon="3.23498">
        <ele>441</ele>
        <time>2012-11-19T13:46:49Z</time>
      </trkpt>
      <trkpt lat="45.53445" lon="3.23519">
        <ele>438</ele>
        <time>2012-11-19T13:46:52Z</time>
      </trkpt>
      <trkpt lat="45.53461" lon="3.2354">
        <ele>437</ele>
        <time>2012-11-19T13:46:55Z</time>
      </trkpt>
      <trkpt lat="45.53478" lon="3.23564">
        <ele>436</ele>
        <time>2012-11-19T13:46:58Z</time>
      </trkpt>
      <trkpt lat="45.53497" lon="3.23585">
        <ele>433</ele>
        <time>2012-11-19T13:47:01Z</time>
      </trkpt>
      <trkpt lat="45.5352" lon="3.23591">
        <ele>429</ele>
        <time>2012-11-19T13:47:04Z</time>
      </trkpt>
      <trkpt lat="45.53537" lon="3.23581">
        <ele>430</ele>
        <time>2012-11-19T13:47:06Z</time>
      </trkpt>
      <trkpt lat="45.53551" lon="3.23563">
        <ele>429</ele>
        <time>2012-11-19T13:47:08Z</time>
      </trkpt>
      <trkpt lat="45.53563" lon="3.23542">
        <ele>429</ele>
        <time>2012-11-19T13:47:10Z</time>
      </trkpt>
      <trkpt lat="45.53572" lon="3.23517">
        <ele>428</ele>
        <time>2012-11-19T13:47:12Z</time>
      </trkpt>
      <trkpt lat="45.5359" lon="3.235">
        <ele>424</ele>
        <time>2012-11-19T13:47:15Z</time>
      </trkpt>
      <trkpt lat="45.53606" lon="3.2352">
        <ele>420</ele>
        <time>2012-11-19T13:47:18Z</time>
      </trkpt>
      <trkpt lat="45.53614" lon="3.23543">
        <ele>419</ele>
        <time>2012-11-19T13:47:20Z</time>
      </trkpt>
      <trkpt lat="45.53623" lon="3.23566">
        <ele>418</ele>
        <time>2012-11-19T13:47:21Z</time>
      </trkpt>
      <trkpt lat="45.53631" lon="3.23595">
        <ele>415</ele>
        <time>2012-11-19T13:47:24Z</time>
      </trkpt>
      <trkpt lat="45.53641" lon="3.23627">
        <ele>414</ele>
        <time>2012-11-19T13:47:26Z</time>
      </trkpt>
      <trkpt lat="45.53649" lon="3.2366">
        <ele>412</ele>
        <time>2012-11-19T13:47:28Z</time>
      </trkpt>
      <trkpt lat="45.53658" lon="3.23695">
        <ele>410</ele>
        <time>2012-11-19T13:47:29Z</time>
      </trkpt>
      <trkpt lat="45.53669" lon="3.23727">
        <ele>403</ele>
        <time>2012-11-19T13:47:32Z</time>
      </trkpt>
      <trkpt lat="45.53678" lon="3.23759">
        <ele>403</ele>
        <time>2012-11-19T13:47:34Z</time>
      </trkpt>
      <trkpt lat="45.53689" lon="3.23789">
        <ele>402</ele>
        <time>2012-11-19T13:47:35Z</time>
      </trkpt>
      <trkpt lat="45.53699" lon="3.23819">
        <ele>401</ele>
        <time>2012-11-19T13:47:38Z</time>
      </trkpt>
      <trkpt lat="45.53708" lon="3.23847">
        <ele>400</ele>
        <time>2012-11-19T13:47:40Z</time>
      </trkpt>
      <trkpt lat="45.53717" lon="3.23876">
        <ele>399</ele>
        <time>2012-11-19T13:47:42Z</time>
      </trkpt>
      <trkpt lat="45.53725" lon="3.23904">
        <ele>398</ele>
        <time>2012-11-19T13:47:44Z</time>
      </trkpt>
      <trkpt lat="45.53734" lon="3.23933">
        <ele>397</ele>
        <time>2012-11-19T13:47:46Z</time>
      </trkpt>
      <trkpt lat="45.53742" lon="3.2396">
        <ele>397</ele>
        <time>2012-11-19T13:47:48Z</time>
      </trkpt>
      <trkpt lat="45.5375" lon="3.23985">
        <ele>397</ele>
        <time>2012-11-19T13:47:50Z</time>
      </trkpt>
      <trkpt lat="45.53759" lon="3.24009">
        <ele>396</ele>
        <time>2012-11-19T13:47:51Z</time>
      </trkpt>
      <trkpt lat="45.53766" lon="3.24033">
        <ele>395</ele>
        <time>2012-11-19T13:47:54Z</time>
      </trkpt>
      <trkpt lat="45.53773" lon="3.24057">
        <ele>396</ele>
        <time>2012-11-19T13:47:56Z</time>
      </trkpt>
      <trkpt lat="45.53783" lon="3.24091">
        <ele>396</ele>
        <time>2012-11-19T13:47:59Z</time>
      </trkpt>
      <trkpt lat="45.53793" lon="3.24123">
        <ele>395</ele>
        <time>2012-11-19T13:48:02Z</time>
      </trkpt>
      <trkpt lat="45.53801" lon="3.24154">
        <ele>394</ele>
        <time>2012-11-19T13:48:05Z</time>
      </trkpt>
      <trkpt lat="45.53812" lon="3.24188">
        <ele>394</ele>
        <time>2012-11-19T13:48:08Z</time>
      </trkpt>
      <trkpt lat="45.53821" lon="3.24222">
        <ele>394</ele>
        <time>2012-11-19T13:48:11Z</time>
      </trkpt>
      <trkpt lat="45.5383" lon="3.24254">
        <ele>394</ele>
        <time>2012-11-19T13:48:14Z</time>
      </trkpt>
      <trkpt lat="45.5384" lon="3.24285">
        <ele>393</ele>
        <time>2012-11-19T13:48:17Z</time>
      </trkpt>
      <trkpt lat="45.5385" lon="3.24315">
        <ele>393</ele>
        <time>2012-11-19T13:48:20Z</time>
      </trkpt>
      <trkpt lat="45.53859" lon="3.24344">
        <ele>393</ele>
        <time>2012-11-19T13:48:23Z</time>
      </trkpt>
      <trkpt lat="45.53868" lon="3.24372">
        <ele>392</ele>
        <time>2012-11-19T13:48:26Z</time>
      </trkpt>
      <trkpt lat="45.53875" lon="3.24397">
        <ele>392</ele>
        <time>2012-11-19T13:48:32Z</time>
      </trkpt>
      <trkpt lat="45.53884" lon="3.24423">
        <ele>392</ele>
        <time>2012-11-19T13:48:37Z</time>
      </trkpt>
      <trkpt lat="45.53893" lon="3.24451">
        <ele>392</ele>
        <time>2012-11-19T13:48:41Z</time>
      </trkpt>
      <trkpt lat="45.53902" lon="3.24482">
        <ele>392</ele>
        <time>2012-11-19T13:48:45Z</time>
      </trkpt>
      <trkpt lat="45.5391" lon="3.24515">
        <ele>393</ele>
        <time>2012-11-19T13:48:49Z</time>
      </trkpt>
      <trkpt lat="45.53919" lon="3.24539">
        <ele>392</ele>
        <time>2012-11-19T13:48:52Z</time>
      </trkpt>
      <trkpt lat="45.53927" lon="3.24563">
        <ele>392</ele>
        <time>2012-11-19T13:48:55Z</time>
      </trkpt>
      <trkpt lat="45.53934" lon="3.24588">
        <ele>393</ele>
        <time>2012-11-19T13:48:58Z</time>
      </trkpt>
      <trkpt lat="45.53941" lon="3.24611">
        <ele>393</ele>
        <time>2012-11-19T13:49:01Z</time>
      </trkpt>
      <trkpt lat="45.53949" lon="3.24636">
        <ele>393</ele>
        <time>2012-11-19T13:49:04Z</time>
      </trkpt>
      <trkpt lat="45.53956" lon="3.24666">
        <ele>393</ele>
        <time>2012-11-19T13:49:08Z</time>
      </trkpt>
      <trkpt lat="45.53957" lon="3.24692">
        <ele>394</ele>
        <time>2012-11-19T13:49:11Z</time>
      </trkpt>
      <trkpt lat="45.53957" lon="3.24719">
        <ele>394</ele>
        <time>2012-11-19T13:49:14Z</time>
      </trkpt>
      <trkpt lat="45.53956" lon="3.24745">
        <ele>395</ele>
        <time>2012-11-19T13:49:17Z</time>
      </trkpt>
      <trkpt lat="45.53955" lon="3.24775">
        <ele>395</ele>
        <time>2012-11-19T13:49:21Z</time>
      </trkpt>
      <trkpt lat="45.5396" lon="3.248">
        <ele>396</ele>
        <time>2012-11-19T13:49:29Z</time>
      </trkpt>
      <trkpt lat="45.5398" lon="3.24812">
        <ele>396</ele>
        <time>2012-11-19T13:49:34Z</time>
      </trkpt>
      <trkpt lat="45.53998" lon="3.24828">
        <ele>396</ele>
        <time>2012-11-19T13:49:38Z</time>
      </trkpt>
      <trkpt lat="45.54014" lon="3.2485">
        <ele>395</ele>
        <time>2012-11-19T13:49:42Z</time>
      </trkpt>
      <trkpt lat="45.54023" lon="3.24874">
        <ele>394</ele>
        <time>2012-11-19T13:49:45Z</time>
      </trkpt>
      <trkpt lat="45.54033" lon="3.24897">
        <ele>394</ele>
        <time>2012-11-19T13:49:48Z</time>
      </trkpt>
      <trkpt lat="45.54045" lon="3.24923">
        <ele>393</ele>
        <time>2012-11-19T13:49:52Z</time>
      </trkpt>
      <trkpt lat="45.5406" lon="3.2495">
        <ele>393</ele>
        <time>2012-11-19T13:49:56Z</time>
      </trkpt>
      <trkpt lat="45.54073" lon="3.24968">
        <ele>393</ele>
        <time>2012-11-19T13:49:59Z</time>
      </trkpt>
      <trkpt lat="45.54092" lon="3.24975">
        <ele>391</ele>
        <time>2012-11-19T13:50:03Z</time>
      </trkpt>
      <trkpt lat="45.54113" lon="3.24976">
        <ele>391</ele>
        <time>2012-11-19T13:50:12Z</time>
      </trkpt>
      <trkpt lat="45.54133" lon="3.2496">
        <ele>390</ele>
        <time>2012-11-19T13:50:16Z</time>
      </trkpt>
      <trkpt lat="45.54151" lon="3.24952">
        <ele>390</ele>
        <time>2012-11-19T13:50:19Z</time>
      </trkpt>
      <trkpt lat="45.54173" lon="3.24974">
        <ele>389</ele>
        <time>2012-11-19T13:50:25Z</time>
      </trkpt>
      <trkpt lat="45.54184" lon="3.25003">
        <ele>388</ele>
        <time>2012-11-19T13:50:28Z</time>
      </trkpt>
      <trkpt lat="45.54193" lon="3.25028">
        <ele>387</ele>
        <time>2012-11-19T13:50:31Z</time>
      </trkpt>
      <trkpt lat="45.5421" lon="3.25044">
        <ele>387</ele>
        <time>2012-11-19T13:50:34Z</time>
      </trkpt>
      <trkpt lat="45.54228" lon="3.25059">
        <ele>387</ele>
        <time>2012-11-19T13:50:37Z</time>
      </trkpt>
      <trkpt lat="45.54245" lon="3.25073">
        <ele>386</ele>
        <time>2012-11-19T13:50:40Z</time>
      </trkpt>
      <trkpt lat="45.54262" lon="3.25088">
        <ele>385</ele>
        <time>2012-11-19T13:50:43Z</time>
      </trkpt>
      <trkpt lat="45.5428" lon="3.25102">
        <ele>385</ele>
        <time>2012-11-19T13:50:46Z</time>
      </trkpt>
      <trkpt lat="45.54297" lon="3.25116">
        <ele>385</ele>
        <time>2012-11-19T13:50:49Z</time>
      </trkpt>
      <trkpt lat="45.54314" lon="3.25126">
        <ele>385</ele>
        <time>2012-11-19T13:50:52Z</time>
      </trkpt>
      <trkpt lat="45.54331" lon="3.25139">
        <ele>385</ele>
        <time>2012-11-19T13:50:55Z</time>
      </trkpt>
      <trkpt lat="45.54348" lon="3.25148">
        <ele>387</ele>
        <time>2012-11-19T13:50:58Z</time>
      </trkpt>
      <trkpt lat="45.54365" lon="3.25158">
        <ele>388</ele>
        <time>2012-11-19T13:51:01Z</time>
      </trkpt>
      <trkpt lat="45.54383" lon="3.25176">
        <ele>387</ele>
        <time>2012-11-19T13:51:05Z</time>
      </trkpt>
      <trkpt lat="45.54389" lon="3.25201">
        <ele>387</ele>
        <time>2012-11-19T13:51:08Z</time>
      </trkpt>
      <trkpt lat="45.54393" lon="3.25232">
        <ele>386</ele>
        <time>2012-11-19T13:51:12Z</time>
      </trkpt>
      <trkpt lat="45.54394" lon="3.25262">
        <ele>385</ele>
        <time>2012-11-19T13:51:15Z</time>
      </trkpt>
      <trkpt lat="45.54397" lon="3.25289">
        <ele>385</ele>
        <time>2012-11-19T13:51:18Z</time>
      </trkpt>
      <trkpt lat="45.54398" lon="3.25315">
        <ele>385</ele>
        <time>2012-11-19T13:51:21Z</time>
      </trkpt>
      <trkpt lat="45.54396" lon="3.25345">
        <ele>384</ele>
        <time>2012-11-19T13:51:25Z</time>
      </trkpt>
      <trkpt lat="45.54372" lon="3.25356">
        <ele>383</ele>
        <time>2012-11-19T13:51:29Z</time>
      </trkpt>
      <trkpt lat="45.5435" lon="3.2536">
        <ele>383</ele>
        <time>2012-11-19T13:51:32Z</time>
      </trkpt>
      <trkpt lat="45.54335" lon="3.25382">
        <ele>383</ele>
        <time>2012-11-19T13:51:35Z</time>
      </trkpt>
      <trkpt lat="45.54334" lon="3.2541">
        <ele>381</ele>
        <time>2012-11-19T13:51:38Z</time>
      </trkpt>
      <trkpt lat="45.54336" lon="3.25439">
        <ele>381</ele>
        <time>2012-11-19T13:51:41Z</time>
      </trkpt>
      <trkpt lat="45.54339" lon="3.25471">
        <ele>381</ele>
        <time>2012-11-19T13:51:45Z</time>
      </trkpt>
      <trkpt lat="45.54344" lon="3.25505">
        <ele>380</ele>
        <time>2012-11-19T13:51:49Z</time>
      </trkpt>
      <trkpt lat="45.54348" lon="3.25536">
        <ele>381</ele>
        <time>2012-11-19T13:51:53Z</time>
      </trkpt>
      <trkpt lat="45.5436" lon="3.25564">
        <ele>381</ele>
        <time>2012-11-19T13:51:57Z</time>
      </trkpt>
      <trkpt lat="45.5437" lon="3.25586">
        <ele>380</ele>
        <time>2012-11-19T13:52:00Z</time>
      </trkpt>
      <trkpt lat="45.54375" lon="3.25614">
        <ele>380</ele>
        <time>2012-11-19T13:52:04Z</time>
      </trkpt>
      <trkpt lat="45.54359" lon="3.25637">
        <ele>379</ele>
        <time>2012-11-19T13:52:09Z</time>
      </trkpt>
      <trkpt lat="45.54366" lon="3.25669">
        <ele>378</ele>
        <time>2012-11-19T13:52:13Z</time>
      </trkpt>
      <trkpt lat="45.54373" lon="3.25697">
        <ele>378</ele>
        <time>2012-11-19T13:52:17Z</time>
      </trkpt>
      <trkpt lat="45.54357" lon="3.25714">
        <ele>379</ele>
        <time>2012-11-19T13:52:22Z</time>
      </trkpt>
      <trkpt lat="45.5434" lon="3.2573">
        <ele>379</ele>
        <time>2012-11-19T13:52:27Z</time>
      </trkpt>
      <trkpt lat="45.54334" lon="3.25763">
        <ele>379</ele>
        <time>2012-11-19T13:52:32Z</time>
      </trkpt>
      <trkpt lat="45.54329" lon="3.25789">
        <ele>381</ele>
        <time>2012-11-19T13:52:35Z</time>
      </trkpt>
      <trkpt lat="45.54323" lon="3.25819">
        <ele>381</ele>
        <time>2012-11-19T13:52:39Z</time>
      </trkpt>
      <trkpt lat="45.54323" lon="3.2585">
        <ele>381</ele>
        <time>2012-11-19T13:52:42Z</time>
      </trkpt>
      <trkpt lat="45.5432" lon="3.25879">
        <ele>382</ele>
        <time>2012-11-19T13:52:46Z</time>
      </trkpt>
      <trkpt lat="45.54321" lon="3.25909">
        <ele>381</ele>
        <time>2012-11-19T13:52:50Z</time>
      </trkpt>
      <trkpt lat="45.54329" lon="3.25933">
        <ele>380</ele>
        <time>2012-11-19T13:52:54Z</time>
      </trkpt>
      <trkpt lat="45.54354" lon="3.25944">
        <ele>378</ele>
        <time>2012-11-19T13:52:58Z</time>
      </trkpt>
      <trkpt lat="45.54374" lon="3.2595">
        <ele>378</ele>
        <time>2012-11-19T13:53:01Z</time>
      </trkpt>
      <trkpt lat="45.54395" lon="3.25969">
        <ele>377</ele>
        <time>2012-11-19T13:53:05Z</time>
      </trkpt>
      <trkpt lat="45.54408" lon="3.25993">
        <ele>377</ele>
        <time>2012-11-19T13:53:09Z</time>
      </trkpt>
      <trkpt lat="45.54421" lon="3.26017">
        <ele>377</ele>
        <time>2012-11-19T13:53:13Z</time>
      </trkpt>
      <trkpt lat="45.54425" lon="3.26048">
        <ele>378</ele>
        <time>2012-11-19T13:53:17Z</time>
      </trkpt>
      <trkpt lat="45.54427" lon="3.26074">
        <ele>377</ele>
        <time>2012-11-19T13:53:20Z</time>
      </trkpt>
      <trkpt lat="45.54427" lon="3.26103">
        <ele>377</ele>
        <time>2012-11-19T13:53:23Z</time>
      </trkpt>
      <trkpt lat="45.54427" lon="3.26131">
        <ele>377</ele>
        <time>2012-11-19T13:53:26Z</time>
      </trkpt>
      <trkpt lat="45.54426" lon="3.26157">
        <ele>377</ele>
        <time>2012-11-19T13:53:29Z</time>
      </trkpt>
      <trkpt lat="45.54426" lon="3.2619">
        <ele>376</ele>
        <time>2012-11-19T13:53:33Z</time>
      </trkpt>
      <trkpt lat="45.5443" lon="3.26215">
        <ele>375</ele>
        <time>2012-11-19T13:53:37Z</time>
      </trkpt>
      <trkpt lat="45.54442" lon="3.26244">
        <ele>375</ele>
        <time>2012-11-19T13:53:41Z</time>
      </trkpt>
      <trkpt lat="45.54451" lon="3.26269">
        <ele>374</ele>
        <time>2012-11-19T13:53:44Z</time>
      </trkpt>
      <trkpt lat="45.54459" lon="3.26293">
        <ele>374</ele>
        <time>2012-11-19T13:53:47Z</time>
      </trkpt>
      <trkpt lat="45.54467" lon="3.26318">
        <ele>374</ele>
        <time>2012-11-19T13:53:50Z</time>
      </trkpt>
      <trkpt lat="45.54473" lon="3.26345">
        <ele>374</ele>
        <time>2012-11-19T13:53:53Z</time>
      </trkpt>
      <trkpt lat="45.54474" lon="3.26372">
        <ele>374</ele>
        <time>2012-11-19T13:53:56Z</time>
      </trkpt>
      <trkpt lat="45.54482" lon="3.26404">
        <ele>375</ele>
        <time>2012-11-19T13:54:00Z</time>
      </trkpt>
      <trkpt lat="45.54486" lon="3.26429">
        <ele>375</ele>
        <time>2012-11-19T13:54:03Z</time>
      </trkpt>
      <trkpt lat="45.54491" lon="3.26458">
        <ele>374</ele>
        <time>2012-11-19T13:54:06Z</time>
      </trkpt>
      <trkpt lat="45.54498" lon="3.26484">
        <ele>375</ele>
        <time>2012-11-19T13:54:09Z</time>
      </trkpt>
      <trkpt lat="45.54504" lon="3.26514">
        <ele>375</ele>
        <time>2012-11-19T13:54:12Z</time>
      </trkpt>
      <trkpt lat="45.54511" lon="3.26542">
        <ele>375</ele>
        <time>2012-11-19T13:54:15Z</time>
      </trkpt>
      <trkpt lat="45.54515" lon="3.2657">
        <ele>375</ele>
        <time>2012-11-19T13:54:18Z</time>
      </trkpt>
      <trkpt lat="45.54521" lon="3.26597">
        <ele>375</ele>
        <time>2012-11-19T13:54:21Z</time>
      </trkpt>
      <trkpt lat="45.54525" lon="3.26624">
        <ele>375</ele>
        <time>2012-11-19T13:54:24Z</time>
      </trkpt>
      <trkpt lat="45.54531" lon="3.26651">
        <ele>374</ele>
        <time>2012-11-19T13:54:27Z</time>
      </trkpt>
      <trkpt lat="45.54535" lon="3.2668">
        <ele>374</ele>
        <time>2012-11-19T13:54:30Z</time>
      </trkpt>
      <trkpt lat="45.54537" lon="3.26709">
        <ele>374</ele>
        <time>2012-11-19T13:54:33Z</time>
      </trkpt>
      <trkpt lat="45.54537" lon="3.26737">
        <ele>374</ele>
        <time>2012-11-19T13:54:36Z</time>
      </trkpt>
      <trkpt lat="45.54541" lon="3.26767">
        <ele>373</ele>
        <time>2012-11-19T13:54:39Z</time>
      </trkpt>
      <trkpt lat="45.54538" lon="3.26796">
        <ele>373</ele>
        <time>2012-11-19T13:54:42Z</time>
      </trkpt>
      <trkpt lat="45.54531" lon="3.26825">
        <ele>373</ele>
        <time>2012-11-19T13:54:45Z</time>
      </trkpt>
      <trkpt lat="45.54526" lon="3.26861">
        <ele>372</ele>
        <time>2012-11-19T13:54:49Z</time>
      </trkpt>
      <trkpt lat="45.54533" lon="3.26888">
        <ele>372</ele>
        <time>2012-11-19T13:54:52Z</time>
      </trkpt>
      <trkpt lat="45.54535" lon="3.26915">
        <ele>372</ele>
        <time>2012-11-19T13:54:54Z</time>
      </trkpt>
      <trkpt lat="45.54532" lon="3.26945">
        <ele>370</ele>
        <time>2012-11-19T13:54:58Z</time>
      </trkpt>
      <trkpt lat="45.54533" lon="3.26974">
        <ele>370</ele>
        <time>2012-11-19T13:55:01Z</time>
      </trkpt>
      <trkpt lat="45.54532" lon="3.27004">
        <ele>368</ele>
        <time>2012-11-19T13:55:04Z</time>
      </trkpt>
      <trkpt lat="45.54531" lon="3.27033">
        <ele>368</ele>
        <time>2012-11-19T13:55:07Z</time>
      </trkpt>
      <trkpt lat="45.5453" lon="3.27061">
        <ele>368</ele>
        <time>2012-11-19T13:55:09Z</time>
      </trkpt>
      <trkpt lat="45.5453" lon="3.27092">
        <ele>368</ele>
        <time>2012-11-19T13:55:13Z</time>
      </trkpt>
      <trkpt lat="45.54528" lon="3.27119">
        <ele>368</ele>
        <time>2012-11-19T13:55:16Z</time>
      </trkpt>
      <trkpt lat="45.54527" lon="3.27146">
        <ele>368</ele>
        <time>2012-11-19T13:55:19Z</time>
      </trkpt>
      <trkpt lat="45.54542" lon="3.27169">
        <ele>369</ele>
        <time>2012-11-19T13:55:24Z</time>
      </trkpt>
      <trkpt lat="45.54562" lon="3.27171">
        <ele>369</ele>
        <time>2012-11-19T13:55:28Z</time>
      </trkpt>
      <trkpt lat="45.54584" lon="3.27172">
        <ele>371</ele>
        <time>2012-11-19T13:55:32Z</time>
      </trkpt>
      <trkpt lat="45.54607" lon="3.27176">
        <ele>370</ele>
        <time>2012-11-19T13:55:36Z</time>
      </trkpt>
      <trkpt lat="45.5463" lon="3.27178">
        <ele>370</ele>
        <time>2012-11-19T13:55:40Z</time>
      </trkpt>
      <trkpt lat="45.54644" lon="3.27197">
        <ele>370</ele>
        <time>2012-11-19T13:55:43Z</time>
      </trkpt>
      <trkpt lat="45.54652" lon="3.27227">
        <ele>370</ele>
        <time>2012-11-19T13:55:48Z</time>
      </trkpt>
      <trkpt lat="45.54666" lon="3.27251">
        <ele>370</ele>
        <time>2012-11-19T13:55:53Z</time>
      </trkpt>
      <trkpt lat="45.54677" lon="3.27275">
        <ele>369</ele>
        <time>2012-11-19T13:55:57Z</time>
      </trkpt>
      <trkpt lat="45.54688" lon="3.273">
        <ele>369</ele>
        <time>2012-11-19T13:56:01Z</time>
      </trkpt>
      <trkpt lat="45.54699" lon="3.27325">
        <ele>368</ele>
        <time>2012-11-19T13:56:04Z</time>
      </trkpt>
      <trkpt lat="45.5471" lon="3.27346">
        <ele>369</ele>
        <time>2012-11-19T13:56:08Z</time>
      </trkpt>
      <trkpt lat="45.54723" lon="3.27366">
        <ele>369</ele>
        <time>2012-11-19T13:56:11Z</time>
      </trkpt>
      <trkpt lat="45.54739" lon="3.27385">
        <ele>369</ele>
        <time>2012-11-19T13:56:15Z</time>
      </trkpt>
      <trkpt lat="45.54755" lon="3.27408">
        <ele>370</ele>
        <time>2012-11-19T13:56:19Z</time>
      </trkpt>
      <trkpt lat="45.54764" lon="3.27431">
        <ele>370</ele>
        <time>2012-11-19T13:56:22Z</time>
      </trkpt>
      <trkpt lat="45.54766" lon="3.27463">
        <ele>370</ele>
        <time>2012-11-19T13:56:26Z</time>
      </trkpt>
      <trkpt lat="45.54772" lon="3.27491">
        <ele>370</ele>
        <time>2012-11-19T13:56:30Z</time>
      </trkpt>
      <trkpt lat="45.54781" lon="3.27517">
        <ele>370</ele>
        <time>2012-11-19T13:56:34Z</time>
      </trkpt>
      <trkpt lat="45.548" lon="3.2753">
        <ele>370</ele>
        <time>2012-11-19T13:56:39Z</time>
      </trkpt>
      <trkpt lat="45.54816" lon="3.27546">
        <ele>370</ele>
        <time>2012-11-19T13:56:44Z</time>
      </trkpt>
      <trkpt lat="45.54823" lon="3.27574">
        <ele>370</ele>
        <time>2012-11-19T13:56:48Z</time>
      </trkpt>
      <trkpt lat="45.54826" lon="3.27604">
        <ele>370</ele>
        <time>2012-11-19T13:56:52Z</time>
      </trkpt>
      <trkpt lat="45.54822" lon="3.27631">
        <ele>369</ele>
        <time>2012-11-19T13:56:56Z</time>
      </trkpt>
      <trkpt lat="45.5483" lon="3.27656">
        <ele>368</ele>
        <time>2012-11-19T13:57:01Z</time>
      </trkpt>
      <trkpt lat="45.54837" lon="3.2768">
        <ele>367</ele>
        <time>2012-11-19T13:57:06Z</time>
      </trkpt>
      <trkpt lat="45.54854" lon="3.27696">
        <ele>368</ele>
        <time>2012-11-19T13:57:10Z</time>
      </trkpt>
      <trkpt lat="45.54871" lon="3.27707">
        <ele>368</ele>
        <time>2012-11-19T13:57:13Z</time>
      </trkpt>
      <trkpt lat="45.54892" lon="3.27718">
        <ele>368</ele>
        <time>2012-11-19T13:57:17Z</time>
      </trkpt>
      <trkpt lat="45.54911" lon="3.27726">
        <ele>368</ele>
        <time>2012-11-19T13:57:21Z</time>
      </trkpt>
      <trkpt lat="45.54931" lon="3.27726">
        <ele>368</ele>
        <time>2012-11-19T13:57:25Z</time>
      </trkpt>
      <trkpt lat="45.54949" lon="3.27726">
        <ele>369</ele>
        <time>2012-11-19T13:57:28Z</time>
      </trkpt>
      <trkpt lat="45.54973" lon="3.27723">
        <ele>369</ele>
        <time>2012-11-19T13:57:32Z</time>
      </trkpt>
      <trkpt lat="45.54991" lon="3.27723">
        <ele>369</ele>
        <time>2012-11-19T13:57:35Z</time>
      </trkpt>
      <trkpt lat="45.55012" lon="3.2772">
        <ele>369</ele>
        <time>2012-11-19T13:57:39Z</time>
      </trkpt>
      <trkpt lat="45.55035" lon="3.27713">
        <ele>369</ele>
        <time>2012-11-19T13:57:43Z</time>
      </trkpt>
      <trkpt lat="45.55053" lon="3.27711">
        <ele>369</ele>
        <time>2012-11-19T13:57:46Z</time>
      </trkpt>
      <trkpt lat="45.55077" lon="3.27702">
        <ele>369</ele>
        <time>2012-11-19T13:57:50Z</time>
      </trkpt>
      <trkpt lat="45.55099" lon="3.27691">
        <ele>368</ele>
        <time>2012-11-19T13:57:54Z</time>
      </trkpt>
      <trkpt lat="45.55121" lon="3.27677">
        <ele>368</ele>
        <time>2012-11-19T13:57:58Z</time>
      </trkpt>
      <trkpt lat="45.55143" lon="3.27666">
        <ele>367</ele>
        <time>2012-11-19T13:58:02Z</time>
      </trkpt>
      <trkpt lat="45.55163" lon="3.27662">
        <ele>367</ele>
        <time>2012-11-19T13:58:05Z</time>
      </trkpt>
      <trkpt lat="45.55182" lon="3.27657">
        <ele>368</ele>
        <time>2012-11-19T13:58:08Z</time>
      </trkpt>
      <trkpt lat="45.55201" lon="3.27655">
        <ele>368</ele>
        <time>2012-11-19T13:58:11Z</time>
      </trkpt>
      <trkpt lat="45.5522" lon="3.27656">
        <ele>369</ele>
        <time>2012-11-19T13:58:13Z</time>
      </trkpt>
      <trkpt lat="45.55238" lon="3.27652">
        <ele>370</ele>
        <time>2012-11-19T13:58:17Z</time>
      </trkpt>
      <trkpt lat="45.55258" lon="3.27649">
        <ele>371</ele>
        <time>2012-11-19T13:58:20Z</time>
      </trkpt>
      <trkpt lat="45.55272" lon="3.2763">
        <ele>370</ele>
        <time>2012-11-19T13:58:23Z</time>
      </trkpt>
      <trkpt lat="45.55284" lon="3.27606">
        <ele>370</ele>
        <time>2012-11-19T13:58:26Z</time>
      </trkpt>
      <trkpt lat="45.55296" lon="3.27583">
        <ele>369</ele>
        <time>2012-11-19T13:58:29Z</time>
      </trkpt>
      <trkpt lat="45.55308" lon="3.27555">
        <ele>369</ele>
        <time>2012-11-19T13:58:33Z</time>
      </trkpt>
      <trkpt lat="45.55326" lon="3.27537">
        <ele>370</ele>
        <time>2012-11-19T13:58:37Z</time>
      </trkpt>
      <trkpt lat="45.55348" lon="3.27524">
        <ele>368</ele>
        <time>2012-11-19T13:58:41Z</time>
      </trkpt>
      <trkpt lat="45.55368" lon="3.27507">
        <ele>367</ele>
        <time>2012-11-19T13:58:45Z</time>
      </trkpt>
      <trkpt lat="45.55386" lon="3.27491">
        <ele>367</ele>
        <time>2012-11-19T13:58:49Z</time>
      </trkpt>
      <trkpt lat="45.55403" lon="3.27475">
        <ele>366</ele>
        <time>2012-11-19T13:58:52Z</time>
      </trkpt>
      <trkpt lat="45.55416" lon="3.27456">
        <ele>367</ele>
        <time>2012-11-19T13:58:55Z</time>
      </trkpt>
      <trkpt lat="45.55422" lon="3.27431">
        <ele>366</ele>
        <time>2012-11-19T13:58:58Z</time>
      </trkpt>
      <trkpt lat="45.55427" lon="3.274">
        <ele>366</ele>
        <time>2012-11-19T13:59:02Z</time>
      </trkpt>
      <trkpt lat="45.55442" lon="3.27384">
        <ele>367</ele>
        <time>2012-11-19T13:59:05Z</time>
      </trkpt>
      <trkpt lat="45.55463" lon="3.27368">
        <ele>367</ele>
        <time>2012-11-19T13:59:09Z</time>
      </trkpt>
      <trkpt lat="45.55477" lon="3.27346">
        <ele>366</ele>
        <time>2012-11-19T13:59:13Z</time>
      </trkpt>
      <trkpt lat="45.55487" lon="3.27324">
        <ele>367</ele>
        <time>2012-11-19T13:59:17Z</time>
      </trkpt>
      <trkpt lat="45.55504" lon="3.27307">
        <ele>367</ele>
        <time>2012-11-19T13:59:21Z</time>
      </trkpt>
      <trkpt lat="45.55521" lon="3.2729">
        <ele>368</ele>
        <time>2012-11-19T13:59:25Z</time>
      </trkpt>
      <trkpt lat="45.55535" lon="3.27274">
        <ele>368</ele>
        <time>2012-11-19T13:59:30Z</time>
      </trkpt>
      <trkpt lat="45.55548" lon="3.27255">
        <ele>369</ele>
        <time>2012-11-19T13:59:39Z</time>
      </trkpt>
      <trkpt lat="45.55564" lon="3.27268">
        <ele>369</ele>
        <time>2012-11-19T13:59:46Z</time>
      </trkpt>
      <trkpt lat="45.55582" lon="3.27284">
        <ele>369</ele>
        <time>2012-11-19T13:59:52Z</time>
      </trkpt>
      <trkpt lat="45.55598" lon="3.27299">
        <ele>370</ele>
        <time>2012-11-19T13:59:57Z</time>
      </trkpt>
      <trkpt lat="45.55615" lon="3.27315">
        <ele>370</ele>
        <time>2012-11-19T14:00:03Z</time>
      </trkpt>
      <trkpt lat="45.55631" lon="3.27331">
        <ele>369</ele>
        <time>2012-11-19T14:00:10Z</time>
      </trkpt>
      <trkpt lat="45.55648" lon="3.27344">
        <ele>369</ele>
        <time>2012-11-19T14:00:36Z</time>
      </trkpt>
      <trkpt lat="45.55663" lon="3.27359">
        <ele>369</ele>
        <time>2012-11-19T14:00:43Z</time>
      </trkpt>
      <trkpt lat="45.55678" lon="3.27376">
        <ele>368</ele>
        <time>2012-11-19T14:00:48Z</time>
      </trkpt>
      <trkpt lat="45.55696" lon="3.27394">
        <ele>367</ele>
        <time>2012-11-19T14:00:53Z</time>
      </trkpt>
      <trkpt lat="45.55715" lon="3.27409">
        <ele>367</ele>
        <time>2012-11-19T14:00:58Z</time>
      </trkpt>
      <trkpt lat="45.55731" lon="3.27424">
        <ele>367</ele>
        <time>2012-11-19T14:01:02Z</time>
      </trkpt>
      <trkpt lat="45.55751" lon="3.27442">
        <ele>368</ele>
        <time>2012-11-19T14:01:06Z</time>
      </trkpt>
      <trkpt lat="45.55766" lon="3.27459">
        <ele>368</ele>
        <time>2012-11-19T14:01:09Z</time>
      </trkpt>
      <trkpt lat="45.55782" lon="3.27475">
        <ele>368</ele>
        <time>2012-11-19T14:01:12Z</time>
      </trkpt>
      <trkpt lat="45.558" lon="3.27489">
        <ele>368</ele>
        <time>2012-11-19T14:01:15Z</time>
      </trkpt>
      <trkpt lat="45.5582" lon="3.27501">
        <ele>368</ele>
        <time>2012-11-19T14:01:18Z</time>
      </trkpt>
      <trkpt lat="45.55841" lon="3.2751">
        <ele>368</ele>
        <time>2012-11-19T14:01:21Z</time>
      </trkpt>
      <trkpt lat="45.55865" lon="3.27516">
        <ele>368</ele>
        <time>2012-11-19T14:01:24Z</time>
      </trkpt>
      <trkpt lat="45.55888" lon="3.27522">
        <ele>368</ele>
        <time>2012-11-19T14:01:27Z</time>
      </trkpt>
      <trkpt lat="45.5591" lon="3.27532">
        <ele>367</ele>
        <time>2012-11-19T14:01:30Z</time>
      </trkpt>
      <trkpt lat="45.55931" lon="3.27537">
        <ele>367</ele>
        <time>2012-11-19T14:01:33Z</time>
      </trkpt>
      <trkpt lat="45.55923" lon="3.27565">
        <ele>366</ele>
        <time>2012-11-19T14:01:40Z</time>
      </trkpt>
      <trkpt lat="45.55906" lon="3.27576">
        <ele>367</ele>
        <time>2012-11-19T14:01:43Z</time>
      </trkpt>
      <trkpt lat="45.5589" lon="3.27589">
        <ele>366</ele>
        <time>2012-11-19T14:01:46Z</time>
      </trkpt>
      <trkpt lat="45.55871" lon="3.27608">
        <ele>366</ele>
        <time>2012-11-19T14:01:49Z</time>
      </trkpt>
      <trkpt lat="45.5585" lon="3.27624">
        <ele>366</ele>
        <time>2012-11-19T14:01:54Z</time>
      </trkpt>
      <trkpt lat="45.55835" lon="3.27638">
        <ele>366</ele>
        <time>2012-11-19T14:01:57Z</time>
      </trkpt>
      <trkpt lat="45.55816" lon="3.27654">
        <ele>365</ele>
        <time>2012-11-19T14:02:01Z</time>
      </trkpt>
      <trkpt lat="45.55814" lon="3.2768">
        <ele>366</ele>
        <time>2012-11-19T14:02:05Z</time>
      </trkpt>
      <trkpt lat="45.55824" lon="3.27703">
        <ele>366</ele>
        <time>2012-11-19T14:02:09Z</time>
      </trkpt>
      <trkpt lat="45.55835" lon="3.27726">
        <ele>366</ele>
        <time>2012-11-19T14:02:13Z</time>
      </trkpt>
      <trkpt lat="45.55846" lon="3.2775">
        <ele>366</ele>
        <time>2012-11-19T14:02:17Z</time>
      </trkpt>
      <trkpt lat="45.55855" lon="3.27772">
        <ele>366</ele>
        <time>2012-11-19T14:02:21Z</time>
      </trkpt>
      <trkpt lat="45.55867" lon="3.27799">
        <ele>366</ele>
        <time>2012-11-19T14:02:26Z</time>
      </trkpt>
      <trkpt lat="45.55876" lon="3.27826">
        <ele>366</ele>
        <time>2012-11-19T14:03:23Z</time>
      </trkpt>
      <trkpt lat="45.55886" lon="3.27849">
        <ele>366</ele>
        <time>2012-11-19T14:03:29Z</time>
      </trkpt>
      <trkpt lat="45.55896" lon="3.27874">
        <ele>367</ele>
        <time>2012-11-19T14:03:36Z</time>
      </trkpt>
      <trkpt lat="45.55908" lon="3.279">
        <ele>367</ele>
        <time>2012-11-19T14:03:43Z</time>
      </trkpt>
      <trkpt lat="45.55922" lon="3.27923">
        <ele>369</ele>
        <time>2012-11-19T14:03:48Z</time>
      </trkpt>
      <trkpt lat="45.55937" lon="3.27944">
        <ele>369</ele>
        <time>2012-11-19T14:03:53Z</time>
      </trkpt>
      <trkpt lat="45.55956" lon="3.2795">
        <ele>370</ele>
        <time>2012-11-19T14:03:59Z</time>
      </trkpt>
      <trkpt lat="45.55976" lon="3.27959">
        <ele>371</ele>
        <time>2012-11-19T14:04:04Z</time>
      </trkpt>
      <trkpt lat="45.55996" lon="3.27964">
        <ele>371</ele>
        <time>2012-11-19T14:04:09Z</time>
      </trkpt>
      <trkpt lat="45.56014" lon="3.27962">
        <ele>376</ele>
        <time>2012-11-19T14:04:18Z</time>
      </trkpt>
      <trkpt lat="45.56034" lon="3.27959">
        <ele>377</ele>
        <time>2012-11-19T14:04:25Z</time>
      </trkpt>
      <trkpt lat="45.56055" lon="3.27959">
        <ele>378</ele>
        <time>2012-11-19T14:04:33Z</time>
      </trkpt>
      <trkpt lat="45.56075" lon="3.2796">
        <ele>379</ele>
        <time>2012-11-19T14:04:41Z</time>
      </trkpt>
      <trkpt lat="45.56091" lon="3.27974">
        <ele>386</ele>
        <time>2012-11-19T14:04:50Z</time>
      </trkpt>
      <trkpt lat="45.56103" lon="3.27993">
        <ele>386</ele>
        <time>2012-11-19T14:04:59Z</time>
      </trkpt>
      <trkpt lat="45.56116" lon="3.28013">
        <ele>391</ele>
        <time>2012-11-19T14:05:08Z</time>
      </trkpt>
      <trkpt lat="45.56126" lon="3.28037">
        <ele>393</ele>
        <time>2012-11-19T14:05:16Z</time>
      </trkpt>
      <trkpt lat="45.56134" lon="3.28064">
        <ele>394</ele>
        <time>2012-11-19T14:05:23Z</time>
      </trkpt>
      <trkpt lat="45.56142" lon="3.28089">
        <ele>397</ele>
        <time>2012-11-19T14:05:30Z</time>
      </trkpt>
      <trkpt lat="45.56145" lon="3.28116">
        <ele>398</ele>
        <time>2012-11-19T14:05:37Z</time>
      </trkpt>
      <trkpt lat="45.56146" lon="3.28142">
        <ele>398</ele>
        <time>2012-11-19T14:05:43Z</time>
      </trkpt>
      <trkpt lat="45.5615" lon="3.28171">
        <ele>401</ele>
        <time>2012-11-19T14:05:50Z</time>
      </trkpt>
      <trkpt lat="45.56151" lon="3.28197">
        <ele>401</ele>
        <time>2012-11-19T14:05:56Z</time>
      </trkpt>
      <trkpt lat="45.56153" lon="3.28226">
        <ele>402</ele>
        <time>2012-11-19T14:06:03Z</time>
      </trkpt>
      <trkpt lat="45.56155" lon="3.28253">
        <ele>403</ele>
        <time>2012-11-19T14:06:10Z</time>
      </trkpt>
      <trkpt lat="45.56159" lon="3.28281">
        <ele>405</ele>
        <time>2012-11-19T14:06:17Z</time>
      </trkpt>
      <trkpt lat="45.56161" lon="3.28308">
        <ele>406</ele>
        <time>2012-11-19T14:06:23Z</time>
      </trkpt>
      <trkpt lat="45.56166" lon="3.28335">
        <ele>407</ele>
        <time>2012-11-19T14:06:30Z</time>
      </trkpt>
      <trkpt lat="45.56175" lon="3.2836">
        <ele>408</ele>
        <time>2012-11-19T14:06:37Z</time>
      </trkpt>
      <trkpt lat="45.56189" lon="3.28383">
        <ele>409</ele>
        <time>2012-11-19T14:06:44Z</time>
      </trkpt>
      <trkpt lat="45.56203" lon="3.28402">
        <ele>409</ele>
        <time>2012-11-19T14:06:51Z</time>
      </trkpt>
      <trkpt lat="45.56219" lon="3.2842">
        <ele>413</ele>
        <time>2012-11-19T14:06:58Z</time>
      </trkpt>
      <trkpt lat="45.56234" lon="3.28436">
        <ele>413</ele>
        <time>2012-11-19T14:07:04Z</time>
      </trkpt>
      <trkpt lat="45.56249" lon="3.28452">
        <ele>414</ele>
        <time>2012-11-19T14:07:10Z</time>
      </trkpt>
      <trkpt lat="45.56265" lon="3.28467">
        <ele>415</ele>
        <time>2012-11-19T14:07:16Z</time>
      </trkpt>
      <trkpt lat="45.56283" lon="3.28482">
        <ele>415</ele>
        <time>2012-11-19T14:07:22Z</time>
      </trkpt>
      <trkpt lat="45.56301" lon="3.28495">
        <ele>416</ele>
        <time>2012-11-19T14:07:28Z</time>
      </trkpt>
      <trkpt lat="45.56319" lon="3.28506">
        <ele>419</ele>
        <time>2012-11-19T14:07:34Z</time>
      </trkpt>
      <trkpt lat="45.56336" lon="3.28518">
        <ele>422</ele>
        <time>2012-11-19T14:07:40Z</time>
      </trkpt>
      <trkpt lat="45.56354" lon="3.28524">
        <ele>424</ele>
        <time>2012-11-19T14:07:45Z</time>
      </trkpt>
      <trkpt lat="45.56374" lon="3.28523">
        <ele>425</ele>
        <time>2012-11-19T14:07:50Z</time>
      </trkpt>
      <trkpt lat="45.56393" lon="3.28515">
        <ele>426</ele>
        <time>2012-11-19T14:07:55Z</time>
      </trkpt>
      <trkpt lat="45.56408" lon="3.285">
        <ele>423</ele>
        <time>2012-11-19T14:08:00Z</time>
      </trkpt>
      <trkpt lat="45.56423" lon="3.28479">
        <ele>428</ele>
        <time>2012-11-19T14:08:06Z</time>
      </trkpt>
      <trkpt lat="45.56434" lon="3.28452">
        <ele>428</ele>
        <time>2012-11-19T14:08:12Z</time>
      </trkpt>
      <trkpt lat="45.56449" lon="3.28432">
        <ele>429</ele>
        <time>2012-11-19T14:08:18Z</time>
      </trkpt>
      <trkpt lat="45.56467" lon="3.28419">
        <ele>430</ele>
        <time>2012-11-19T14:08:24Z</time>
      </trkpt>
      <trkpt lat="45.56486" lon="3.28407">
        <ele>430</ele>
        <time>2012-11-19T14:08:31Z</time>
      </trkpt>
      <trkpt lat="45.56504" lon="3.28397">
        <ele>433</ele>
        <time>2012-11-19T14:08:37Z</time>
      </trkpt>
      <trkpt lat="45.5652" lon="3.28386">
        <ele>434</ele>
        <time>2012-11-19T14:08:42Z</time>
      </trkpt>
      <trkpt lat="45.56537" lon="3.2837">
        <ele>434</ele>
        <time>2012-11-19T14:08:47Z</time>
      </trkpt>
      <trkpt lat="45.56553" lon="3.28355">
        <ele>435</ele>
        <time>2012-11-19T14:08:52Z</time>
      </trkpt>
      <trkpt lat="45.56569" lon="3.2834">
        <ele>435</ele>
        <time>2012-11-19T14:08:57Z</time>
      </trkpt>
      <trkpt lat="45.56583" lon="3.28323">
        <ele>434</ele>
        <time>2012-11-19T14:09:02Z</time>
      </trkpt>
      <trkpt lat="45.56598" lon="3.28304">
        <ele>436</ele>
        <time>2012-11-19T14:09:07Z</time>
      </trkpt>
      <trkpt lat="45.56615" lon="3.2829">
        <ele>437</ele>
        <time>2012-11-19T14:09:12Z</time>
      </trkpt>
      <trkpt lat="45.56633" lon="3.28277">
        <ele>437</ele>
        <time>2012-11-19T14:09:17Z</time>
      </trkpt>
      <trkpt lat="45.5665" lon="3.28267">
        <ele>437</ele>
        <time>2012-11-19T14:09:22Z</time>
      </trkpt>
      <trkpt lat="45.56671" lon="3.28261">
        <ele>440</ele>
        <time>2012-11-19T14:09:28Z</time>
      </trkpt>
      <trkpt lat="45.5669" lon="3.28262">
        <ele>442</ele>
        <time>2012-11-19T14:09:33Z</time>
      </trkpt>
      <trkpt lat="45.56708" lon="3.28267">
        <ele>444</ele>
        <time>2012-11-19T14:09:38Z</time>
      </trkpt>
      <trkpt lat="45.56726" lon="3.28273">
        <ele>445</ele>
        <time>2012-11-19T14:09:45Z</time>
      </trkpt>
      <trkpt lat="45.56746" lon="3.28279">
        <ele>445</ele>
        <time>2012-11-19T14:09:53Z</time>
      </trkpt>
      <trkpt lat="45.56766" lon="3.28284">
        <ele>451</ele>
        <time>2012-11-19T14:10:02Z</time>
      </trkpt>
      <trkpt lat="45.56785" lon="3.28292">
        <ele>452</ele>
        <time>2012-11-19T14:10:11Z</time>
      </trkpt>
      <trkpt lat="45.56802" lon="3.28304">
        <ele>453</ele>
        <time>2012-11-19T14:10:18Z</time>
      </trkpt>
      <trkpt lat="45.56818" lon="3.28316">
        <ele>454</ele>
        <time>2012-11-19T14:10:25Z</time>
      </trkpt>
      <trkpt lat="45.56831" lon="3.28337">
        <ele>456</ele>
        <time>2012-11-19T14:10:33Z</time>
      </trkpt>
      <trkpt lat="45.56842" lon="3.28358">
        <ele>459</ele>
        <time>2012-11-19T14:10:40Z</time>
      </trkpt>
      <trkpt lat="45.56854" lon="3.2838">
        <ele>460</ele>
        <time>2012-11-19T14:10:47Z</time>
      </trkpt>
      <trkpt lat="45.5687" lon="3.28395">
        <ele>460</ele>
        <time>2012-11-19T14:10:53Z</time>
      </trkpt>
      <trkpt lat="45.56886" lon="3.28407">
        <ele>461</ele>
        <time>2012-11-19T14:11:00Z</time>
      </trkpt>
      <trkpt lat="45.56902" lon="3.28418">
        <ele>463</ele>
        <time>2012-11-19T14:11:06Z</time>
      </trkpt>
      <trkpt lat="45.56921" lon="3.28432">
        <ele>464</ele>
        <time>2012-11-19T14:11:13Z</time>
      </trkpt>
      <trkpt lat="45.56939" lon="3.28443">
        <ele>465</ele>
        <time>2012-11-19T14:11:20Z</time>
      </trkpt>
      <trkpt lat="45.56956" lon="3.28458">
        <ele>465</ele>
        <time>2012-11-19T14:11:28Z</time>
      </trkpt>
      <trkpt lat="45.5697" lon="3.28479">
        <ele>466</ele>
        <time>2012-11-19T14:11:36Z</time>
      </trkpt>
      <trkpt lat="45.5698" lon="3.285">
        <ele>466</ele>
        <time>2012-11-19T14:11:43Z</time>
      </trkpt>
      <trkpt lat="45.56991" lon="3.28524">
        <ele>469</ele>
        <time>2012-11-19T14:11:50Z</time>
      </trkpt>
      <trkpt lat="45.57002" lon="3.28547">
        <ele>469</ele>
        <time>2012-11-19T14:11:56Z</time>
      </trkpt>
      <trkpt lat="45.57013" lon="3.2857">
        <ele>470</ele>
        <time>2012-11-19T14:12:02Z</time>
      </trkpt>
      <trkpt lat="45.57023" lon="3.28593">
        <ele>472</ele>
        <time>2012-11-19T14:12:08Z</time>
      </trkpt>
      <trkpt lat="45.57031" lon="3.28619">
        <ele>473</ele>
        <time>2012-11-19T14:12:14Z</time>
      </trkpt>
      <trkpt lat="45.57039" lon="3.28647">
        <ele>474</ele>
        <time>2012-11-19T14:12:21Z</time>
      </trkpt>
      <trkpt lat="45.57046" lon="3.28673">
        <ele>481</ele>
        <time>2012-11-19T14:12:28Z</time>
      </trkpt>
      <trkpt lat="45.57054" lon="3.28697">
        <ele>482</ele>
        <time>2012-11-19T14:12:38Z</time>
      </trkpt>
      <trkpt lat="45.57066" lon="3.28719">
        <ele>483</ele>
        <time>2012-11-19T14:12:49Z</time>
      </trkpt>
      <trkpt lat="45.57075" lon="3.28741">
        <ele>484</ele>
        <time>2012-11-19T14:13:00Z</time>
      </trkpt>
      <trkpt lat="45.57083" lon="3.28766">
        <ele>489</ele>
        <time>2012-11-19T14:13:11Z</time>
      </trkpt>
      <trkpt lat="45.57085" lon="3.28791">
        <ele>491</ele>
        <time>2012-11-19T14:13:21Z</time>
      </trkpt>
      <trkpt lat="45.57085" lon="3.28817">
        <ele>493</ele>
        <time>2012-11-19T14:13:30Z</time>
      </trkpt>
      <trkpt lat="45.57085" lon="3.28845">
        <ele>498</ele>
        <time>2012-11-19T14:13:39Z</time>
      </trkpt>
      <trkpt lat="45.57083" lon="3.28871">
        <ele>502</ele>
        <time>2012-11-19T14:13:49Z</time>
      </trkpt>
      <trkpt lat="45.5708" lon="3.28897">
        <ele>504</ele>
        <time>2012-11-19T14:13:58Z</time>
      </trkpt>
      <trkpt lat="45.57079" lon="3.28925">
        <ele>505</ele>
        <time>2012-11-19T14:14:08Z</time>
      </trkpt>
      <trkpt lat="45.57087" lon="3.28949">
        <ele>506</ele>
        <time>2012-11-19T14:14:18Z</time>
      </trkpt>
      <trkpt lat="45.57099" lon="3.2897">
        <ele>506</ele>
        <time>2012-11-19T14:14:26Z</time>
      </trkpt>
      <trkpt lat="45.57109" lon="3.28993">
        <ele>506</ele>
        <time>2012-11-19T14:14:34Z</time>
      </trkpt>
      <trkpt lat="45.57111" lon="3.29019">
        <ele>504</ele>
        <time>2012-11-19T14:14:40Z</time>
      </trkpt>
      <trkpt lat="45.57114" lon="3.29052">
        <ele>503</ele>
        <time>2012-11-19T14:14:45Z</time>
      </trkpt>
      <trkpt lat="45.57126" lon="3.29075">
        <ele>503</ele>
        <time>2012-11-19T14:14:48Z</time>
      </trkpt>
      <trkpt lat="45.57142" lon="3.29089">
        <ele>500</ele>
        <time>2012-11-19T14:14:51Z</time>
      </trkpt>
      <trkpt lat="45.57157" lon="3.29107">
        <ele>499</ele>
        <time>2012-11-19T14:14:54Z</time>
      </trkpt>
      <trkpt lat="45.57175" lon="3.29126">
        <ele>500</ele>
        <time>2012-11-19T14:14:57Z</time>
      </trkpt>
      <trkpt lat="45.57194" lon="3.29146">
        <ele>499</ele>
        <time>2012-11-19T14:15:00Z</time>
      </trkpt>
      <trkpt lat="45.57214" lon="3.29165">
        <ele>499</ele>
        <time>2012-11-19T14:15:03Z</time>
      </trkpt>
      <trkpt lat="45.57233" lon="3.29189">
        <ele>495</ele>
        <time>2012-11-19T14:15:06Z</time>
      </trkpt>
      <trkpt lat="45.57251" lon="3.29217">
        <ele>497</ele>
        <time>2012-11-19T14:15:09Z</time>
      </trkpt>
      <trkpt lat="45.57269" lon="3.29244">
        <ele>496</ele>
        <time>2012-11-19T14:15:12Z</time>
      </trkpt>
      <trkpt lat="45.57288" lon="3.29267">
        <ele>496</ele>
        <time>2012-11-19T14:15:14Z</time>
      </trkpt>
      <trkpt lat="45.57307" lon="3.29286">
        <ele>497</ele>
        <time>2012-11-19T14:15:18Z</time>
      </trkpt>
      <trkpt lat="45.57323" lon="3.29303">
        <ele>497</ele>
        <time>2012-11-19T14:15:21Z</time>
      </trkpt>
      <trkpt lat="45.57337" lon="3.29326">
        <ele>501</ele>
        <time>2012-11-19T14:15:25Z</time>
      </trkpt>
      <trkpt lat="45.57348" lon="3.29348">
        <ele>503</ele>
        <time>2012-11-19T14:15:30Z</time>
      </trkpt>
      <trkpt lat="45.57358" lon="3.29371">
        <ele>505</ele>
        <time>2012-11-19T14:15:36Z</time>
      </trkpt>
      <trkpt lat="45.57372" lon="3.29391">
        <ele>506</ele>
        <time>2012-11-19T14:15:42Z</time>
      </trkpt>
      <trkpt lat="45.57385" lon="3.29414">
        <ele>507</ele>
        <time>2012-11-19T14:15:49Z</time>
      </trkpt>
      <trkpt lat="45.57399" lon="3.29434">
        <ele>508</ele>
        <time>2012-11-19T14:15:56Z</time>
      </trkpt>
      <trkpt lat="45.57413" lon="3.29452">
        <ele>508</ele>
        <time>2012-11-19T14:16:02Z</time>
      </trkpt>
      <trkpt lat="45.57428" lon="3.29473">
        <ele>513</ele>
        <time>2012-11-19T14:16:08Z</time>
      </trkpt>
      <trkpt lat="45.57441" lon="3.29491">
        <ele>514</ele>
        <time>2012-11-19T14:16:13Z</time>
      </trkpt>
      <trkpt lat="45.57453" lon="3.2951">
        <ele>513</ele>
        <time>2012-11-19T14:16:18Z</time>
      </trkpt>
      <trkpt lat="45.57467" lon="3.29533">
        <ele>514</ele>
        <time>2012-11-19T14:16:24Z</time>
      </trkpt>
      <trkpt lat="45.57477" lon="3.29555">
        <ele>514</ele>
        <time>2012-11-19T14:16:29Z</time>
      </trkpt>
      <trkpt lat="45.57487" lon="3.29581">
        <ele>515</ele>
        <time>2012-11-19T14:16:35Z</time>
      </trkpt>
      <trkpt lat="45.57497" lon="3.29603">
        <ele>513</ele>
        <time>2012-11-19T14:16:41Z</time>
      </trkpt>
      <trkpt lat="45.57507" lon="3.29626">
        <ele>518</ele>
        <time>2012-11-19T14:16:46Z</time>
      </trkpt>
      <trkpt lat="45.57516" lon="3.29649">
        <ele>517</ele>
        <time>2012-11-19T14:16:51Z</time>
      </trkpt>
      <trkpt lat="45.5753" lon="3.2967">
        <ele>516</ele>
        <time>2012-11-19T14:16:57Z</time>
      </trkpt>
      <trkpt lat="45.57549" lon="3.29683">
        <ele>518</ele>
        <time>2012-11-19T14:17:03Z</time>
      </trkpt>
      <trkpt lat="45.57568" lon="3.29692">
        <ele>519</ele>
        <time>2012-11-19T14:17:10Z</time>
      </trkpt>
      <trkpt lat="45.57587" lon="3.29701">
        <ele>526</ele>
        <time>2012-11-19T14:17:16Z</time>
      </trkpt>
      <trkpt lat="45.57604" lon="3.29713">
        <ele>527</ele>
        <time>2012-11-19T14:17:22Z</time>
      </trkpt>
      <trkpt lat="45.57622" lon="3.29727">
        <ele>528</ele>
        <time>2012-11-19T14:17:29Z</time>
      </trkpt>
      <trkpt lat="45.57636" lon="3.29745">
        <ele>529</ele>
        <time>2012-11-19T14:17:36Z</time>
      </trkpt>
      <trkpt lat="45.57647" lon="3.29767">
        <ele>529</ele>
        <time>2012-11-19T14:17:43Z</time>
      </trkpt>
      <trkpt lat="45.57656" lon="3.29792">
        <ele>529</ele>
        <time>2012-11-19T14:17:49Z</time>
      </trkpt>
      <trkpt lat="45.57658" lon="3.29821">
        <ele>531</ele>
        <time>2012-11-19T14:17:57Z</time>
      </trkpt>
      <trkpt lat="45.57654" lon="3.29846">
        <ele>530</ele>
        <time>2012-11-19T14:18:04Z</time>
      </trkpt>
      <trkpt lat="45.57652" lon="3.29875">
        <ele>529</ele>
        <time>2012-11-19T14:18:11Z</time>
      </trkpt>
      <trkpt lat="45.57653" lon="3.29906">
        <ele>530</ele>
        <time>2012-11-19T14:18:17Z</time>
      </trkpt>
      <trkpt lat="45.57646" lon="3.29933">
        <ele>527</ele>
        <time>2012-11-19T14:18:21Z</time>
      </trkpt>
      <trkpt lat="45.57627" lon="3.29948">
        <ele>526</ele>
        <time>2012-11-19T14:18:24Z</time>
      </trkpt>
      <trkpt lat="45.57605" lon="3.29966">
        <ele>524</ele>
        <time>2012-11-19T14:18:27Z</time>
      </trkpt>
      <trkpt lat="45.57588" lon="3.29993">
        <ele>521</ele>
        <time>2012-11-19T14:18:30Z</time>
      </trkpt>
      <trkpt lat="45.57581" lon="3.30021">
        <ele>515</ele>
        <time>2012-11-19T14:18:34Z</time>
      </trkpt>
      <trkpt lat="45.57596" lon="3.30043">
        <ele>520</ele>
        <time>2012-11-19T14:18:38Z</time>
      </trkpt>
      <trkpt lat="45.5761" lon="3.30063">
        <ele>520</ele>
        <time>2012-11-19T14:18:42Z</time>
      </trkpt>
      <trkpt lat="45.57624" lon="3.30082">
        <ele>520</ele>
        <time>2012-11-19T14:18:46Z</time>
      </trkpt>
      <trkpt lat="45.57637" lon="3.30107">
        <ele>516</ele>
        <time>2012-11-19T14:18:50Z</time>
      </trkpt>
      <trkpt lat="45.57645" lon="3.3013">
        <ele>515</ele>
        <time>2012-11-19T14:18:53Z</time>
      </trkpt>
      <trkpt lat="45.57654" lon="3.30157">
        <ele>514</ele>
        <time>2012-11-19T14:18:56Z</time>
      </trkpt>
      <trkpt lat="45.57671" lon="3.30179">
        <ele>513</ele>
        <time>2012-11-19T14:18:59Z</time>
      </trkpt>
      <trkpt lat="45.57691" lon="3.30201">
        <ele>513</ele>
        <time>2012-11-19T14:19:02Z</time>
      </trkpt>
      <trkpt lat="45.5771" lon="3.30221">
        <ele>512</ele>
        <time>2012-11-19T14:19:05Z</time>
      </trkpt>
      <trkpt lat="45.57726" lon="3.30241">
        <ele>513</ele>
        <time>2012-11-19T14:19:08Z</time>
      </trkpt>
      <trkpt lat="45.57743" lon="3.30263">
        <ele>510</ele>
        <time>2012-11-19T14:19:12Z</time>
      </trkpt>
      <trkpt lat="45.57758" lon="3.30285">
        <ele>514</ele>
        <time>2012-11-19T14:19:16Z</time>
      </trkpt>
      <trkpt lat="45.57773" lon="3.30307">
        <ele>513</ele>
        <time>2012-11-19T14:19:20Z</time>
      </trkpt>
      <trkpt lat="45.57787" lon="3.3033">
        <ele>513</ele>
        <time>2012-11-19T14:19:25Z</time>
      </trkpt>
      <trkpt lat="45.57802" lon="3.30349">
        <ele>509</ele>
        <time>2012-11-19T14:19:30Z</time>
      </trkpt>
      <trkpt lat="45.57815" lon="3.30368">
        <ele>509</ele>
        <time>2012-11-19T14:19:36Z</time>
      </trkpt>
      <trkpt lat="45.57831" lon="3.30387">
        <ele>508</ele>
        <time>2012-11-19T14:19:41Z</time>
      </trkpt>
      <trkpt lat="45.57844" lon="3.30415">
        <ele>511</ele>
        <time>2012-11-19T14:19:46Z</time>
      </trkpt>
      <trkpt lat="45.57851" lon="3.30445">
        <ele>509</ele>
        <time>2012-11-19T14:19:50Z</time>
      </trkpt>
      <trkpt lat="45.57859" lon="3.30469">
        <ele>509</ele>
        <time>2012-11-19T14:19:53Z</time>
      </trkpt>
      <trkpt lat="45.57865" lon="3.30495">
        <ele>508</ele>
        <time>2012-11-19T14:19:56Z</time>
      </trkpt>
      <trkpt lat="45.57872" lon="3.3052">
        <ele>505</ele>
        <time>2012-11-19T14:19:59Z</time>
      </trkpt>
      <trkpt lat="45.57881" lon="3.30545">
        <ele>505</ele>
        <time>2012-11-19T14:20:03Z</time>
      </trkpt>
      <trkpt lat="45.57891" lon="3.30569">
        <ele>505</ele>
        <time>2012-11-19T14:20:09Z</time>
      </trkpt>
      <trkpt lat="45.57899" lon="3.30592">
        <ele>503</ele>
        <time>2012-11-19T14:20:20Z</time>
      </trkpt>
      <trkpt lat="45.57908" lon="3.30615">
        <ele>502</ele>
        <time>2012-11-19T14:20:28Z</time>
      </trkpt>
      <trkpt lat="45.57917" lon="3.30638">
        <ele>509</ele>
        <time>2012-11-19T14:20:35Z</time>
      </trkpt>
      <trkpt lat="45.57926" lon="3.30661">
        <ele>507</ele>
        <time>2012-11-19T14:20:41Z</time>
      </trkpt>
      <trkpt lat="45.57936" lon="3.30685">
        <ele>506</ele>
        <time>2012-11-19T14:20:47Z</time>
      </trkpt>
      <trkpt lat="45.57947" lon="3.30706">
        <ele>507</ele>
        <time>2012-11-19T14:20:54Z</time>
      </trkpt>
      <trkpt lat="45.57963" lon="3.30721">
        <ele>507</ele>
        <time>2012-11-19T14:21:00Z</time>
      </trkpt>
      <trkpt lat="45.57982" lon="3.30729">
        <ele>508</ele>
        <time>2012-11-19T14:21:06Z</time>
      </trkpt>
      <trkpt lat="45.58003" lon="3.30737">
        <ele>510</ele>
        <time>2012-11-19T14:21:12Z</time>
      </trkpt>
      <trkpt lat="45.58022" lon="3.30743">
        <ele>511</ele>
        <time>2012-11-19T14:21:18Z</time>
      </trkpt>
      <trkpt lat="45.58041" lon="3.30749">
        <ele>512</ele>
        <time>2012-11-19T14:21:24Z</time>
      </trkpt>
      <trkpt lat="45.5806" lon="3.30757">
        <ele>510</ele>
        <time>2012-11-19T14:21:30Z</time>
      </trkpt>
      <trkpt lat="45.58078" lon="3.30761">
        <ele>511</ele>
        <time>2012-11-19T14:21:36Z</time>
      </trkpt>
      <trkpt lat="45.58097" lon="3.30769">
        <ele>512</ele>
        <time>2012-11-19T14:21:42Z</time>
      </trkpt>
      <trkpt lat="45.58115" lon="3.30778">
        <ele>512</ele>
        <time>2012-11-19T14:21:47Z</time>
      </trkpt>
      <trkpt lat="45.58133" lon="3.30785">
        <ele>512</ele>
        <time>2012-11-19T14:21:54Z</time>
      </trkpt>
      <trkpt lat="45.58151" lon="3.30793">
        <ele>512</ele>
        <time>2012-11-19T14:22:00Z</time>
      </trkpt>
      <trkpt lat="45.5817" lon="3.30799">
        <ele>514</ele>
        <time>2012-11-19T14:22:06Z</time>
      </trkpt>
      <trkpt lat="45.5819" lon="3.30804">
        <ele>514</ele>
        <time>2012-11-19T14:22:12Z</time>
      </trkpt>
      <trkpt lat="45.58208" lon="3.30806">
        <ele>514</ele>
        <time>2012-11-19T14:22:17Z</time>
      </trkpt>
      <trkpt lat="45.58227" lon="3.30806">
        <ele>514</ele>
        <time>2012-11-19T14:22:22Z</time>
      </trkpt>
      <trkpt lat="45.58247" lon="3.30804">
        <ele>514</ele>
        <time>2012-11-19T14:22:28Z</time>
      </trkpt>
      <trkpt lat="45.58267" lon="3.30806">
        <ele>515</ele>
        <time>2012-11-19T14:22:33Z</time>
      </trkpt>
      <trkpt lat="45.58286" lon="3.3081">
        <ele>515</ele>
        <time>2012-11-19T14:22:38Z</time>
      </trkpt>
      <trkpt lat="45.58304" lon="3.30813">
        <ele>514</ele>
        <time>2012-11-19T14:22:43Z</time>
      </trkpt>
      <trkpt lat="45.58325" lon="3.30816">
        <ele>514</ele>
        <time>2012-11-19T14:22:48Z</time>
      </trkpt>
      <trkpt lat="45.58344" lon="3.30815">
        <ele>512</ele>
        <time>2012-11-19T14:22:53Z</time>
      </trkpt>
      <trkpt lat="45.58364" lon="3.30808">
        <ele>512</ele>
        <time>2012-11-19T14:22:59Z</time>
      </trkpt>
      <trkpt lat="45.58385" lon="3.30802">
        <ele>512</ele>
        <time>2012-11-19T14:23:05Z</time>
      </trkpt>
      <trkpt lat="45.58404" lon="3.30794">
        <ele>512</ele>
        <time>2012-11-19T14:23:10Z</time>
      </trkpt>
      <trkpt lat="45.58421" lon="3.30786">
        <ele>509</ele>
        <time>2012-11-19T14:23:15Z</time>
      </trkpt>
      <trkpt lat="45.58439" lon="3.30776">
        <ele>510</ele>
        <time>2012-11-19T14:23:20Z</time>
      </trkpt>
      <trkpt lat="45.58456" lon="3.30768">
        <ele>509</ele>
        <time>2012-11-19T14:23:26Z</time>
      </trkpt>
      <trkpt lat="45.58475" lon="3.30761">
        <ele>509</ele>
        <time>2012-11-19T14:23:32Z</time>
      </trkpt>
      <trkpt lat="45.58493" lon="3.30755">
        <ele>509</ele>
        <time>2012-11-19T14:23:37Z</time>
      </trkpt>
      <trkpt lat="45.58512" lon="3.30748">
        <ele>509</ele>
        <time>2012-11-19T14:23:41Z</time>
      </trkpt>
      <trkpt lat="45.5853" lon="3.30741">
        <ele>508</ele>
        <time>2012-11-19T14:23:44Z</time>
      </trkpt>
      <trkpt lat="45.58548" lon="3.30734">
        <ele>507</ele>
        <time>2012-11-19T14:23:47Z</time>
      </trkpt>
      <trkpt lat="45.58569" lon="3.30728">
        <ele>507</ele>
        <time>2012-11-19T14:23:51Z</time>
      </trkpt>
      <trkpt lat="45.58587" lon="3.3072">
        <ele>504</ele>
        <time>2012-11-19T14:23:55Z</time>
      </trkpt>
      <trkpt lat="45.58606" lon="3.30705">
        <ele>503</ele>
        <time>2012-11-19T14:23:59Z</time>
      </trkpt>
      <trkpt lat="45.58621" lon="3.30692">
        <ele>503</ele>
        <time>2012-11-19T14:24:03Z</time>
      </trkpt>
      <trkpt lat="45.58632" lon="3.30669">
        <ele>503</ele>
        <time>2012-11-19T14:24:07Z</time>
      </trkpt>
      <trkpt lat="45.58642" lon="3.30642">
        <ele>506</ele>
        <time>2012-11-19T14:24:11Z</time>
      </trkpt>
      <trkpt lat="45.58652" lon="3.30616">
        <ele>507</ele>
        <time>2012-11-19T14:24:15Z</time>
      </trkpt>
      <trkpt lat="45.58664" lon="3.30594">
        <ele>508</ele>
        <time>2012-11-19T14:24:19Z</time>
      </trkpt>
      <trkpt lat="45.58677" lon="3.30573">
        <ele>510</ele>
        <time>2012-11-19T14:24:25Z</time>
      </trkpt>
      <trkpt lat="45.58692" lon="3.30557">
        <ele>511</ele>
        <time>2012-11-19T14:24:32Z</time>
      </trkpt>
      <trkpt lat="45.58707" lon="3.30543">
        <ele>511</ele>
        <time>2012-11-19T14:24:38Z</time>
      </trkpt>
      <trkpt lat="45.58725" lon="3.30532">
        <ele>512</ele>
        <time>2012-11-19T14:24:45Z</time>
      </trkpt>
      <trkpt lat="45.58742" lon="3.30515">
        <ele>513</ele>
        <time>2012-11-19T14:24:52Z</time>
      </trkpt>
      <trkpt lat="45.5876" lon="3.30502">
        <ele>512</ele>
        <time>2012-11-19T14:24:57Z</time>
      </trkpt>
      <trkpt lat="45.58777" lon="3.30486">
        <ele>513</ele>
        <time>2012-11-19T14:25:02Z</time>
      </trkpt>
      <trkpt lat="45.58793" lon="3.30474">
        <ele>513</ele>
        <time>2012-11-19T14:25:06Z</time>
      </trkpt>
      <trkpt lat="45.58809" lon="3.3046">
        <ele>513</ele>
        <time>2012-11-19T14:25:10Z</time>
      </trkpt>
      <trkpt lat="45.58826" lon="3.30442">
        <ele>513</ele>
        <time>2012-11-19T14:25:14Z</time>
      </trkpt>
      <trkpt lat="45.58841" lon="3.30426">
        <ele>511</ele>
        <time>2012-11-19T14:25:17Z</time>
      </trkpt>
      <trkpt lat="45.58856" lon="3.3041">
        <ele>511</ele>
        <time>2012-11-19T14:25:20Z</time>
      </trkpt>
      <trkpt lat="45.5887" lon="3.30394">
        <ele>510</ele>
        <time>2012-11-19T14:25:23Z</time>
      </trkpt>
      <trkpt lat="45.58886" lon="3.30377">
        <ele>509</ele>
        <time>2012-11-19T14:25:26Z</time>
      </trkpt>
      <trkpt lat="45.589" lon="3.30359">
        <ele>509</ele>
        <time>2012-11-19T14:25:29Z</time>
      </trkpt>
      <trkpt lat="45.58916" lon="3.30337">
        <ele>507</ele>
        <time>2012-11-19T14:25:32Z</time>
      </trkpt>
      <trkpt lat="45.5893" lon="3.30313">
        <ele>503</ele>
        <time>2012-11-19T14:25:35Z</time>
      </trkpt>
      <trkpt lat="45.58945" lon="3.30289">
        <ele>501</ele>
        <time>2012-11-19T14:25:38Z</time>
      </trkpt>
      <trkpt lat="45.58962" lon="3.30261">
        <ele>500</ele>
        <time>2012-11-19T14:25:41Z</time>
      </trkpt>
      <trkpt lat="45.58974" lon="3.30238">
        <ele>498</ele>
        <time>2012-11-19T14:25:43Z</time>
      </trkpt>
      <trkpt lat="45.58987" lon="3.30215">
        <ele>498</ele>
        <time>2012-11-19T14:25:45Z</time>
      </trkpt>
      <trkpt lat="45.59" lon="3.30195">
        <ele>494</ele>
        <time>2012-11-19T14:25:47Z</time>
      </trkpt>
      <trkpt lat="45.59024" lon="3.30178">
        <ele>494</ele>
        <time>2012-11-19T14:25:50Z</time>
      </trkpt>
      <trkpt lat="45.59042" lon="3.30162">
        <ele>495</ele>
        <time>2012-11-19T14:25:53Z</time>
      </trkpt>
      <trkpt lat="45.59058" lon="3.30146">
        <ele>495</ele>
        <time>2012-11-19T14:25:56Z</time>
      </trkpt>
      <trkpt lat="45.59074" lon="3.3013">
        <ele>495</ele>
        <time>2012-11-19T14:25:59Z</time>
      </trkpt>
      <trkpt lat="45.5909" lon="3.30105">
        <ele>494</ele>
        <time>2012-11-19T14:26:03Z</time>
      </trkpt>
      <trkpt lat="45.59106" lon="3.30084">
        <ele>495</ele>
        <time>2012-11-19T14:26:07Z</time>
      </trkpt>
      <trkpt lat="45.59124" lon="3.30075">
        <ele>497</ele>
        <time>2012-11-19T14:26:10Z</time>
      </trkpt>
      <trkpt lat="45.59145" lon="3.30063">
        <ele>496</ele>
        <time>2012-11-19T14:26:13Z</time>
      </trkpt>
      <trkpt lat="45.59169" lon="3.30051">
        <ele>495</ele>
        <time>2012-11-19T14:26:16Z</time>
      </trkpt>
      <trkpt lat="45.59192" lon="3.30039">
        <ele>495</ele>
        <time>2012-11-19T14:26:19Z</time>
      </trkpt>
      <trkpt lat="45.59217" lon="3.30038">
        <ele>495</ele>
        <time>2012-11-19T14:26:22Z</time>
      </trkpt>
      <trkpt lat="45.5924" lon="3.30047">
        <ele>495</ele>
        <time>2012-11-19T14:26:25Z</time>
      </trkpt>
      <trkpt lat="45.59256" lon="3.30063">
        <ele>496</ele>
        <time>2012-11-19T14:26:28Z</time>
      </trkpt>
      <trkpt lat="45.59274" lon="3.30078">
        <ele>496</ele>
        <time>2012-11-19T14:26:33Z</time>
      </trkpt>
      <trkpt lat="45.59291" lon="3.30091">
        <ele>497</ele>
        <time>2012-11-19T14:26:39Z</time>
      </trkpt>
      <trkpt lat="45.59311" lon="3.30092">
        <ele>498</ele>
        <time>2012-11-19T14:26:47Z</time>
      </trkpt>
      <trkpt lat="45.59331" lon="3.30087">
        <ele>501</ele>
        <time>2012-11-19T14:26:54Z</time>
      </trkpt>
      <trkpt lat="45.5935" lon="3.30083">
        <ele>505</ele>
        <time>2012-11-19T14:27:00Z</time>
      </trkpt>
      <trkpt lat="45.59369" lon="3.30078">
        <ele>507</ele>
        <time>2012-11-19T14:27:06Z</time>
      </trkpt>
      <trkpt lat="45.59377" lon="3.30051">
        <ele>507</ele>
        <time>2012-11-19T14:27:14Z</time>
      </trkpt>
      <trkpt lat="45.5938" lon="3.30021">
        <ele>508</ele>
        <time>2012-11-19T14:27:19Z</time>
      </trkpt>
      <trkpt lat="45.59384" lon="3.29994">
        <ele>508</ele>
        <time>2012-11-19T14:27:22Z</time>
      </trkpt>
      <trkpt lat="45.59387" lon="3.29964">
        <ele>508</ele>
        <time>2012-11-19T14:27:27Z</time>
      </trkpt>
      <trkpt lat="45.59387" lon="3.29938">
        <ele>509</ele>
        <time>2012-11-19T14:27:32Z</time>
      </trkpt>
      <trkpt lat="45.59387" lon="3.29908">
        <ele>511</ele>
        <time>2012-11-19T14:27:36Z</time>
      </trkpt>
      <trkpt lat="45.59387" lon="3.2988">
        <ele>511</ele>
        <time>2012-11-19T14:27:40Z</time>
      </trkpt>
      <trkpt lat="45.59385" lon="3.29849">
        <ele>512</ele>
        <time>2012-11-19T14:27:44Z</time>
      </trkpt>
      <trkpt lat="45.59382" lon="3.29818">
        <ele>513</ele>
        <time>2012-11-19T14:27:48Z</time>
      </trkpt>
      <trkpt lat="45.5938" lon="3.29791">
        <ele>513</ele>
        <time>2012-11-19T14:27:53Z</time>
      </trkpt>
      <trkpt lat="45.5938" lon="3.29762">
        <ele>514</ele>
        <time>2012-11-19T14:27:58Z</time>
      </trkpt>
      <trkpt lat="45.59383" lon="3.29734">
        <ele>515</ele>
        <time>2012-11-19T14:28:04Z</time>
      </trkpt>
      <trkpt lat="45.59388" lon="3.29708">
        <ele>515</ele>
        <time>2012-11-19T14:28:09Z</time>
      </trkpt>
      <trkpt lat="45.59394" lon="3.29681">
        <ele>517</ele>
        <time>2012-11-19T14:28:15Z</time>
      </trkpt>
      <trkpt lat="45.594" lon="3.29653">
        <ele>517</ele>
        <time>2012-11-19T14:28:20Z</time>
      </trkpt>
      <trkpt lat="45.59406" lon="3.29627">
        <ele>517</ele>
        <time>2012-11-19T14:28:25Z</time>
      </trkpt>
      <trkpt lat="45.59411" lon="3.29601">
        <ele>517</ele>
        <time>2012-11-19T14:28:30Z</time>
      </trkpt>
      <trkpt lat="45.59417" lon="3.29575">
        <ele>522</ele>
        <time>2012-11-19T14:29:15Z</time>
      </trkpt>
      <trkpt lat="45.59424" lon="3.29549">
        <ele>524</ele>
        <time>2012-11-19T14:29:23Z</time>
      </trkpt>
      <trkpt lat="45.5943" lon="3.29524">
        <ele>523</ele>
        <time>2012-11-19T14:29:28Z</time>
      </trkpt>
      <trkpt lat="45.59436" lon="3.29498">
        <ele>519</ele>
        <time>2012-11-19T14:29:33Z</time>
      </trkpt>
      <trkpt lat="45.59445" lon="3.29467">
        <ele>520</ele>
        <time>2012-11-19T14:29:38Z</time>
      </trkpt>
      <trkpt lat="45.5945" lon="3.2944">
        <ele>520</ele>
        <time>2012-11-19T14:29:42Z</time>
      </trkpt>
      <trkpt lat="45.59453" lon="3.29411">
        <ele>516</ele>
        <time>2012-11-19T14:29:45Z</time>
      </trkpt>
      <trkpt lat="45.59459" lon="3.29384">
        <ele>516</ele>
        <time>2012-11-19T14:29:47Z</time>
      </trkpt>
      <trkpt lat="45.59463" lon="3.29352">
        <ele>516</ele>
        <time>2012-11-19T14:29:49Z</time>
      </trkpt>
      <trkpt lat="45.59463" lon="3.29325">
        <ele>517</ele>
        <time>2012-11-19T14:29:51Z</time>
      </trkpt>
      <trkpt lat="45.59463" lon="3.29293">
        <ele>518</ele>
        <time>2012-11-19T14:29:54Z</time>
      </trkpt>
      <trkpt lat="45.59462" lon="3.29263">
        <ele>519</ele>
        <time>2012-11-19T14:29:58Z</time>
      </trkpt>
      <trkpt lat="45.59463" lon="3.29234">
        <ele>523</ele>
        <time>2012-11-19T14:30:04Z</time>
      </trkpt>
      <trkpt lat="45.59465" lon="3.29204">
        <ele>524</ele>
        <time>2012-11-19T14:30:10Z</time>
      </trkpt>
      <trkpt lat="45.5947" lon="3.29176">
        <ele>525</ele>
        <time>2012-11-19T14:30:16Z</time>
      </trkpt>
      <trkpt lat="45.59475" lon="3.29147">
        <ele>527</ele>
        <time>2012-11-19T14:30:22Z</time>
      </trkpt>
      <trkpt lat="45.59481" lon="3.2912">
        <ele>527</ele>
        <time>2012-11-19T14:30:28Z</time>
      </trkpt>
      <trkpt lat="45.59487" lon="3.2909">
        <ele>527</ele>
        <time>2012-11-19T14:30:34Z</time>
      </trkpt>
      <trkpt lat="45.59492" lon="3.29064">
        <ele>527</ele>
        <time>2012-11-19T14:30:39Z</time>
      </trkpt>
      <trkpt lat="45.595" lon="3.29038">
        <ele>527</ele>
        <time>2012-11-19T14:30:43Z</time>
      </trkpt>
      <trkpt lat="45.59509" lon="3.29007">
        <ele>527</ele>
        <time>2012-11-19T14:30:47Z</time>
      </trkpt>
      <trkpt lat="45.59516" lon="3.28981">
        <ele>526</ele>
        <time>2012-11-19T14:30:50Z</time>
      </trkpt>
      <trkpt lat="45.59523" lon="3.28955">
        <ele>526</ele>
        <time>2012-11-19T14:30:53Z</time>
      </trkpt>
      <trkpt lat="45.59531" lon="3.28927">
        <ele>526</ele>
        <time>2012-11-19T14:30:56Z</time>
      </trkpt>
      <trkpt lat="45.59536" lon="3.28899">
        <ele>525</ele>
        <time>2012-11-19T14:30:59Z</time>
      </trkpt>
      <trkpt lat="45.5954" lon="3.2887">
        <ele>525</ele>
        <time>2012-11-19T14:31:02Z</time>
      </trkpt>
      <trkpt lat="45.59545" lon="3.2884">
        <ele>525</ele>
        <time>2012-11-19T14:31:05Z</time>
      </trkpt>
      <trkpt lat="45.59549" lon="3.28806">
        <ele>524</ele>
        <time>2012-11-19T14:31:08Z</time>
      </trkpt>
      <trkpt lat="45.59553" lon="3.28773">
        <ele>523</ele>
        <time>2012-11-19T14:31:11Z</time>
      </trkpt>
      <trkpt lat="45.59558" lon="3.28739">
        <ele>522</ele>
        <time>2012-11-19T14:31:14Z</time>
      </trkpt>
      <trkpt lat="45.59567" lon="3.28707">
        <ele>522</ele>
        <time>2012-11-19T14:31:17Z</time>
      </trkpt>
      <trkpt lat="45.59579" lon="3.28678">
        <ele>521</ele>
        <time>2012-11-19T14:31:20Z</time>
      </trkpt>
      <trkpt lat="45.59595" lon="3.28654">
        <ele>522</ele>
        <time>2012-11-19T14:31:23Z</time>
      </trkpt>
      <trkpt lat="45.59609" lon="3.2863">
        <ele>522</ele>
        <time>2012-11-19T14:31:26Z</time>
      </trkpt>
      <trkpt lat="45.59624" lon="3.2861">
        <ele>523</ele>
        <time>2012-11-19T14:31:29Z</time>
      </trkpt>
      <trkpt lat="45.59638" lon="3.28587">
        <ele>523</ele>
        <time>2012-11-19T14:31:32Z</time>
      </trkpt>
      <trkpt lat="45.59652" lon="3.28564">
        <ele>522</ele>
        <time>2012-11-19T14:31:35Z</time>
      </trkpt>
      <trkpt lat="45.59668" lon="3.28542">
        <ele>525</ele>
        <time>2012-11-19T14:31:38Z</time>
      </trkpt>
      <trkpt lat="45.59682" lon="3.28519">
        <ele>525</ele>
        <time>2012-11-19T14:31:41Z</time>
      </trkpt>
      <trkpt lat="45.59697" lon="3.28494">
        <ele>525</ele>
        <time>2012-11-19T14:31:44Z</time>
      </trkpt>
      <trkpt lat="45.59704" lon="3.28467">
        <ele>526</ele>
        <time>2012-11-19T14:31:47Z</time>
      </trkpt>
      <trkpt lat="45.59707" lon="3.2844">
        <ele>526</ele>
        <time>2012-11-19T14:31:50Z</time>
      </trkpt>
      <trkpt lat="45.59708" lon="3.28409">
        <ele>528</ele>
        <time>2012-11-19T14:31:54Z</time>
      </trkpt>
      <trkpt lat="45.59709" lon="3.28381">
        <ele>528</ele>
        <time>2012-11-19T14:31:58Z</time>
      </trkpt>
      <trkpt lat="45.59708" lon="3.28355">
        <ele>528</ele>
        <time>2012-11-19T14:32:02Z</time>
      </trkpt>
      <trkpt lat="45.597" lon="3.28327">
        <ele>529</ele>
        <time>2012-11-19T14:32:07Z</time>
      </trkpt>
      <trkpt lat="45.59691" lon="3.28296">
        <ele>528</ele>
        <time>2012-11-19T14:32:11Z</time>
      </trkpt>
      <trkpt lat="45.59684" lon="3.28266">
        <ele>527</ele>
        <time>2012-11-19T14:32:14Z</time>
      </trkpt>
      <trkpt lat="45.59676" lon="3.28237">
        <ele>527</ele>
        <time>2012-11-19T14:32:17Z</time>
      </trkpt>
      <trkpt lat="45.59668" lon="3.28206">
        <ele>529</ele>
        <time>2012-11-19T14:32:20Z</time>
      </trkpt>
      <trkpt lat="45.5966" lon="3.28177">
        <ele>525</ele>
        <time>2012-11-19T14:32:23Z</time>
      </trkpt>
      <trkpt lat="45.59651" lon="3.28147">
        <ele>525</ele>
        <time>2012-11-19T14:32:26Z</time>
      </trkpt>
      <trkpt lat="45.59643" lon="3.28122">
        <ele>525</ele>
        <time>2012-11-19T14:32:29Z</time>
      </trkpt>
      <trkpt lat="45.59634" lon="3.2809">
        <ele>526</ele>
        <time>2012-11-19T14:32:33Z</time>
      </trkpt>
      <trkpt lat="45.59628" lon="3.28058">
        <ele>528</ele>
        <time>2012-11-19T14:32:37Z</time>
      </trkpt>
      <trkpt lat="45.59636" lon="3.28033">
        <ele>529</ele>
        <time>2012-11-19T14:32:41Z</time>
      </trkpt>
      <trkpt lat="45.59645" lon="3.28011">
        <ele>530</ele>
        <time>2012-11-19T14:32:45Z</time>
      </trkpt>
      <trkpt lat="45.59653" lon="3.27987">
        <ele>532</ele>
        <time>2012-11-19T14:32:50Z</time>
      </trkpt>
      <trkpt lat="45.59663" lon="3.27963">
        <ele>532</ele>
        <time>2012-11-19T14:32:56Z</time>
      </trkpt>
      <trkpt lat="45.59673" lon="3.27939">
        <ele>539</ele>
        <time>2012-11-19T14:33:02Z</time>
      </trkpt>
      <trkpt lat="45.59684" lon="3.27913">
        <ele>540</ele>
        <time>2012-11-19T14:33:07Z</time>
      </trkpt>
      <trkpt lat="45.59694" lon="3.2789">
        <ele>542</ele>
        <time>2012-11-19T14:33:14Z</time>
      </trkpt>
      <trkpt lat="45.59707" lon="3.27868">
        <ele>543</ele>
        <time>2012-11-19T14:33:21Z</time>
      </trkpt>
      <trkpt lat="45.59715" lon="3.27843">
        <ele>544</ele>
        <time>2012-11-19T14:33:29Z</time>
      </trkpt>
      <trkpt lat="45.59699" lon="3.27828">
        <ele>543</ele>
        <time>2012-11-19T14:33:34Z</time>
      </trkpt>
      <trkpt lat="45.59681" lon="3.27812">
        <ele>542</ele>
        <time>2012-11-19T14:33:37Z</time>
      </trkpt>
      <trkpt lat="45.59666" lon="3.27795">
        <ele>533</ele>
        <time>2012-11-19T14:33:39Z</time>
      </trkpt>
      <trkpt lat="45.59648" lon="3.27776">
        <ele>532</ele>
        <time>2012-11-19T14:33:41Z</time>
      </trkpt>
      <trkpt lat="45.5963" lon="3.27759">
        <ele>531</ele>
        <time>2012-11-19T14:33:43Z</time>
      </trkpt>
      <trkpt lat="45.59611" lon="3.2774">
        <ele>528</ele>
        <time>2012-11-19T14:33:45Z</time>
      </trkpt>
      <trkpt lat="45.59593" lon="3.27715">
        <ele>527</ele>
        <time>2012-11-19T14:33:47Z</time>
      </trkpt>
      <trkpt lat="45.59583" lon="3.2768">
        <ele>520</ele>
        <time>2012-11-19T14:33:48Z</time>
      </trkpt>
      <trkpt lat="45.59569" lon="3.27649">
        <ele>519</ele>
        <time>2012-11-19T14:33:50Z</time>
      </trkpt>
      <trkpt lat="45.59553" lon="3.27627">
        <ele>517</ele>
        <time>2012-11-19T14:33:52Z</time>
      </trkpt>
      <trkpt lat="45.59528" lon="3.27614">
        <ele>516</ele>
        <time>2012-11-19T14:33:56Z</time>
      </trkpt>
      <trkpt lat="45.59507" lon="3.27625">
        <ele>515</ele>
        <time>2012-11-19T14:33:57Z</time>
      </trkpt>
      <trkpt lat="45.59488" lon="3.27639">
        <ele>507</ele>
        <time>2012-11-19T14:34:00Z</time>
      </trkpt>
      <trkpt lat="45.59464" lon="3.27654">
        <ele>505</ele>
        <time>2012-11-19T14:34:02Z</time>
      </trkpt>
      <trkpt lat="45.5944" lon="3.27659">
        <ele>503</ele>
        <time>2012-11-19T14:34:04Z</time>
      </trkpt>
      <trkpt lat="45.59415" lon="3.27654">
        <ele>496</ele>
        <time>2012-11-19T14:34:06Z</time>
      </trkpt>
      <trkpt lat="45.59391" lon="3.27638">
        <ele>494</ele>
        <time>2012-11-19T14:34:08Z</time>
      </trkpt>
      <trkpt lat="45.5937" lon="3.27615">
        <ele>493</ele>
        <time>2012-11-19T14:34:10Z</time>
      </trkpt>
      <trkpt lat="45.59352" lon="3.27582">
        <ele>491</ele>
        <time>2012-11-19T14:34:12Z</time>
      </trkpt>
      <trkpt lat="45.59336" lon="3.27549">
        <ele>490</ele>
        <time>2012-11-19T14:34:14Z</time>
      </trkpt>
      <trkpt lat="45.5932" lon="3.27515">
        <ele>485</ele>
        <time>2012-11-19T14:34:16Z</time>
      </trkpt>
      <trkpt lat="45.59305" lon="3.2748">
        <ele>484</ele>
        <time>2012-11-19T14:34:18Z</time>
      </trkpt>
      <trkpt lat="45.59291" lon="3.27444">
        <ele>484</ele>
        <time>2012-11-19T14:34:19Z</time>
      </trkpt>
      <trkpt lat="45.59276" lon="3.27415">
        <ele>483</ele>
        <time>2012-11-19T14:34:22Z</time>
      </trkpt>
      <trkpt lat="45.59258" lon="3.27402">
        <ele>482</ele>
        <time>2012-11-19T14:34:24Z</time>
      </trkpt>
      <trkpt lat="45.59235" lon="3.27385">
        <ele>484</ele>
        <time>2012-11-19T14:34:27Z</time>
      </trkpt>
      <trkpt lat="45.59218" lon="3.27376">
        <ele>485</ele>
        <time>2012-11-19T14:34:30Z</time>
      </trkpt>
      <trkpt lat="45.592" lon="3.27373">
        <ele>486</ele>
        <time>2012-11-19T14:34:34Z</time>
      </trkpt>
      <trkpt lat="45.59181" lon="3.27373">
        <ele>487</ele>
        <time>2012-11-19T14:34:39Z</time>
      </trkpt>
      <trkpt lat="45.59159" lon="3.27373">
        <ele>491</ele>
        <time>2012-11-19T14:34:45Z</time>
      </trkpt>
      <trkpt lat="45.59139" lon="3.27373">
        <ele>491</ele>
        <time>2012-11-19T14:34:51Z</time>
      </trkpt>
      <trkpt lat="45.5912" lon="3.27377">
        <ele>492</ele>
        <time>2012-11-19T14:34:57Z</time>
      </trkpt>
      <trkpt lat="45.59101" lon="3.27381">
        <ele>493</ele>
        <time>2012-11-19T14:35:03Z</time>
      </trkpt>
      <trkpt lat="45.59087" lon="3.27363">
        <ele>493</ele>
        <time>2012-11-19T14:35:11Z</time>
      </trkpt>
      <trkpt lat="45.5908" lon="3.27337">
        <ele>495</ele>
        <time>2012-11-19T14:35:18Z</time>
      </trkpt>
      <trkpt lat="45.59073" lon="3.27312">
        <ele>497</ele>
        <time>2012-11-19T14:35:25Z</time>
      </trkpt>
      <trkpt lat="45.59067" lon="3.27286">
        <ele>498</ele>
        <time>2012-11-19T14:35:33Z</time>
      </trkpt>
      <trkpt lat="45.59062" lon="3.27259">
        <ele>498</ele>
        <time>2012-11-19T14:35:41Z</time>
      </trkpt>
      <trkpt lat="45.59056" lon="3.27231">
        <ele>500</ele>
        <time>2012-11-19T14:35:49Z</time>
      </trkpt>
      <trkpt lat="45.59045" lon="3.2721">
        <ele>502</ele>
        <time>2012-11-19T14:35:57Z</time>
      </trkpt>
      <trkpt lat="45.59034" lon="3.27189">
        <ele>503</ele>
        <time>2012-11-19T14:36:08Z</time>
      </trkpt>
      <trkpt lat="45.59024" lon="3.27166">
        <ele>507</ele>
        <time>2012-11-19T14:36:49Z</time>
      </trkpt>
      <trkpt lat="45.59018" lon="3.27139">
        <ele>506</ele>
        <time>2012-11-19T14:36:59Z</time>
      </trkpt>
      <trkpt lat="45.5901" lon="3.27115">
        <ele>507</ele>
        <time>2012-11-19T14:37:16Z</time>
      </trkpt>
      <trkpt lat="45.59001" lon="3.2709">
        <ele>512</ele>
        <time>2012-11-19T14:37:25Z</time>
      </trkpt>
      <trkpt lat="45.58989" lon="3.27068">
        <ele>519</ele>
        <time>2012-11-19T14:37:37Z</time>
      </trkpt>
      <trkpt lat="45.58976" lon="3.27051">
        <ele>521</ele>
        <time>2012-11-19T14:38:00Z</time>
      </trkpt>
      <trkpt lat="45.58958" lon="3.27064">
        <ele>522</ele>
        <time>2012-11-19T14:38:15Z</time>
      </trkpt>
      <trkpt lat="45.5894" lon="3.27071">
        <ele>524</ele>
        <time>2012-11-19T14:38:25Z</time>
      </trkpt>
      <trkpt lat="45.58921" lon="3.27075">
        <ele>525</ele>
        <time>2012-11-19T14:38:35Z</time>
      </trkpt>
      <trkpt lat="45.58902" lon="3.27078">
        <ele>530</ele>
        <time>2012-11-19T14:38:45Z</time>
      </trkpt>
      <trkpt lat="45.58885" lon="3.27083">
        <ele>531</ele>
        <time>2012-11-19T14:38:57Z</time>
      </trkpt>
      <trkpt lat="45.58866" lon="3.2709">
        <ele>527</ele>
        <time>2012-11-19T14:39:06Z</time>
      </trkpt>
      <trkpt lat="45.58847" lon="3.27092">
        <ele>529</ele>
        <time>2012-11-19T14:39:14Z</time>
      </trkpt>
      <trkpt lat="45.58829" lon="3.27098">
        <ele>531</ele>
        <time>2012-11-19T14:39:21Z</time>
      </trkpt>
      <trkpt lat="45.58811" lon="3.27101">
        <ele>531</ele>
        <time>2012-11-19T14:39:29Z</time>
      </trkpt>
      <trkpt lat="45.58792" lon="3.27105">
        <ele>531</ele>
        <time>2012-11-19T14:39:40Z</time>
      </trkpt>
      <trkpt lat="45.58772" lon="3.2711">
        <ele>531</ele>
        <time>2012-11-19T14:39:49Z</time>
      </trkpt>
      <trkpt lat="45.58753" lon="3.27111">
        <ele>532</ele>
        <time>2012-11-19T14:39:59Z</time>
      </trkpt>
      <trkpt lat="45.5874" lon="3.27093">
        <ele>535</ele>
        <time>2012-11-19T14:40:10Z</time>
      </trkpt>
      <trkpt lat="45.58726" lon="3.27073">
        <ele>540</ele>
        <time>2012-11-19T14:40:22Z</time>
      </trkpt>
      <trkpt lat="45.58717" lon="3.27048">
        <ele>542</ele>
        <time>2012-11-19T14:40:33Z</time>
      </trkpt>
      <trkpt lat="45.58709" lon="3.27025">
        <ele>544</ele>
        <time>2012-11-19T14:40:43Z</time>
      </trkpt>
      <trkpt lat="45.58697" lon="3.27004">
        <ele>545</ele>
        <time>2012-11-19T14:40:57Z</time>
      </trkpt>
      <trkpt lat="45.58683" lon="3.26988">
        <ele>551</ele>
        <time>2012-11-19T14:41:12Z</time>
      </trkpt>
      <trkpt lat="45.58668" lon="3.26972">
        <ele>552</ele>
        <time>2012-11-19T14:41:22Z</time>
      </trkpt>
      <trkpt lat="45.58655" lon="3.26953">
        <ele>554</ele>
        <time>2012-11-19T14:41:33Z</time>
      </trkpt>
      <trkpt lat="45.58638" lon="3.26939">
        <ele>554</ele>
        <time>2012-11-19T14:41:44Z</time>
      </trkpt>
      <trkpt lat="45.58617" lon="3.26944">
        <ele>554</ele>
        <time>2012-11-19T14:41:55Z</time>
      </trkpt>
      <trkpt lat="45.58605" lon="3.2697">
        <ele>552</ele>
        <time>2012-11-19T14:41:58Z</time>
      </trkpt>
      <trkpt lat="45.58595" lon="3.26992">
        <ele>549</ele>
        <time>2012-11-19T14:42:00Z</time>
      </trkpt>
      <trkpt lat="45.5858" lon="3.2701">
        <ele>544</ele>
        <time>2012-11-19T14:42:02Z</time>
      </trkpt>
      <trkpt lat="45.58562" lon="3.27026">
        <ele>541</ele>
        <time>2012-11-19T14:42:04Z</time>
      </trkpt>
      <trkpt lat="45.58545" lon="3.2704">
        <ele>539</ele>
        <time>2012-11-19T14:42:06Z</time>
      </trkpt>
      <trkpt lat="45.58525" lon="3.27057">
        <ele>538</ele>
        <time>2012-11-19T14:42:09Z</time>
      </trkpt>
      <trkpt lat="45.58507" lon="3.27061">
        <ele>536</ele>
        <time>2012-11-19T14:42:15Z</time>
      </trkpt>
      <trkpt lat="45.58491" lon="3.27046">
        <ele>533</ele>
        <time>2012-11-19T14:42:20Z</time>
      </trkpt>
      <trkpt lat="45.58474" lon="3.27034">
        <ele>533</ele>
        <time>2012-11-19T14:42:24Z</time>
      </trkpt>
      <trkpt lat="45.58454" lon="3.27017">
        <ele>533</ele>
        <time>2012-11-19T14:42:28Z</time>
      </trkpt>
      <trkpt lat="45.58438" lon="3.27002">
        <ele>532</ele>
        <time>2012-11-19T14:42:32Z</time>
      </trkpt>
      <trkpt lat="45.58422" lon="3.26986">
        <ele>537</ele>
        <time>2012-11-19T14:42:36Z</time>
      </trkpt>
      <trkpt lat="45.58403" lon="3.26966">
        <ele>535</ele>
        <time>2012-11-19T14:42:40Z</time>
      </trkpt>
      <trkpt lat="45.58386" lon="3.26945">
        <ele>537</ele>
        <time>2012-11-19T14:42:44Z</time>
      </trkpt>
      <trkpt lat="45.58369" lon="3.26928">
        <ele>536</ele>
        <time>2012-11-19T14:42:48Z</time>
      </trkpt>
      <trkpt lat="45.58349" lon="3.26924">
        <ele>536</ele>
        <time>2012-11-19T14:42:52Z</time>
      </trkpt>
      <trkpt lat="45.58327" lon="3.26919">
        <ele>534</ele>
        <time>2012-11-19T14:42:56Z</time>
      </trkpt>
      <trkpt lat="45.58309" lon="3.26916">
        <ele>541</ele>
        <time>2012-11-19T14:43:00Z</time>
      </trkpt>
      <trkpt lat="45.58288" lon="3.26911">
        <ele>541</ele>
        <time>2012-11-19T14:43:05Z</time>
      </trkpt>
      <trkpt lat="45.5827" lon="3.26905">
        <ele>540</ele>
        <time>2012-11-19T14:43:09Z</time>
      </trkpt>
      <trkpt lat="45.58249" lon="3.26898">
        <ele>538</ele>
        <time>2012-11-19T14:43:14Z</time>
      </trkpt>
      <trkpt lat="45.58228" lon="3.26895">
        <ele>540</ele>
        <time>2012-11-19T14:43:20Z</time>
      </trkpt>
      <trkpt lat="45.58211" lon="3.2689">
        <ele>541</ele>
        <time>2012-11-19T14:43:26Z</time>
      </trkpt>
      <trkpt lat="45.5819" lon="3.26883">
        <ele>542</ele>
        <time>2012-11-19T14:43:32Z</time>
      </trkpt>
      <trkpt lat="45.58172" lon="3.26877">
        <ele>543</ele>
        <time>2012-11-19T14:43:37Z</time>
      </trkpt>
      <trkpt lat="45.58154" lon="3.26871">
        <ele>543</ele>
        <time>2012-11-19T14:43:43Z</time>
      </trkpt>
      <trkpt lat="45.58133" lon="3.26872">
        <ele>542</ele>
        <time>2012-11-19T14:43:52Z</time>
      </trkpt>
      <trkpt lat="45.58115" lon="3.26878">
        <ele>541</ele>
        <time>2012-11-19T14:43:56Z</time>
      </trkpt>
      <trkpt lat="45.58093" lon="3.26886">
        <ele>539</ele>
        <time>2012-11-19T14:44:00Z</time>
      </trkpt>
      <trkpt lat="45.58072" lon="3.26888">
        <ele>535</ele>
        <time>2012-11-19T14:44:03Z</time>
      </trkpt>
      <trkpt lat="45.58048" lon="3.26888">
        <ele>535</ele>
        <time>2012-11-19T14:44:06Z</time>
      </trkpt>
      <trkpt lat="45.58025" lon="3.26884">
        <ele>534</ele>
        <time>2012-11-19T14:44:09Z</time>
      </trkpt>
      <trkpt lat="45.58007" lon="3.26879">
        <ele>534</ele>
        <time>2012-11-19T14:44:12Z</time>
      </trkpt>
      <trkpt lat="45.57987" lon="3.26876">
        <ele>531</ele>
        <time>2012-11-19T14:44:16Z</time>
      </trkpt>
      <trkpt lat="45.5797" lon="3.26893">
        <ele>528</ele>
        <time>2012-11-19T14:44:20Z</time>
      </trkpt>
      <trkpt lat="45.57954" lon="3.26907">
        <ele>526</ele>
        <time>2012-11-19T14:44:23Z</time>
      </trkpt>
      <trkpt lat="45.57933" lon="3.26907">
        <ele>523</ele>
        <time>2012-11-19T14:44:27Z</time>
      </trkpt>
      <trkpt lat="45.57914" lon="3.26906">
        <ele>519</ele>
        <time>2012-11-19T14:44:33Z</time>
      </trkpt>
      <trkpt lat="45.57896" lon="3.26907">
        <ele>519</ele>
        <time>2012-11-19T14:44:42Z</time>
      </trkpt>
      <trkpt lat="45.57904" lon="3.26933">
        <ele>509</ele>
        <time>2012-11-19T14:44:54Z</time>
      </trkpt>
      <trkpt lat="45.57909" lon="3.26959">
        <ele>505</ele>
        <time>2012-11-19T14:45:03Z</time>
      </trkpt>
      <trkpt lat="45.57919" lon="3.2698">
        <ele>505</ele>
        <time>2012-11-19T14:45:13Z</time>
      </trkpt>
      <trkpt lat="45.57934" lon="3.26998">
        <ele>504</ele>
        <time>2012-11-19T14:45:23Z</time>
      </trkpt>
      <trkpt lat="45.57945" lon="3.27019">
        <ele>497</ele>
        <time>2012-11-19T14:45:34Z</time>
      </trkpt>
      <trkpt lat="45.57929" lon="3.27034">
        <ele>496</ele>
        <time>2012-11-19T14:45:43Z</time>
      </trkpt>
      <trkpt lat="45.57911" lon="3.27037">
        <ele>492</ele>
        <time>2012-11-19T14:45:46Z</time>
      </trkpt>
      <trkpt lat="45.57888" lon="3.27045">
        <ele>490</ele>
        <time>2012-11-19T14:45:49Z</time>
      </trkpt>
      <trkpt lat="45.57866" lon="3.27054">
        <ele>489</ele>
        <time>2012-11-19T14:45:52Z</time>
      </trkpt>
      <trkpt lat="45.57845" lon="3.27062">
        <ele>487</ele>
        <time>2012-11-19T14:45:55Z</time>
      </trkpt>
      <trkpt lat="45.57823" lon="3.27061">
        <ele>483</ele>
        <time>2012-11-19T14:45:58Z</time>
      </trkpt>
      <trkpt lat="45.578" lon="3.27056">
        <ele>483</ele>
        <time>2012-11-19T14:46:01Z</time>
      </trkpt>
      <trkpt lat="45.5778" lon="3.27055">
        <ele>482</ele>
        <time>2012-11-19T14:46:04Z</time>
      </trkpt>
      <trkpt lat="45.57759" lon="3.27047">
        <ele>481</ele>
        <time>2012-11-19T14:46:07Z</time>
      </trkpt>
      <trkpt lat="45.57738" lon="3.27041">
        <ele>477</ele>
        <time>2012-11-19T14:46:10Z</time>
      </trkpt>
      <trkpt lat="45.57717" lon="3.27027">
        <ele>477</ele>
        <time>2012-11-19T14:46:13Z</time>
      </trkpt>
      <trkpt lat="45.57698" lon="3.27009">
        <ele>477</ele>
        <time>2012-11-19T14:46:16Z</time>
      </trkpt>
      <trkpt lat="45.57678" lon="3.26992">
        <ele>480</ele>
        <time>2012-11-19T14:46:19Z</time>
      </trkpt>
      <trkpt lat="45.57658" lon="3.26979">
        <ele>478</ele>
        <time>2012-11-19T14:46:22Z</time>
      </trkpt>
      <trkpt lat="45.5764" lon="3.26965">
        <ele>480</ele>
        <time>2012-11-19T14:46:25Z</time>
      </trkpt>
      <trkpt lat="45.57618" lon="3.26953">
        <ele>480</ele>
        <time>2012-11-19T14:46:28Z</time>
      </trkpt>
      <trkpt lat="45.5759" lon="3.26945">
        <ele>479</ele>
        <time>2012-11-19T14:46:31Z</time>
      </trkpt>
      <trkpt lat="45.57572" lon="3.26937">
        <ele>475</ele>
        <time>2012-11-19T14:46:33Z</time>
      </trkpt>
      <trkpt lat="45.57552" lon="3.26929">
        <ele>473</ele>
        <time>2012-11-19T14:46:35Z</time>
      </trkpt>
      <trkpt lat="45.57527" lon="3.26918">
        <ele>471</ele>
        <time>2012-11-19T14:46:38Z</time>
      </trkpt>
      <trkpt lat="45.57509" lon="3.26913">
        <ele>475</ele>
        <time>2012-11-19T14:46:40Z</time>
      </trkpt>
      <trkpt lat="45.57485" lon="3.26907">
        <ele>474</ele>
        <time>2012-11-19T14:46:43Z</time>
      </trkpt>
      <trkpt lat="45.57464" lon="3.26903">
        <ele>475</ele>
        <time>2012-11-19T14:46:46Z</time>
      </trkpt>
      <trkpt lat="45.57446" lon="3.26904">
        <ele>474</ele>
        <time>2012-11-19T14:46:48Z</time>
      </trkpt>
      <trkpt lat="45.5742" lon="3.269">
        <ele>470</ele>
        <time>2012-11-19T14:46:51Z</time>
      </trkpt>
      <trkpt lat="45.57394" lon="3.26895">
        <ele>469</ele>
        <time>2012-11-19T14:46:54Z</time>
      </trkpt>
      <trkpt lat="45.57376" lon="3.26893">
        <ele>469</ele>
        <time>2012-11-19T14:46:56Z</time>
      </trkpt>
      <trkpt lat="45.57356" lon="3.26892">
        <ele>468</ele>
        <time>2012-11-19T14:46:58Z</time>
      </trkpt>
      <trkpt lat="45.57336" lon="3.26893">
        <ele>466</ele>
        <time>2012-11-19T14:47:00Z</time>
      </trkpt>
      <trkpt lat="45.57315" lon="3.26887">
        <ele>464</ele>
        <time>2012-11-19T14:47:03Z</time>
      </trkpt>
      <trkpt lat="45.57297" lon="3.26882">
        <ele>465</ele>
        <time>2012-11-19T14:47:06Z</time>
      </trkpt>
      <trkpt lat="45.57274" lon="3.26887">
        <ele>463</ele>
        <time>2012-11-19T14:47:10Z</time>
      </trkpt>
      <trkpt lat="45.57254" lon="3.26891">
        <ele>461</ele>
        <time>2012-11-19T14:47:14Z</time>
      </trkpt>
      <trkpt lat="45.57234" lon="3.26888">
        <ele>457</ele>
        <time>2012-11-19T14:47:18Z</time>
      </trkpt>
      <trkpt lat="45.57211" lon="3.26886">
        <ele>457</ele>
        <time>2012-11-19T14:47:21Z</time>
      </trkpt>
      <trkpt lat="45.57187" lon="3.26888">
        <ele>454</ele>
        <time>2012-11-19T14:47:25Z</time>
      </trkpt>
      <trkpt lat="45.57166" lon="3.26886">
        <ele>447</ele>
        <time>2012-11-19T14:47:29Z</time>
      </trkpt>
      <trkpt lat="45.57146" lon="3.26889">
        <ele>447</ele>
        <time>2012-11-19T14:47:34Z</time>
      </trkpt>
      <trkpt lat="45.57128" lon="3.26884">
        <ele>447</ele>
        <time>2012-11-19T14:47:38Z</time>
      </trkpt>
      <trkpt lat="45.57108" lon="3.26884">
        <ele>446</ele>
        <time>2012-11-19T14:47:46Z</time>
      </trkpt>
      <trkpt lat="45.57085" lon="3.26883">
        <ele>445</ele>
        <time>2012-11-19T14:47:50Z</time>
      </trkpt>
      <trkpt lat="45.57066" lon="3.2688">
        <ele>439</ele>
        <time>2012-11-19T14:47:53Z</time>
      </trkpt>
      <trkpt lat="45.57042" lon="3.26874">
        <ele>438</ele>
        <time>2012-11-19T14:47:56Z</time>
      </trkpt>
      <trkpt lat="45.57024" lon="3.26866">
        <ele>437</ele>
        <time>2012-11-19T14:47:58Z</time>
      </trkpt>
      <trkpt lat="45.57003" lon="3.26853">
        <ele>436</ele>
        <time>2012-11-19T14:48:01Z</time>
      </trkpt>
      <trkpt lat="45.56985" lon="3.26839">
        <ele>432</ele>
        <time>2012-11-19T14:48:04Z</time>
      </trkpt>
      <trkpt lat="45.56962" lon="3.26827">
        <ele>432</ele>
        <time>2012-11-19T14:48:09Z</time>
      </trkpt>
      <trkpt lat="45.56948" lon="3.26806">
        <ele>432</ele>
        <time>2012-11-19T14:48:12Z</time>
      </trkpt>
      <trkpt lat="45.56937" lon="3.26779">
        <ele>432</ele>
        <time>2012-11-19T14:48:15Z</time>
      </trkpt>
      <trkpt lat="45.56918" lon="3.26757">
        <ele>429</ele>
        <time>2012-11-19T14:48:19Z</time>
      </trkpt>
      <trkpt lat="45.56896" lon="3.26746">
        <ele>430</ele>
        <time>2012-11-19T14:48:23Z</time>
      </trkpt>
      <trkpt lat="45.56874" lon="3.2674">
        <ele>430</ele>
        <time>2012-11-19T14:48:27Z</time>
      </trkpt>
      <trkpt lat="45.56849" lon="3.26726">
        <ele>428</ele>
        <time>2012-11-19T14:48:32Z</time>
      </trkpt>
      <trkpt lat="45.56828" lon="3.26719">
        <ele>421</ele>
        <time>2012-11-19T14:48:34Z</time>
      </trkpt>
      <trkpt lat="45.56804" lon="3.26713">
        <ele>421</ele>
        <time>2012-11-19T14:48:37Z</time>
      </trkpt>
      <trkpt lat="45.56782" lon="3.26711">
        <ele>420</ele>
        <time>2012-11-19T14:48:41Z</time>
      </trkpt>
      <trkpt lat="45.56753" lon="3.26714">
        <ele>418</ele>
        <time>2012-11-19T14:48:45Z</time>
      </trkpt>
      <trkpt lat="45.56733" lon="3.26713">
        <ele>411</ele>
        <time>2012-11-19T14:48:48Z</time>
      </trkpt>
      <trkpt lat="45.56714" lon="3.26712">
        <ele>410</ele>
        <time>2012-11-19T14:48:51Z</time>
      </trkpt>
      <trkpt lat="45.56696" lon="3.26692">
        <ele>409</ele>
        <time>2012-11-19T14:48:55Z</time>
      </trkpt>
      <trkpt lat="45.56676" lon="3.26674">
        <ele>406</ele>
        <time>2012-11-19T14:48:59Z</time>
      </trkpt>
      <trkpt lat="45.56657" lon="3.26672">
        <ele>403</ele>
        <time>2012-11-19T14:49:02Z</time>
      </trkpt>
      <trkpt lat="45.56636" lon="3.26661">
        <ele>402</ele>
        <time>2012-11-19T14:49:06Z</time>
      </trkpt>
      <trkpt lat="45.56618" lon="3.26647">
        <ele>400</ele>
        <time>2012-11-19T14:49:09Z</time>
      </trkpt>
      <trkpt lat="45.56603" lon="3.26633">
        <ele>399</ele>
        <time>2012-11-19T14:49:12Z</time>
      </trkpt>
      <trkpt lat="45.56583" lon="3.26613">
        <ele>397</ele>
        <time>2012-11-19T14:49:17Z</time>
      </trkpt>
      <trkpt lat="45.5657" lon="3.26589">
        <ele>387</ele>
        <time>2012-11-19T14:49:19Z</time>
      </trkpt>
      <trkpt lat="45.5656" lon="3.26566">
        <ele>383</ele>
        <time>2012-11-19T14:49:22Z</time>
      </trkpt>
      <trkpt lat="45.56541" lon="3.2656">
        <ele>380</ele>
        <time>2012-11-19T14:49:26Z</time>
      </trkpt>
      <trkpt lat="45.56519" lon="3.26569">
        <ele>376</ele>
        <time>2012-11-19T14:49:30Z</time>
      </trkpt>
      <trkpt lat="45.56499" lon="3.26585">
        <ele>370</ele>
        <time>2012-11-19T14:49:33Z</time>
      </trkpt>
      <trkpt lat="45.56486" lon="3.26608">
        <ele>371</ele>
        <time>2012-11-19T14:49:36Z</time>
      </trkpt>
      <trkpt lat="45.56474" lon="3.26631">
        <ele>372</ele>
        <time>2012-11-19T14:49:39Z</time>
      </trkpt>
      <trkpt lat="45.56463" lon="3.26652">
        <ele>373</ele>
        <time>2012-11-19T14:49:42Z</time>
      </trkpt>
      <trkpt lat="45.56451" lon="3.26679">
        <ele>377</ele>
        <time>2012-11-19T14:49:46Z</time>
      </trkpt>
      <trkpt lat="45.56441" lon="3.26708">
        <ele>378</ele>
        <time>2012-11-19T14:49:50Z</time>
      </trkpt>
      <trkpt lat="45.56431" lon="3.26737">
        <ele>378</ele>
        <time>2012-11-19T14:49:54Z</time>
      </trkpt>
      <trkpt lat="45.56422" lon="3.26762">
        <ele>381</ele>
        <time>2012-11-19T14:49:58Z</time>
      </trkpt>
      <trkpt lat="45.56413" lon="3.26789">
        <ele>376</ele>
        <time>2012-11-19T14:50:02Z</time>
      </trkpt>
      <trkpt lat="45.56403" lon="3.26817">
        <ele>379</ele>
        <time>2012-11-19T14:50:06Z</time>
      </trkpt>
      <trkpt lat="45.56395" lon="3.26846">
        <ele>381</ele>
        <time>2012-11-19T14:50:10Z</time>
      </trkpt>
      <trkpt lat="45.56387" lon="3.26876">
        <ele>381</ele>
        <time>2012-11-19T14:50:14Z</time>
      </trkpt>
      <trkpt lat="45.56379" lon="3.26908">
        <ele>381</ele>
        <time>2012-11-19T14:50:18Z</time>
      </trkpt>
      <trkpt lat="45.5637" lon="3.26929">
        <ele>384</ele>
        <time>2012-11-19T14:50:21Z</time>
      </trkpt>
      <trkpt lat="45.5636" lon="3.26952">
        <ele>383</ele>
        <time>2012-11-19T14:50:24Z</time>
      </trkpt>
      <trkpt lat="45.56351" lon="3.26978">
        <ele>383</ele>
        <time>2012-11-19T14:50:27Z</time>
      </trkpt>
      <trkpt lat="45.56343" lon="3.27004">
        <ele>382</ele>
        <time>2012-11-19T14:50:30Z</time>
      </trkpt>
      <trkpt lat="45.56334" lon="3.27028">
        <ele>387</ele>
        <time>2012-11-19T14:50:33Z</time>
      </trkpt>
      <trkpt lat="45.56328" lon="3.27055">
        <ele>376</ele>
        <time>2012-11-19T14:50:36Z</time>
      </trkpt>
      <trkpt lat="45.56327" lon="3.27086">
        <ele>381</ele>
        <time>2012-11-19T14:50:39Z</time>
      </trkpt>
      <trkpt lat="45.56324" lon="3.27116">
        <ele>379</ele>
        <time>2012-11-19T14:50:42Z</time>
      </trkpt>
      <trkpt lat="45.56318" lon="3.27145">
        <ele>380</ele>
        <time>2012-11-19T14:50:45Z</time>
      </trkpt>
      <trkpt lat="45.56311" lon="3.27172">
        <ele>382</ele>
        <time>2012-11-19T14:50:48Z</time>
      </trkpt>
      <trkpt lat="45.56308" lon="3.27199">
        <ele>381</ele>
        <time>2012-11-19T14:50:51Z</time>
      </trkpt>
      <trkpt lat="45.56303" lon="3.27226">
        <ele>381</ele>
        <time>2012-11-19T14:50:54Z</time>
      </trkpt>
      <trkpt lat="45.56301" lon="3.27254">
        <ele>382</ele>
        <time>2012-11-19T14:50:57Z</time>
      </trkpt>
      <trkpt lat="45.56299" lon="3.27284">
        <ele>380</ele>
        <time>2012-11-19T14:51:00Z</time>
      </trkpt>
      <trkpt lat="45.56294" lon="3.2731">
        <ele>380</ele>
        <time>2012-11-19T14:51:03Z</time>
      </trkpt>
      <trkpt lat="45.56285" lon="3.27338">
        <ele>378</ele>
        <time>2012-11-19T14:51:06Z</time>
      </trkpt>
      <trkpt lat="45.56268" lon="3.27356">
        <ele>376</ele>
        <time>2012-11-19T14:51:09Z</time>
      </trkpt>
      <trkpt lat="45.5625" lon="3.27374">
        <ele>376</ele>
        <time>2012-11-19T14:51:12Z</time>
      </trkpt>
      <trkpt lat="45.56233" lon="3.2739">
        <ele>372</ele>
        <time>2012-11-19T14:51:15Z</time>
      </trkpt>
      <trkpt lat="45.56216" lon="3.27408">
        <ele>371</ele>
        <time>2012-11-19T14:51:18Z</time>
      </trkpt>
      <trkpt lat="45.56201" lon="3.27428">
        <ele>374</ele>
        <time>2012-11-19T14:51:21Z</time>
      </trkpt>
      <trkpt lat="45.56186" lon="3.27448">
        <ele>374</ele>
        <time>2012-11-19T14:51:24Z</time>
      </trkpt>
      <trkpt lat="45.56171" lon="3.27467">
        <ele>374</ele>
        <time>2012-11-19T14:51:27Z</time>
      </trkpt>
      <trkpt lat="45.56161" lon="3.27489">
        <ele>371</ele>
        <time>2012-11-19T14:51:30Z</time>
      </trkpt>
      <trkpt lat="45.56146" lon="3.27507">
        <ele>373</ele>
        <time>2012-11-19T14:51:34Z</time>
      </trkpt>
      <trkpt lat="45.56133" lon="3.27488">
        <ele>369</ele>
        <time>2012-11-19T14:51:37Z</time>
      </trkpt>
      <trkpt lat="45.56115" lon="3.27467">
        <ele>368</ele>
        <time>2012-11-19T14:51:41Z</time>
      </trkpt>
      <trkpt lat="45.56096" lon="3.27451">
        <ele>368</ele>
        <time>2012-11-19T14:51:45Z</time>
      </trkpt>
      <trkpt lat="45.56078" lon="3.27433">
        <ele>366</ele>
        <time>2012-11-19T14:51:50Z</time>
      </trkpt>
      <trkpt lat="45.5606" lon="3.27436">
        <ele>366</ele>
        <time>2012-11-19T14:51:54Z</time>
      </trkpt>
      <trkpt lat="45.56043" lon="3.27449">
        <ele>366</ele>
        <time>2012-11-19T14:51:58Z</time>
      </trkpt>
      <trkpt lat="45.56028" lon="3.27464">
        <ele>366</ele>
        <time>2012-11-19T14:52:02Z</time>
      </trkpt>
      <trkpt lat="45.56013" lon="3.2748">
        <ele>366</ele>
        <time>2012-11-19T14:52:06Z</time>
      </trkpt>
      <trkpt lat="45.55995" lon="3.27496">
        <ele>366</ele>
        <time>2012-11-19T14:52:11Z</time>
      </trkpt>
      <trkpt lat="45.55979" lon="3.27513">
        <ele>366</ele>
        <time>2012-11-19T14:52:16Z</time>
      </trkpt>
      <trkpt lat="45.55964" lon="3.27531">
        <ele>366</ele>
        <time>2012-11-19T14:52:22Z</time>
      </trkpt>
      <trkpt lat="45.55945" lon="3.27534">
        <ele>366</ele>
        <time>2012-11-19T14:52:28Z</time>
      </trkpt>
      <trkpt lat="45.55925" lon="3.2753">
        <ele>367</ele>
        <time>2012-11-19T14:52:32Z</time>
      </trkpt>
      <trkpt lat="45.55905" lon="3.27525">
        <ele>368</ele>
        <time>2012-11-19T14:52:36Z</time>
      </trkpt>
      <trkpt lat="45.55884" lon="3.2752">
        <ele>368</ele>
        <time>2012-11-19T14:52:40Z</time>
      </trkpt>
      <trkpt lat="45.55864" lon="3.27513">
        <ele>368</ele>
        <time>2012-11-19T14:52:44Z</time>
      </trkpt>
      <trkpt lat="45.55844" lon="3.27507">
        <ele>368</ele>
        <time>2012-11-19T14:52:48Z</time>
      </trkpt>
      <trkpt lat="45.55824" lon="3.27498">
        <ele>369</ele>
        <time>2012-11-19T14:52:52Z</time>
      </trkpt>
      <trkpt lat="45.55807" lon="3.27485">
        <ele>368</ele>
        <time>2012-11-19T14:52:56Z</time>
      </trkpt>
      <trkpt lat="45.5579" lon="3.27472">
        <ele>368</ele>
        <time>2012-11-19T14:53:00Z</time>
      </trkpt>
      <trkpt lat="45.55775" lon="3.27456">
        <ele>368</ele>
        <time>2012-11-19T14:53:04Z</time>
      </trkpt>
      <trkpt lat="45.55759" lon="3.2744">
        <ele>368</ele>
        <time>2012-11-19T14:53:08Z</time>
      </trkpt>
      <trkpt lat="45.55742" lon="3.27424">
        <ele>367</ele>
        <time>2012-11-19T14:53:12Z</time>
      </trkpt>
      <trkpt lat="45.55726" lon="3.27409">
        <ele>367</ele>
        <time>2012-11-19T14:53:16Z</time>
      </trkpt>
      <trkpt lat="45.55708" lon="3.27392">
        <ele>367</ele>
        <time>2012-11-19T14:53:20Z</time>
      </trkpt>
      <trkpt lat="45.5569" lon="3.27375">
        <ele>368</ele>
        <time>2012-11-19T14:53:24Z</time>
      </trkpt>
      <trkpt lat="45.55673" lon="3.27358">
        <ele>368</ele>
        <time>2012-11-19T14:53:28Z</time>
      </trkpt>
      <trkpt lat="45.55659" lon="3.27341">
        <ele>369</ele>
        <time>2012-11-19T14:53:31Z</time>
      </trkpt>
      <trkpt lat="45.55643" lon="3.27328">
        <ele>369</ele>
        <time>2012-11-19T14:53:34Z</time>
      </trkpt>
      <trkpt lat="45.55629" lon="3.27312">
        <ele>369</ele>
        <time>2012-11-19T14:53:37Z</time>
      </trkpt>
      <trkpt lat="45.5561" lon="3.27294">
        <ele>370</ele>
        <time>2012-11-19T14:53:40Z</time>
      </trkpt>
      <trkpt lat="45.55595" lon="3.27279">
        <ele>370</ele>
        <time>2012-11-19T14:53:43Z</time>
      </trkpt>
      <trkpt lat="45.55577" lon="3.27265">
        <ele>369</ele>
        <time>2012-11-19T14:53:46Z</time>
      </trkpt>
      <trkpt lat="45.55561" lon="3.2725">
        <ele>369</ele>
        <time>2012-11-19T14:53:49Z</time>
      </trkpt>
      <trkpt lat="45.55543" lon="3.27232">
        <ele>368</ele>
        <time>2012-11-19T14:53:52Z</time>
      </trkpt>
      <trkpt lat="45.55527" lon="3.27216">
        <ele>368</ele>
        <time>2012-11-19T14:53:55Z</time>
      </trkpt>
      <trkpt lat="45.55507" lon="3.27199">
        <ele>368</ele>
        <time>2012-11-19T14:53:58Z</time>
      </trkpt>
      <trkpt lat="45.55489" lon="3.27181">
        <ele>369</ele>
        <time>2012-11-19T14:54:01Z</time>
      </trkpt>
      <trkpt lat="45.55471" lon="3.27166">
        <ele>370</ele>
        <time>2012-11-19T14:54:04Z</time>
      </trkpt>
      <trkpt lat="45.55454" lon="3.27147">
        <ele>371</ele>
        <time>2012-11-19T14:54:07Z</time>
      </trkpt>
      <trkpt lat="45.55438" lon="3.27131">
        <ele>371</ele>
        <time>2012-11-19T14:54:10Z</time>
      </trkpt>
      <trkpt lat="45.55419" lon="3.27112">
        <ele>371</ele>
        <time>2012-11-19T14:54:14Z</time>
      </trkpt>
      <trkpt lat="45.55403" lon="3.27098">
        <ele>372</ele>
        <time>2012-11-19T14:54:17Z</time>
      </trkpt>
      <trkpt lat="45.55385" lon="3.27077">
        <ele>373</ele>
        <time>2012-11-19T14:54:21Z</time>
      </trkpt>
      <trkpt lat="45.55373" lon="3.27059">
        <ele>374</ele>
        <time>2012-11-19T14:54:24Z</time>
      </trkpt>
      <trkpt lat="45.55364" lon="3.27032">
        <ele>374</ele>
        <time>2012-11-19T14:54:28Z</time>
      </trkpt>
      <trkpt lat="45.55347" lon="3.27014">
        <ele>376</ele>
        <time>2012-11-19T14:54:32Z</time>
      </trkpt>
      <trkpt lat="45.55326" lon="3.27021">
        <ele>377</ele>
        <time>2012-11-19T14:54:36Z</time>
      </trkpt>
      <trkpt lat="45.55317" lon="3.27048">
        <ele>376</ele>
        <time>2012-11-19T14:54:40Z</time>
      </trkpt>
      <trkpt lat="45.55324" lon="3.27074">
        <ele>376</ele>
        <time>2012-11-19T14:54:43Z</time>
      </trkpt>
      <trkpt lat="45.55337" lon="3.27093">
        <ele>374</ele>
        <time>2012-11-19T14:54:46Z</time>
      </trkpt>
      <trkpt lat="45.5532" lon="3.27111">
        <ele>373</ele>
        <time>2012-11-19T14:54:51Z</time>
      </trkpt>
      <trkpt lat="45.55297" lon="3.27106">
        <ele>373</ele>
        <time>2012-11-19T14:54:54Z</time>
      </trkpt>
      <trkpt lat="45.55272" lon="3.27099">
        <ele>373</ele>
        <time>2012-11-19T14:54:57Z</time>
      </trkpt>
      <trkpt lat="45.55252" lon="3.27084">
        <ele>375</ele>
        <time>2012-11-19T14:55:00Z</time>
      </trkpt>
      <trkpt lat="45.55233" lon="3.27068">
        <ele>375</ele>
        <time>2012-11-19T14:55:03Z</time>
      </trkpt>
      <trkpt lat="45.55213" lon="3.27066">
        <ele>375</ele>
        <time>2012-11-19T14:55:06Z</time>
      </trkpt>
      <trkpt lat="45.5519" lon="3.27076">
        <ele>375</ele>
        <time>2012-11-19T14:55:10Z</time>
      </trkpt>
      <trkpt lat="45.55173" lon="3.27087">
        <ele>373</ele>
        <time>2012-11-19T14:55:13Z</time>
      </trkpt>
      <trkpt lat="45.55155" lon="3.27096">
        <ele>373</ele>
        <time>2012-11-19T14:55:16Z</time>
      </trkpt>
      <trkpt lat="45.55138" lon="3.27109">
        <ele>372</ele>
        <time>2012-11-19T14:55:19Z</time>
      </trkpt>
      <trkpt lat="45.5512" lon="3.27121">
        <ele>372</ele>
        <time>2012-11-19T14:55:22Z</time>
      </trkpt>
      <trkpt lat="45.55102" lon="3.27122">
        <ele>373</ele>
        <time>2012-11-19T14:55:25Z</time>
      </trkpt>
      <trkpt lat="45.55091" lon="3.27095">
        <ele>373</ele>
        <time>2012-11-19T14:55:29Z</time>
      </trkpt>
      <trkpt lat="45.55087" lon="3.2707">
        <ele>374</ele>
        <time>2012-11-19T14:55:32Z</time>
      </trkpt>
      <trkpt lat="45.55083" lon="3.27043">
        <ele>374</ele>
        <time>2012-11-19T14:55:35Z</time>
      </trkpt>
      <trkpt lat="45.55078" lon="3.27011">
        <ele>374</ele>
        <time>2012-11-19T14:55:39Z</time>
      </trkpt>
      <trkpt lat="45.55075" lon="3.26984">
        <ele>374</ele>
        <time>2012-11-19T14:55:42Z</time>
      </trkpt>
      <trkpt lat="45.55072" lon="3.26957">
        <ele>375</ele>
        <time>2012-11-19T14:55:45Z</time>
      </trkpt>
      <trkpt lat="45.5506" lon="3.26931">
        <ele>375</ele>
        <time>2012-11-19T14:55:49Z</time>
      </trkpt>
      <trkpt lat="45.55041" lon="3.2693">
        <ele>375</ele>
        <time>2012-11-19T14:55:52Z</time>
      </trkpt>
      <trkpt lat="45.55019" lon="3.26933">
        <ele>375</ele>
        <time>2012-11-19T14:55:55Z</time>
      </trkpt>
      <trkpt lat="45.54998" lon="3.2694">
        <ele>375</ele>
        <time>2012-11-19T14:55:58Z</time>
      </trkpt>
      <trkpt lat="45.54974" lon="3.26944">
        <ele>375</ele>
        <time>2012-11-19T14:56:01Z</time>
      </trkpt>
      <trkpt lat="45.54949" lon="3.26949">
        <ele>375</ele>
        <time>2012-11-19T14:56:04Z</time>
      </trkpt>
      <trkpt lat="45.54926" lon="3.26954">
        <ele>374</ele>
        <time>2012-11-19T14:56:07Z</time>
      </trkpt>
      <trkpt lat="45.54903" lon="3.26955">
        <ele>374</ele>
        <time>2012-11-19T14:56:10Z</time>
      </trkpt>
      <trkpt lat="45.54881" lon="3.26958">
        <ele>374</ele>
        <time>2012-11-19T14:56:13Z</time>
      </trkpt>
      <trkpt lat="45.54859" lon="3.2696">
        <ele>374</ele>
        <time>2012-11-19T14:56:16Z</time>
      </trkpt>
      <trkpt lat="45.54835" lon="3.26957">
        <ele>374</ele>
        <time>2012-11-19T14:56:19Z</time>
      </trkpt>
      <trkpt lat="45.54812" lon="3.26956">
        <ele>373</ele>
        <time>2012-11-19T14:56:22Z</time>
      </trkpt>
      <trkpt lat="45.54789" lon="3.26956">
        <ele>373</ele>
        <time>2012-11-19T14:56:25Z</time>
      </trkpt>
      <trkpt lat="45.54767" lon="3.26953">
        <ele>373</ele>
        <time>2012-11-19T14:56:28Z</time>
      </trkpt>
      <trkpt lat="45.54744" lon="3.26949">
        <ele>372</ele>
        <time>2012-11-19T14:56:31Z</time>
      </trkpt>
      <trkpt lat="45.54723" lon="3.26947">
        <ele>372</ele>
        <time>2012-11-19T14:56:34Z</time>
      </trkpt>
      <trkpt lat="45.54701" lon="3.26943">
        <ele>372</ele>
        <time>2012-11-19T14:56:37Z</time>
      </trkpt>
      <trkpt lat="45.54679" lon="3.26938">
        <ele>372</ele>
        <time>2012-11-19T14:56:40Z</time>
      </trkpt>
      <trkpt lat="45.54656" lon="3.26933">
        <ele>371</ele>
        <time>2012-11-19T14:56:43Z</time>
      </trkpt>
      <trkpt lat="45.54636" lon="3.26927">
        <ele>371</ele>
        <time>2012-11-19T14:56:46Z</time>
      </trkpt>
      <trkpt lat="45.54615" lon="3.26921">
        <ele>371</ele>
        <time>2012-11-19T14:56:49Z</time>
      </trkpt>
      <trkpt lat="45.54593" lon="3.26912">
        <ele>371</ele>
        <time>2012-11-19T14:56:52Z</time>
      </trkpt>
      <trkpt lat="45.5457" lon="3.26905">
        <ele>372</ele>
        <time>2012-11-19T14:56:55Z</time>
      </trkpt>
      <trkpt lat="45.5455" lon="3.26896">
        <ele>372</ele>
        <time>2012-11-19T14:56:58Z</time>
      </trkpt>
      <trkpt lat="45.5453" lon="3.2689">
        <ele>372</ele>
        <time>2012-11-19T14:57:01Z</time>
      </trkpt>
      <trkpt lat="45.54525" lon="3.26857">
        <ele>372</ele>
        <time>2012-11-19T14:57:05Z</time>
      </trkpt>
      <trkpt lat="45.54535" lon="3.26828">
        <ele>373</ele>
        <time>2012-11-19T14:57:09Z</time>
      </trkpt>
      <trkpt lat="45.54544" lon="3.26801">
        <ele>373</ele>
        <time>2012-11-19T14:57:12Z</time>
      </trkpt>
      <trkpt lat="45.54545" lon="3.26771">
        <ele>373</ele>
        <time>2012-11-19T14:57:16Z</time>
      </trkpt>
      <trkpt lat="45.54544" lon="3.26745">
        <ele>374</ele>
        <time>2012-11-19T14:57:19Z</time>
      </trkpt>
      <trkpt lat="45.5454" lon="3.26716">
        <ele>374</ele>
        <time>2012-11-19T14:57:23Z</time>
      </trkpt>
      <trkpt lat="45.54534" lon="3.26685">
        <ele>374</ele>
        <time>2012-11-19T14:57:27Z</time>
      </trkpt>
      <trkpt lat="45.54524" lon="3.26655">
        <ele>375</ele>
        <time>2012-11-19T14:57:31Z</time>
      </trkpt>
      <trkpt lat="45.54516" lon="3.26625">
        <ele>375</ele>
        <time>2012-11-19T14:57:35Z</time>
      </trkpt>
      <trkpt lat="45.54512" lon="3.26598">
        <ele>375</ele>
        <time>2012-11-19T14:57:39Z</time>
      </trkpt>
      <trkpt lat="45.54507" lon="3.26571">
        <ele>375</ele>
        <time>2012-11-19T14:57:43Z</time>
      </trkpt>
      <trkpt lat="45.54504" lon="3.26545">
        <ele>375</ele>
        <time>2012-11-19T14:57:47Z</time>
      </trkpt>
      <trkpt lat="45.54502" lon="3.26515">
        <ele>375</ele>
        <time>2012-11-19T14:57:52Z</time>
      </trkpt>
      <trkpt lat="45.54494" lon="3.26492">
        <ele>375</ele>
        <time>2012-11-19T14:57:55Z</time>
      </trkpt>
      <trkpt lat="45.54489" lon="3.26462">
        <ele>374</ele>
        <time>2012-11-19T14:57:59Z</time>
      </trkpt>
      <trkpt lat="45.54486" lon="3.26436">
        <ele>375</ele>
        <time>2012-11-19T14:58:03Z</time>
      </trkpt>
      <trkpt lat="45.54479" lon="3.26409">
        <ele>375</ele>
        <time>2012-11-19T14:58:07Z</time>
      </trkpt>
      <trkpt lat="45.54468" lon="3.26385">
        <ele>375</ele>
        <time>2012-11-19T14:58:12Z</time>
      </trkpt>
      <trkpt lat="45.5446" lon="3.26359">
        <ele>374</ele>
        <time>2012-11-19T14:58:18Z</time>
      </trkpt>
      <trkpt lat="45.54455" lon="3.26329">
        <ele>374</ele>
        <time>2012-11-19T14:58:23Z</time>
      </trkpt>
      <trkpt lat="45.54452" lon="3.26301">
        <ele>374</ele>
        <time>2012-11-19T14:58:29Z</time>
      </trkpt>
      <trkpt lat="45.54446" lon="3.26276">
        <ele>374</ele>
        <time>2012-11-19T14:58:37Z</time>
      </trkpt>
      <trkpt lat="45.54443" lon="3.26248">
        <ele>375</ele>
        <time>2012-11-19T14:58:47Z</time>
      </trkpt>
      <trkpt lat="45.54432" lon="3.26222">
        <ele>375</ele>
        <time>2012-11-19T14:58:53Z</time>
      </trkpt>
      <trkpt lat="45.54433" lon="3.26191">
        <ele>376</ele>
        <time>2012-11-19T14:58:58Z</time>
      </trkpt>
      <trkpt lat="45.54434" lon="3.26165">
        <ele>377</ele>
        <time>2012-11-19T14:59:02Z</time>
      </trkpt>
      <trkpt lat="45.54435" lon="3.26136">
        <ele>378</ele>
        <time>2012-11-19T14:59:07Z</time>
      </trkpt>
      <trkpt lat="45.54435" lon="3.26105">
        <ele>378</ele>
        <time>2012-11-19T14:59:12Z</time>
      </trkpt>
      <trkpt lat="45.54435" lon="3.26079">
        <ele>378</ele>
        <time>2012-11-19T14:59:16Z</time>
      </trkpt>
      <trkpt lat="45.54433" lon="3.26052">
        <ele>378</ele>
        <time>2012-11-19T14:59:20Z</time>
      </trkpt>
      <trkpt lat="45.54425" lon="3.26026">
        <ele>378</ele>
        <time>2012-11-19T14:59:24Z</time>
      </trkpt>
      <trkpt lat="45.54415" lon="3.26">
        <ele>377</ele>
        <time>2012-11-19T14:59:28Z</time>
      </trkpt>
      <trkpt lat="45.54407" lon="3.25974">
        <ele>377</ele>
        <time>2012-11-19T14:59:32Z</time>
      </trkpt>
      <trkpt lat="45.54386" lon="3.25957">
        <ele>377</ele>
        <time>2012-11-19T14:59:36Z</time>
      </trkpt>
      <trkpt lat="45.54364" lon="3.25956">
        <ele>378</ele>
        <time>2012-11-19T14:59:40Z</time>
      </trkpt>
      <trkpt lat="45.54345" lon="3.25951">
        <ele>378</ele>
        <time>2012-11-19T14:59:44Z</time>
      </trkpt>
      <trkpt lat="45.54335" lon="3.25927">
        <ele>378</ele>
        <time>2012-11-19T14:59:48Z</time>
      </trkpt>
      <trkpt lat="45.54326" lon="3.25897">
        <ele>381</ele>
        <time>2012-11-19T14:59:52Z</time>
      </trkpt>
      <trkpt lat="45.54328" lon="3.25863">
        <ele>381</ele>
        <time>2012-11-19T14:59:56Z</time>
      </trkpt>
      <trkpt lat="45.54335" lon="3.25829">
        <ele>380</ele>
        <time>2012-11-19T15:00:00Z</time>
      </trkpt>
      <trkpt lat="45.54335" lon="3.25803">
        <ele>379</ele>
        <time>2012-11-19T15:00:03Z</time>
      </trkpt>
      <trkpt lat="45.54339" lon="3.25772">
        <ele>379</ele>
        <time>2012-11-19T15:00:07Z</time>
      </trkpt>
      <trkpt lat="45.54339" lon="3.25741">
        <ele>379</ele>
        <time>2012-11-19T15:00:11Z</time>
      </trkpt>
      <trkpt lat="45.54351" lon="3.25721">
        <ele>379</ele>
        <time>2012-11-19T15:00:15Z</time>
      </trkpt>
      <trkpt lat="45.54369" lon="3.25713">
        <ele>379</ele>
        <time>2012-11-19T15:00:21Z</time>
      </trkpt>
      <trkpt lat="45.54371" lon="3.25684">
        <ele>378</ele>
        <time>2012-11-19T15:00:26Z</time>
      </trkpt>
      <trkpt lat="45.54364" lon="3.25658">
        <ele>379</ele>
        <time>2012-11-19T15:00:30Z</time>
      </trkpt>
      <trkpt lat="45.54365" lon="3.25631">
        <ele>379</ele>
        <time>2012-11-19T15:00:34Z</time>
      </trkpt>
      <trkpt lat="45.54377" lon="3.2561">
        <ele>380</ele>
        <time>2012-11-19T15:00:39Z</time>
      </trkpt>
      <trkpt lat="45.54383" lon="3.25581">
        <ele>381</ele>
        <time>2012-11-19T15:00:44Z</time>
      </trkpt>
      <trkpt lat="45.5437" lon="3.25564">
        <ele>381</ele>
        <time>2012-11-19T15:00:48Z</time>
      </trkpt>
      <trkpt lat="45.54357" lon="3.25539">
        <ele>381</ele>
        <time>2012-11-19T15:00:52Z</time>
      </trkpt>
      <trkpt lat="45.54352" lon="3.25514">
        <ele>380</ele>
        <time>2012-11-19T15:00:56Z</time>
      </trkpt>
      <trkpt lat="45.54349" lon="3.25484">
        <ele>381</ele>
        <time>2012-11-19T15:01:00Z</time>
      </trkpt>
      <trkpt lat="45.54346" lon="3.25457">
        <ele>381</ele>
        <time>2012-11-19T15:01:04Z</time>
      </trkpt>
      <trkpt lat="45.54343" lon="3.25429">
        <ele>381</ele>
        <time>2012-11-19T15:01:08Z</time>
      </trkpt>
      <trkpt lat="45.54337" lon="3.25402">
        <ele>382</ele>
        <time>2012-11-19T15:01:13Z</time>
      </trkpt>
      <trkpt lat="45.5432" lon="3.25385">
        <ele>383</ele>
        <time>2012-11-19T15:01:19Z</time>
      </trkpt>
      <trkpt lat="45.54301" lon="3.25381">
        <ele>383</ele>
        <time>2012-11-19T15:01:26Z</time>
      </trkpt>
      <trkpt lat="45.54297" lon="3.25351">
        <ele>383</ele>
        <time>2012-11-19T15:01:31Z</time>
      </trkpt>
      <trkpt lat="45.54277" lon="3.25339">
        <ele>384</ele>
        <time>2012-11-19T15:01:34Z</time>
      </trkpt>
      <trkpt lat="45.54259" lon="3.2534">
        <ele>384</ele>
        <time>2012-11-19T15:01:41Z</time>
      </trkpt>
      <trkpt lat="45.54259" lon="3.25314">
        <ele>385</ele>
        <time>2012-11-19T15:01:49Z</time>
      </trkpt>
      <trkpt lat="45.5426" lon="3.25287">
        <ele>385</ele>
        <time>2012-11-19T15:01:53Z</time>
      </trkpt>
      <trkpt lat="45.54262" lon="3.25256">
        <ele>385</ele>
        <time>2012-11-19T15:01:58Z</time>
      </trkpt>
      <trkpt lat="45.5427" lon="3.25228">
        <ele>385</ele>
        <time>2012-11-19T15:02:03Z</time>
      </trkpt>
      <trkpt lat="45.54282" lon="3.25205">
        <ele>385</ele>
        <time>2012-11-19T15:02:09Z</time>
      </trkpt>
      <trkpt lat="45.54297" lon="3.25182">
        <ele>385</ele>
        <time>2012-11-19T15:02:15Z</time>
      </trkpt>
      <trkpt lat="45.54309" lon="3.25158">
        <ele>385</ele>
        <time>2012-11-19T15:02:21Z</time>
      </trkpt>
      <trkpt lat="45.54319" lon="3.25134">
        <ele>385</ele>
        <time>2012-11-19T15:02:31Z</time>
      </trkpt>
      <trkpt lat="45.54305" lon="3.2511">
        <ele>385</ele>
        <time>2012-11-19T15:02:38Z</time>
      </trkpt>
      <trkpt lat="45.54287" lon="3.25096">
        <ele>385</ele>
        <time>2012-11-19T15:02:42Z</time>
      </trkpt>
      <trkpt lat="45.54271" lon="3.25082">
        <ele>386</ele>
        <time>2012-11-19T15:02:46Z</time>
      </trkpt>
      <trkpt lat="45.54273" lon="3.25053">
        <ele>387</ele>
        <time>2012-11-19T15:02:50Z</time>
      </trkpt>
      <trkpt lat="45.54276" lon="3.25025">
        <ele>387</ele>
        <time>2012-11-19T15:02:54Z</time>
      </trkpt>
      <trkpt lat="45.54279" lon="3.24996">
        <ele>389</ele>
        <time>2012-11-19T15:02:58Z</time>
      </trkpt>
      <trkpt lat="45.54282" lon="3.2497">
        <ele>390</ele>
        <time>2012-11-19T15:03:02Z</time>
      </trkpt>
      <trkpt lat="45.54286" lon="3.24943">
        <ele>390</ele>
        <time>2012-11-19T15:03:06Z</time>
      </trkpt>
      <trkpt lat="45.54285" lon="3.24918">
        <ele>391</ele>
        <time>2012-11-19T15:03:10Z</time>
      </trkpt>
      <trkpt lat="45.54289" lon="3.2489">
        <ele>392</ele>
        <time>2012-11-19T15:03:14Z</time>
      </trkpt>
      <trkpt lat="45.54289" lon="3.24864">
        <ele>392</ele>
        <time>2012-11-19T15:03:18Z</time>
      </trkpt>
      <trkpt lat="45.54292" lon="3.24839">
        <ele>392</ele>
        <time>2012-11-19T15:03:22Z</time>
      </trkpt>
      <trkpt lat="45.5429" lon="3.24812">
        <ele>392</ele>
        <time>2012-11-19T15:03:28Z</time>
      </trkpt>
      <trkpt lat="45.54284" lon="3.24783">
        <ele>392</ele>
        <time>2012-11-19T15:03:33Z</time>
      </trkpt>
      <trkpt lat="45.5428" lon="3.24757">
        <ele>392</ele>
        <time>2012-11-19T15:03:40Z</time>
      </trkpt>
      <trkpt lat="45.54263" lon="3.24739">
        <ele>392</ele>
        <time>2012-11-19T15:04:21Z</time>
      </trkpt>
      <trkpt lat="45.5425" lon="3.24717">
        <ele>392</ele>
        <time>2012-11-19T15:04:27Z</time>
      </trkpt>
      <trkpt lat="45.5424" lon="3.24689">
        <ele>391</ele>
        <time>2012-11-19T15:04:32Z</time>
      </trkpt>
      <trkpt lat="45.54234" lon="3.2466">
        <ele>391</ele>
        <time>2012-11-19T15:04:36Z</time>
      </trkpt>
      <trkpt lat="45.54225" lon="3.24632">
        <ele>391</ele>
        <time>2012-11-19T15:04:41Z</time>
      </trkpt>
      <trkpt lat="45.54225" lon="3.24605">
        <ele>391</ele>
        <time>2012-11-19T15:04:45Z</time>
      </trkpt>
      <trkpt lat="45.54219" lon="3.24577">
        <ele>391</ele>
        <time>2012-11-19T15:04:50Z</time>
      </trkpt>
      <trkpt lat="45.54211" lon="3.24554">
        <ele>391</ele>
        <time>2012-11-19T15:04:57Z</time>
      </trkpt>
      <trkpt lat="45.5421" lon="3.24525">
        <ele>391</ele>
        <time>2012-11-19T15:05:06Z</time>
      </trkpt>
      <trkpt lat="45.54204" lon="3.24496">
        <ele>391</ele>
        <time>2012-11-19T15:05:10Z</time>
      </trkpt>
      <trkpt lat="45.54199" lon="3.24466">
        <ele>391</ele>
        <time>2012-11-19T15:05:17Z</time>
      </trkpt>
      <trkpt lat="45.54197" lon="3.24439">
        <ele>391</ele>
        <time>2012-11-19T15:05:21Z</time>
      </trkpt>
      <trkpt lat="45.54196" lon="3.24408">
        <ele>392</ele>
        <time>2012-11-19T15:05:25Z</time>
      </trkpt>
      <trkpt lat="45.54196" lon="3.24379">
        <ele>392</ele>
        <time>2012-11-19T15:05:29Z</time>
      </trkpt>
      <trkpt lat="45.54194" lon="3.24349">
        <ele>392</ele>
        <time>2012-11-19T15:05:33Z</time>
      </trkpt>
      <trkpt lat="45.54194" lon="3.24316">
        <ele>392</ele>
        <time>2012-11-19T15:05:37Z</time>
      </trkpt>
      <trkpt lat="45.54192" lon="3.24288">
        <ele>392</ele>
        <time>2012-11-19T15:05:41Z</time>
      </trkpt>
      <trkpt lat="45.54186" lon="3.24262">
        <ele>392</ele>
        <time>2012-11-19T15:05:45Z</time>
      </trkpt>
      <trkpt lat="45.54182" lon="3.24235">
        <ele>392</ele>
        <time>2012-11-19T15:05:51Z</time>
      </trkpt>
      <trkpt lat="45.54163" lon="3.24227">
        <ele>392</ele>
        <time>2012-11-19T15:06:10Z</time>
      </trkpt>
      <trkpt lat="45.54146" lon="3.24235">
        <ele>392</ele>
        <time>2012-11-19T15:06:14Z</time>
      </trkpt>
      <trkpt lat="45.54127" lon="3.24245">
        <ele>392</ele>
        <time>2012-11-19T15:06:18Z</time>
      </trkpt>
      <trkpt lat="45.54106" lon="3.2426">
        <ele>391</ele>
        <time>2012-11-19T15:06:22Z</time>
      </trkpt>
      <trkpt lat="45.54085" lon="3.24269">
        <ele>391</ele>
        <time>2012-11-19T15:06:25Z</time>
      </trkpt>
      <trkpt lat="45.54065" lon="3.24283">
        <ele>389</ele>
        <time>2012-11-19T15:06:28Z</time>
      </trkpt>
      <trkpt lat="45.54045" lon="3.24296">
        <ele>389</ele>
        <time>2012-11-19T15:06:31Z</time>
      </trkpt>
      <trkpt lat="45.54025" lon="3.2431">
        <ele>389</ele>
        <time>2012-11-19T15:06:34Z</time>
      </trkpt>
      <trkpt lat="45.54006" lon="3.2432">
        <ele>388</ele>
        <time>2012-11-19T15:06:37Z</time>
      </trkpt>
      <trkpt lat="45.53987" lon="3.2433">
        <ele>388</ele>
        <time>2012-11-19T15:06:40Z</time>
      </trkpt>
      <trkpt lat="45.53969" lon="3.24338">
        <ele>388</ele>
        <time>2012-11-19T15:06:43Z</time>
      </trkpt>
      <trkpt lat="45.53952" lon="3.2435">
        <ele>388</ele>
        <time>2012-11-19T15:06:46Z</time>
      </trkpt>
      <trkpt lat="45.53933" lon="3.24361">
        <ele>389</ele>
        <time>2012-11-19T15:06:49Z</time>
      </trkpt>
      <trkpt lat="45.53915" lon="3.24371">
        <ele>391</ele>
        <time>2012-11-19T15:06:52Z</time>
      </trkpt>
      <trkpt lat="45.53897" lon="3.24383">
        <ele>391</ele>
        <time>2012-11-19T15:06:55Z</time>
      </trkpt>
      <trkpt lat="45.53876" lon="3.24385">
        <ele>392</ele>
        <time>2012-11-19T15:06:59Z</time>
      </trkpt>
      <trkpt lat="45.53866" lon="3.24362">
        <ele>392</ele>
        <time>2012-11-19T15:07:03Z</time>
      </trkpt>
      <trkpt lat="45.53857" lon="3.24334">
        <ele>393</ele>
        <time>2012-11-19T15:07:07Z</time>
      </trkpt>
      <trkpt lat="45.53851" lon="3.2431">
        <ele>393</ele>
        <time>2012-11-19T15:07:10Z</time>
      </trkpt>
      <trkpt lat="45.53841" lon="3.2428">
        <ele>393</ele>
        <time>2012-11-19T15:07:14Z</time>
      </trkpt>
      <trkpt lat="45.53831" lon="3.24249">
        <ele>394</ele>
        <time>2012-11-19T15:07:18Z</time>
      </trkpt>
      <trkpt lat="45.53822" lon="3.2422">
        <ele>394</ele>
        <time>2012-11-19T15:07:22Z</time>
      </trkpt>
      <trkpt lat="45.53815" lon="3.24196">
        <ele>394</ele>
        <time>2012-11-19T15:07:25Z</time>
      </trkpt>
      <trkpt lat="45.53807" lon="3.24165">
        <ele>394</ele>
        <time>2012-11-19T15:07:29Z</time>
      </trkpt>
      <trkpt lat="45.53798" lon="3.24135">
        <ele>395</ele>
        <time>2012-11-19T15:07:33Z</time>
      </trkpt>
      <trkpt lat="45.53792" lon="3.24111">
        <ele>395</ele>
        <time>2012-11-19T15:07:36Z</time>
      </trkpt>
      <trkpt lat="45.53784" lon="3.24087">
        <ele>396</ele>
        <time>2012-11-19T15:07:39Z</time>
      </trkpt>
      <trkpt lat="45.53775" lon="3.24064">
        <ele>396</ele>
        <time>2012-11-19T15:07:42Z</time>
      </trkpt>
      <trkpt lat="45.53768" lon="3.24039">
        <ele>395</ele>
        <time>2012-11-19T15:07:45Z</time>
      </trkpt>
      <trkpt lat="45.53761" lon="3.24014">
        <ele>395</ele>
        <time>2012-11-19T15:07:48Z</time>
      </trkpt>
      <trkpt lat="45.53752" lon="3.23983">
        <ele>395</ele>
        <time>2012-11-19T15:07:52Z</time>
      </trkpt>
      <trkpt lat="45.53743" lon="3.23951">
        <ele>397</ele>
        <time>2012-11-19T15:07:56Z</time>
      </trkpt>
      <trkpt lat="45.53734" lon="3.2392">
        <ele>397</ele>
        <time>2012-11-19T15:08:00Z</time>
      </trkpt>
      <trkpt lat="45.53724" lon="3.2389">
        <ele>399</ele>
        <time>2012-11-19T15:08:04Z</time>
      </trkpt>
      <trkpt lat="45.53714" lon="3.23861">
        <ele>399</ele>
        <time>2012-11-19T15:08:08Z</time>
      </trkpt>
      <trkpt lat="45.53705" lon="3.23832">
        <ele>401</ele>
        <time>2012-11-19T15:08:12Z</time>
      </trkpt>
      <trkpt lat="45.53697" lon="3.23808">
        <ele>401</ele>
        <time>2012-11-19T15:08:16Z</time>
      </trkpt>
      <trkpt lat="45.53691" lon="3.23782">
        <ele>402</ele>
        <time>2012-11-19T15:08:21Z</time>
      </trkpt>
      <trkpt lat="45.53681" lon="3.23757">
        <ele>403</ele>
        <time>2012-11-19T15:08:26Z</time>
      </trkpt>
      <trkpt lat="45.53674" lon="3.23732">
        <ele>403</ele>
        <time>2012-11-19T15:08:31Z</time>
      </trkpt>
      <trkpt lat="45.53666" lon="3.23707">
        <ele>410</ele>
        <time>2012-11-19T15:08:36Z</time>
      </trkpt>
      <trkpt lat="45.53669" lon="3.2368">
        <ele>405</ele>
        <time>2012-11-19T15:08:42Z</time>
      </trkpt>
      <trkpt lat="45.53679" lon="3.23658">
        <ele>406</ele>
        <time>2012-11-19T15:08:46Z</time>
      </trkpt>
      <trkpt lat="45.53692" lon="3.23631">
        <ele>405</ele>
        <time>2012-11-19T15:08:50Z</time>
      </trkpt>
      <trkpt lat="45.53703" lon="3.23609">
        <ele>405</ele>
        <time>2012-11-19T15:08:53Z</time>
      </trkpt>
      <trkpt lat="45.53715" lon="3.23587">
        <ele>404</ele>
        <time>2012-11-19T15:08:56Z</time>
      </trkpt>
      <trkpt lat="45.53728" lon="3.23564">
        <ele>404</ele>
        <time>2012-11-19T15:08:59Z</time>
      </trkpt>
      <trkpt lat="45.53739" lon="3.2354">
        <ele>404</ele>
        <time>2012-11-19T15:09:02Z</time>
      </trkpt>
      <trkpt lat="45.53752" lon="3.23514">
        <ele>400</ele>
        <time>2012-11-19T15:09:05Z</time>
      </trkpt>
      <trkpt lat="45.53764" lon="3.23482">
        <ele>400</ele>
        <time>2012-11-19T15:09:08Z</time>
      </trkpt>
      <trkpt lat="45.53762" lon="3.23446">
        <ele>399</ele>
        <time>2012-11-19T15:09:11Z</time>
      </trkpt>
      <trkpt lat="45.53755" lon="3.23412">
        <ele>400</ele>
        <time>2012-11-19T15:09:14Z</time>
      </trkpt>
      <trkpt lat="45.53751" lon="3.23386">
        <ele>399</ele>
        <time>2012-11-19T15:09:16Z</time>
      </trkpt>
      <trkpt lat="45.53744" lon="3.23353">
        <ele>403</ele>
        <time>2012-11-19T15:09:19Z</time>
      </trkpt>
      <trkpt lat="45.53739" lon="3.23318">
        <ele>403</ele>
        <time>2012-11-19T15:09:22Z</time>
      </trkpt>
      <trkpt lat="45.53736" lon="3.23283">
        <ele>405</ele>
        <time>2012-11-19T15:09:25Z</time>
      </trkpt>
      <trkpt lat="45.53734" lon="3.23249">
        <ele>404</ele>
        <time>2012-11-19T15:09:28Z</time>
      </trkpt>
      <trkpt lat="45.53738" lon="3.23217">
        <ele>405</ele>
        <time>2012-11-19T15:09:31Z</time>
      </trkpt>
      <trkpt lat="45.53743" lon="3.23185">
        <ele>404</ele>
        <time>2012-11-19T15:09:34Z</time>
      </trkpt>
      <trkpt lat="45.53746" lon="3.23151">
        <ele>404</ele>
        <time>2012-11-19T15:09:37Z</time>
      </trkpt>
      <trkpt lat="45.53743" lon="3.23118">
        <ele>407</ele>
        <time>2012-11-19T15:09:40Z</time>
      </trkpt>
      <trkpt lat="45.53739" lon="3.23087">
        <ele>405</ele>
        <time>2012-11-19T15:09:43Z</time>
      </trkpt>
      <trkpt lat="45.53738" lon="3.23057">
        <ele>408</ele>
        <time>2012-11-19T15:09:46Z</time>
      </trkpt>
      <trkpt lat="45.53738" lon="3.23028">
        <ele>408</ele>
        <time>2012-11-19T15:09:49Z</time>
      </trkpt>
      <trkpt lat="45.53739" lon="3.22995">
        <ele>405</ele>
        <time>2012-11-19T15:09:52Z</time>
      </trkpt>
      <trkpt lat="45.53738" lon="3.22965">
        <ele>408</ele>
        <time>2012-11-19T15:09:55Z</time>
      </trkpt>
      <trkpt lat="45.53735" lon="3.22934">
        <ele>406</ele>
        <time>2012-11-19T15:09:58Z</time>
      </trkpt>
      <trkpt lat="45.53735" lon="3.22904">
        <ele>405</ele>
        <time>2012-11-19T15:10:01Z</time>
      </trkpt>
      <trkpt lat="45.53738" lon="3.22874">
        <ele>407</ele>
        <time>2012-11-19T15:10:04Z</time>
      </trkpt>
      <trkpt lat="45.53739" lon="3.22847">
        <ele>405</ele>
        <time>2012-11-19T15:10:07Z</time>
      </trkpt>
      <trkpt lat="45.53736" lon="3.22821">
        <ele>406</ele>
        <time>2012-11-19T15:10:10Z</time>
      </trkpt>
      <trkpt lat="45.53729" lon="3.22796">
        <ele>407</ele>
        <time>2012-11-19T15:10:13Z</time>
      </trkpt>
      <trkpt lat="45.53722" lon="3.2277">
        <ele>407</ele>
        <time>2012-11-19T15:10:16Z</time>
      </trkpt>
      <trkpt lat="45.53715" lon="3.22743">
        <ele>408</ele>
        <time>2012-11-19T15:10:19Z</time>
      </trkpt>
      <trkpt lat="45.53712" lon="3.22713">
        <ele>408</ele>
        <time>2012-11-19T15:10:22Z</time>
      </trkpt>
      <trkpt lat="45.53705" lon="3.22685">
        <ele>409</ele>
        <time>2012-11-19T15:10:25Z</time>
      </trkpt>
      <trkpt lat="45.53696" lon="3.22655">
        <ele>408</ele>
        <time>2012-11-19T15:10:28Z</time>
      </trkpt>
      <trkpt lat="45.53686" lon="3.22628">
        <ele>408</ele>
        <time>2012-11-19T15:10:31Z</time>
      </trkpt>
      <trkpt lat="45.5368" lon="3.22601">
        <ele>408</ele>
        <time>2012-11-19T15:10:34Z</time>
      </trkpt>
      <trkpt lat="45.53677" lon="3.22572">
        <ele>408</ele>
        <time>2012-11-19T15:10:37Z</time>
      </trkpt>
      <trkpt lat="45.53675" lon="3.22546">
        <ele>407</ele>
        <time>2012-11-19T15:10:40Z</time>
      </trkpt>
      <trkpt lat="45.53675" lon="3.22516">
        <ele>409</ele>
        <time>2012-11-19T15:10:43Z</time>
      </trkpt>
      <trkpt lat="45.53674" lon="3.22485">
        <ele>410</ele>
        <time>2012-11-19T15:10:46Z</time>
      </trkpt>
      <trkpt lat="45.53676" lon="3.22457">
        <ele>409</ele>
        <time>2012-11-19T15:10:49Z</time>
      </trkpt>
      <trkpt lat="45.53677" lon="3.22429">
        <ele>411</ele>
        <time>2012-11-19T15:10:52Z</time>
      </trkpt>
      <trkpt lat="45.53675" lon="3.22395">
        <ele>411</ele>
        <time>2012-11-19T15:10:56Z</time>
      </trkpt>
      <trkpt lat="45.53674" lon="3.22366">
        <ele>411</ele>
        <time>2012-11-19T15:10:59Z</time>
      </trkpt>
      <trkpt lat="45.53672" lon="3.22337">
        <ele>414</ele>
        <time>2012-11-19T15:11:02Z</time>
      </trkpt>
      <trkpt lat="45.53674" lon="3.22311">
        <ele>412</ele>
        <time>2012-11-19T15:11:05Z</time>
      </trkpt>
      <trkpt lat="45.53679" lon="3.2228">
        <ele>411</ele>
        <time>2012-11-19T15:11:08Z</time>
      </trkpt>
      <trkpt lat="45.53683" lon="3.22254">
        <ele>411</ele>
        <time>2012-11-19T15:11:10Z</time>
      </trkpt>
      <trkpt lat="45.53687" lon="3.22228">
        <ele>409</ele>
        <time>2012-11-19T15:11:14Z</time>
      </trkpt>
      <trkpt lat="45.53685" lon="3.22201">
        <ele>408</ele>
        <time>2012-11-19T15:11:17Z</time>
      </trkpt>
      <trkpt lat="45.53679" lon="3.22174">
        <ele>408</ele>
        <time>2012-11-19T15:11:20Z</time>
      </trkpt>
      <trkpt lat="45.53674" lon="3.22148">
        <ele>406</ele>
        <time>2012-11-19T15:11:23Z</time>
      </trkpt>
      <trkpt lat="45.5367" lon="3.22122">
        <ele>405</ele>
        <time>2012-11-19T15:11:26Z</time>
      </trkpt>
      <trkpt lat="45.53666" lon="3.22088">
        <ele>406</ele>
        <time>2012-11-19T15:11:30Z</time>
      </trkpt>
      <trkpt lat="45.53663" lon="3.2206">
        <ele>409</ele>
        <time>2012-11-19T15:11:33Z</time>
      </trkpt>
      <trkpt lat="45.5366" lon="3.22034">
        <ele>410</ele>
        <time>2012-11-19T15:11:36Z</time>
      </trkpt>
      <trkpt lat="45.53656" lon="3.22008">
        <ele>407</ele>
        <time>2012-11-19T15:11:39Z</time>
      </trkpt>
      <trkpt lat="45.53652" lon="3.21982">
        <ele>408</ele>
        <time>2012-11-19T15:11:42Z</time>
      </trkpt>
      <trkpt lat="45.53648" lon="3.21948">
        <ele>410</ele>
        <time>2012-11-19T15:11:46Z</time>
      </trkpt>
      <trkpt lat="45.53644" lon="3.21917">
        <ele>409</ele>
        <time>2012-11-19T15:11:50Z</time>
      </trkpt>
      <trkpt lat="45.5364" lon="3.21886">
        <ele>411</ele>
        <time>2012-11-19T15:11:54Z</time>
      </trkpt>
      <trkpt lat="45.53636" lon="3.21855">
        <ele>411</ele>
        <time>2012-11-19T15:11:58Z</time>
      </trkpt>
      <trkpt lat="45.53632" lon="3.21824">
        <ele>412</ele>
        <time>2012-11-19T15:12:02Z</time>
      </trkpt>
      <trkpt lat="45.53629" lon="3.21793">
        <ele>412</ele>
        <time>2012-11-19T15:12:06Z</time>
      </trkpt>
      <trkpt lat="45.53626" lon="3.21762">
        <ele>412</ele>
        <time>2012-11-19T15:12:10Z</time>
      </trkpt>
      <trkpt lat="45.53622" lon="3.21732">
        <ele>411</ele>
        <time>2012-11-19T15:12:14Z</time>
      </trkpt>
      <trkpt lat="45.53618" lon="3.21704">
        <ele>411</ele>
        <time>2012-11-19T15:12:18Z</time>
      </trkpt>
      <trkpt lat="45.53615" lon="3.21678">
        <ele>411</ele>
        <time>2012-11-19T15:12:22Z</time>
      </trkpt>
      <trkpt lat="45.53612" lon="3.21651">
        <ele>411</ele>
        <time>2012-11-19T15:12:27Z</time>
      </trkpt>
      <trkpt lat="45.53609" lon="3.21624">
        <ele>411</ele>
        <time>2012-11-19T15:14:38Z</time>
      </trkpt>
      <trkpt lat="45.53607" lon="3.21598">
        <ele>412</ele>
        <time>2012-11-19T15:14:44Z</time>
      </trkpt>
      <trkpt lat="45.53605" lon="3.2157">
        <ele>412</ele>
        <time>2012-11-19T15:14:49Z</time>
      </trkpt>
      <trkpt lat="45.53603" lon="3.21545">
        <ele>412</ele>
        <time>2012-11-19T15:14:53Z</time>
      </trkpt>
      <trkpt lat="45.53601" lon="3.21518">
        <ele>412</ele>
        <time>2012-11-19T15:14:57Z</time>
      </trkpt>
      <trkpt lat="45.53599" lon="3.21491">
        <ele>412</ele>
        <time>2012-11-19T15:15:01Z</time>
      </trkpt>
      <trkpt lat="45.53595" lon="3.21465">
        <ele>412</ele>
        <time>2012-11-19T15:15:05Z</time>
      </trkpt>
      <trkpt lat="45.53583" lon="3.21442">
        <ele>417</ele>
        <time>2012-11-19T15:15:10Z</time>
      </trkpt>
      <trkpt lat="45.53564" lon="3.21436">
        <ele>417</ele>
        <time>2012-11-19T15:15:16Z</time>
      </trkpt>
      <trkpt lat="45.53544" lon="3.21447">
        <ele>419</ele>
        <time>2012-11-19T15:15:23Z</time>
      </trkpt>
      <trkpt lat="45.53527" lon="3.21458">
        <ele>420</ele>
        <time>2012-11-19T15:15:31Z</time>
      </trkpt>
      <trkpt lat="45.5351" lon="3.21468">
        <ele>422</ele>
        <time>2012-11-19T15:15:38Z</time>
      </trkpt>
      <trkpt lat="45.53493" lon="3.21479">
        <ele>429</ele>
        <time>2012-11-19T15:15:47Z</time>
      </trkpt>
      <trkpt lat="45.53476" lon="3.21489">
        <ele>430</ele>
        <time>2012-11-19T15:15:56Z</time>
      </trkpt>
      <trkpt lat="45.53458" lon="3.21501">
        <ele>431</ele>
        <time>2012-11-19T15:16:06Z</time>
      </trkpt>
      <trkpt lat="45.53445" lon="3.2152">
        <ele>432</ele>
        <time>2012-11-19T15:16:14Z</time>
      </trkpt>
      <trkpt lat="45.53442" lon="3.21547">
        <ele>433</ele>
        <time>2012-11-19T15:16:24Z</time>
      </trkpt>
      <trkpt lat="45.53444" lon="3.21575">
        <ele>433</ele>
        <time>2012-11-19T15:16:35Z</time>
      </trkpt>
      <trkpt lat="45.53448" lon="3.21601">
        <ele>435</ele>
        <time>2012-11-19T15:16:42Z</time>
      </trkpt>
      <trkpt lat="45.53452" lon="3.21629">
        <ele>435</ele>
        <time>2012-11-19T15:16:48Z</time>
      </trkpt>
      <trkpt lat="45.53458" lon="3.21657">
        <ele>436</ele>
        <time>2012-11-19T15:16:56Z</time>
      </trkpt>
      <trkpt lat="45.53452" lon="3.21682">
        <ele>440</ele>
        <time>2012-11-19T15:17:03Z</time>
      </trkpt>
      <trkpt lat="45.53432" lon="3.21677">
        <ele>441</ele>
        <time>2012-11-19T15:17:12Z</time>
      </trkpt>
      <trkpt lat="45.53415" lon="3.21663">
        <ele>443</ele>
        <time>2012-11-19T15:17:19Z</time>
      </trkpt>
      <trkpt lat="45.53396" lon="3.21655">
        <ele>444</ele>
        <time>2012-11-19T15:17:26Z</time>
      </trkpt>
      <trkpt lat="45.53376" lon="3.21648">
        <ele>445</ele>
        <time>2012-11-19T15:17:33Z</time>
      </trkpt>
      <trkpt lat="45.53355" lon="3.21649">
        <ele>446</ele>
        <time>2012-11-19T15:17:40Z</time>
      </trkpt>
      <trkpt lat="45.53335" lon="3.21653">
        <ele>447</ele>
        <time>2012-11-19T15:17:47Z</time>
      </trkpt>
      <trkpt lat="45.53318" lon="3.21658">
        <ele>450</ele>
        <time>2012-11-19T15:17:54Z</time>
      </trkpt>
      <trkpt lat="45.53299" lon="3.21664">
        <ele>451</ele>
        <time>2012-11-19T15:18:00Z</time>
      </trkpt>
      <trkpt lat="45.5328" lon="3.21675">
        <ele>456</ele>
        <time>2012-11-19T15:18:07Z</time>
      </trkpt>
      <trkpt lat="45.53262" lon="3.2169">
        <ele>457</ele>
        <time>2012-11-19T15:18:14Z</time>
      </trkpt>
      <trkpt lat="45.53247" lon="3.21705">
        <ele>459</ele>
        <time>2012-11-19T15:18:20Z</time>
      </trkpt>
      <trkpt lat="45.53232" lon="3.21725">
        <ele>460</ele>
        <time>2012-11-19T15:18:27Z</time>
      </trkpt>
      <trkpt lat="45.53219" lon="3.2175">
        <ele>462</ele>
        <time>2012-11-19T15:18:33Z</time>
      </trkpt>
      <trkpt lat="45.53212" lon="3.21778">
        <ele>462</ele>
        <time>2012-11-19T15:18:39Z</time>
      </trkpt>
      <trkpt lat="45.53199" lon="3.218">
        <ele>462</ele>
        <time>2012-11-19T15:18:46Z</time>
      </trkpt>
      <trkpt lat="45.53179" lon="3.21805">
        <ele>462</ele>
        <time>2012-11-19T15:18:51Z</time>
      </trkpt>
      <trkpt lat="45.53159" lon="3.21805">
        <ele>462</ele>
        <time>2012-11-19T15:18:56Z</time>
      </trkpt>
      <trkpt lat="45.53137" lon="3.21805">
        <ele>462</ele>
        <time>2012-11-19T15:19:01Z</time>
      </trkpt>
      <trkpt lat="45.53118" lon="3.21807">
        <ele>462</ele>
        <time>2012-11-19T15:19:05Z</time>
      </trkpt>
      <trkpt lat="45.53098" lon="3.21808">
        <ele>462</ele>
        <time>2012-11-19T15:19:09Z</time>
      </trkpt>
      <trkpt lat="45.53079" lon="3.21807">
        <ele>464</ele>
        <time>2012-11-19T15:19:13Z</time>
      </trkpt>
      <trkpt lat="45.53059" lon="3.21809">
        <ele>464</ele>
        <time>2012-11-19T15:19:17Z</time>
      </trkpt>
      <trkpt lat="45.53039" lon="3.21811">
        <ele>464</ele>
        <time>2012-11-19T15:19:21Z</time>
      </trkpt>
      <trkpt lat="45.53019" lon="3.21812">
        <ele>465</ele>
        <time>2012-11-19T15:19:25Z</time>
      </trkpt>
      <trkpt lat="45.53001" lon="3.2181">
        <ele>465</ele>
        <time>2012-11-19T15:19:29Z</time>
      </trkpt>
      <trkpt lat="45.52981" lon="3.21811">
        <ele>467</ele>
        <time>2012-11-19T15:19:33Z</time>
      </trkpt>
      <trkpt lat="45.52963" lon="3.21811">
        <ele>467</ele>
        <time>2012-11-19T15:19:37Z</time>
      </trkpt>
      <trkpt lat="45.52943" lon="3.21813">
        <ele>468</ele>
        <time>2012-11-19T15:19:41Z</time>
      </trkpt>
      <trkpt lat="45.52922" lon="3.21813">
        <ele>468</ele>
        <time>2012-11-19T15:19:45Z</time>
      </trkpt>
      <trkpt lat="45.529" lon="3.21814">
        <ele>469</ele>
        <time>2012-11-19T15:19:49Z</time>
      </trkpt>
      <trkpt lat="45.52881" lon="3.21815">
        <ele>470</ele>
        <time>2012-11-19T15:19:53Z</time>
      </trkpt>
      <trkpt lat="45.52859" lon="3.21816">
        <ele>470</ele>
        <time>2012-11-19T15:19:57Z</time>
      </trkpt>
      <trkpt lat="45.52839" lon="3.21814">
        <ele>470</ele>
        <time>2012-11-19T15:20:01Z</time>
      </trkpt>
      <trkpt lat="45.52817" lon="3.2182">
        <ele>473</ele>
        <time>2012-11-19T15:20:06Z</time>
      </trkpt>
      <trkpt lat="45.52799" lon="3.2183">
        <ele>473</ele>
        <time>2012-11-19T15:20:10Z</time>
      </trkpt>
      <trkpt lat="45.5278" lon="3.21842">
        <ele>475</ele>
        <time>2012-11-19T15:20:16Z</time>
      </trkpt>
      <trkpt lat="45.52761" lon="3.21854">
        <ele>476</ele>
        <time>2012-11-19T15:20:22Z</time>
      </trkpt>
      <trkpt lat="45.52741" lon="3.21863">
        <ele>479</ele>
        <time>2012-11-19T15:20:27Z</time>
      </trkpt>
      <trkpt lat="45.52722" lon="3.21876">
        <ele>480</ele>
        <time>2012-11-19T15:20:34Z</time>
      </trkpt>
      <trkpt lat="45.52705" lon="3.21886">
        <ele>481</ele>
        <time>2012-11-19T15:20:40Z</time>
      </trkpt>
      <trkpt lat="45.52685" lon="3.21893">
        <ele>482</ele>
        <time>2012-11-19T15:20:47Z</time>
      </trkpt>
      <trkpt lat="45.52665" lon="3.21892">
        <ele>488</ele>
        <time>2012-11-19T15:20:54Z</time>
      </trkpt>
      <trkpt lat="45.52645" lon="3.21883">
        <ele>489</ele>
        <time>2012-11-19T15:21:01Z</time>
      </trkpt>
      <trkpt lat="45.52625" lon="3.21876">
        <ele>490</ele>
        <time>2012-11-19T15:21:08Z</time>
      </trkpt>
      <trkpt lat="45.52607" lon="3.2187">
        <ele>491</ele>
        <time>2012-11-19T15:21:15Z</time>
      </trkpt>
      <trkpt lat="45.52588" lon="3.21866">
        <ele>492</ele>
        <time>2012-11-19T15:21:23Z</time>
      </trkpt>
      <trkpt lat="45.52569" lon="3.21864">
        <ele>497</ele>
        <time>2012-11-19T15:21:31Z</time>
      </trkpt>
      <trkpt lat="45.52548" lon="3.21861">
        <ele>498</ele>
        <time>2012-11-19T15:21:39Z</time>
      </trkpt>
      <trkpt lat="45.52529" lon="3.21861">
        <ele>498</ele>
        <time>2012-11-19T15:21:47Z</time>
      </trkpt>
      <trkpt lat="45.52511" lon="3.21857">
        <ele>499</ele>
        <time>2012-11-19T15:21:56Z</time>
      </trkpt>
      <trkpt lat="45.52491" lon="3.21856">
        <ele>501</ele>
        <time>2012-11-19T15:22:05Z</time>
      </trkpt>
      <trkpt lat="45.52475" lon="3.21844">
        <ele>502</ele>
        <time>2012-11-19T15:22:13Z</time>
      </trkpt>
      <trkpt lat="45.52455" lon="3.21836">
        <ele>502</ele>
        <time>2012-11-19T15:22:20Z</time>
      </trkpt>
      <trkpt lat="45.52439" lon="3.21822">
        <ele>505</ele>
        <time>2012-11-19T15:22:26Z</time>
      </trkpt>
      <trkpt lat="45.52423" lon="3.21805">
        <ele>505</ele>
        <time>2012-11-19T15:22:32Z</time>
      </trkpt>
      <trkpt lat="45.52411" lon="3.21783">
        <ele>507</ele>
        <time>2012-11-19T15:22:38Z</time>
      </trkpt>
      <trkpt lat="45.52401" lon="3.21757">
        <ele>508</ele>
        <time>2012-11-19T15:22:44Z</time>
      </trkpt>
      <trkpt lat="45.52391" lon="3.21732">
        <ele>511</ele>
        <time>2012-11-19T15:22:50Z</time>
      </trkpt>
      <trkpt lat="45.52381" lon="3.21709">
        <ele>512</ele>
        <time>2012-11-19T15:22:56Z</time>
      </trkpt>
      <trkpt lat="45.52372" lon="3.21686">
        <ele>512</ele>
        <time>2012-11-19T15:23:01Z</time>
      </trkpt>
      <trkpt lat="45.52362" lon="3.21662">
        <ele>516</ele>
        <time>2012-11-19T15:23:07Z</time>
      </trkpt>
      <trkpt lat="45.52352" lon="3.21638">
        <ele>516</ele>
        <time>2012-11-19T15:23:13Z</time>
      </trkpt>
      <trkpt lat="45.52341" lon="3.21611">
        <ele>518</ele>
        <time>2012-11-19T15:23:19Z</time>
      </trkpt>
      <trkpt lat="45.52333" lon="3.21585">
        <ele>521</ele>
        <time>2012-11-19T15:23:25Z</time>
      </trkpt>
      <trkpt lat="45.52323" lon="3.21561">
        <ele>522</ele>
        <time>2012-11-19T15:23:31Z</time>
      </trkpt>
      <trkpt lat="45.52311" lon="3.21536">
        <ele>523</ele>
        <time>2012-11-19T15:23:37Z</time>
      </trkpt>
      <trkpt lat="45.52301" lon="3.21511">
        <ele>524</ele>
        <time>2012-11-19T15:23:43Z</time>
      </trkpt>
      <trkpt lat="45.52292" lon="3.21487">
        <ele>527</ele>
        <time>2012-11-19T15:23:49Z</time>
      </trkpt>
      <trkpt lat="45.52282" lon="3.21461">
        <ele>527</ele>
        <time>2012-11-19T15:23:55Z</time>
      </trkpt>
      <trkpt lat="45.52271" lon="3.21436">
        <ele>528</ele>
        <time>2012-11-19T15:24:01Z</time>
      </trkpt>
      <trkpt lat="45.52262" lon="3.21412">
        <ele>530</ele>
        <time>2012-11-19T15:24:07Z</time>
      </trkpt>
      <trkpt lat="45.52252" lon="3.21389">
        <ele>530</ele>
        <time>2012-11-19T15:24:13Z</time>
      </trkpt>
      <trkpt lat="45.52242" lon="3.21364">
        <ele>531</ele>
        <time>2012-11-19T15:24:19Z</time>
      </trkpt>
      <trkpt lat="45.5223" lon="3.21342">
        <ele>532</ele>
        <time>2012-11-19T15:24:25Z</time>
      </trkpt>
      <trkpt lat="45.52215" lon="3.21322">
        <ele>534</ele>
        <time>2012-11-19T15:24:31Z</time>
      </trkpt>
      <trkpt lat="45.52199" lon="3.21305">
        <ele>534</ele>
        <time>2012-11-19T15:24:37Z</time>
      </trkpt>
      <trkpt lat="45.52183" lon="3.21287">
        <ele>535</ele>
        <time>2012-11-19T15:24:42Z</time>
      </trkpt>
      <trkpt lat="45.52167" lon="3.21271">
        <ele>535</ele>
        <time>2012-11-19T15:24:47Z</time>
      </trkpt>
      <trkpt lat="45.52147" lon="3.21257">
        <ele>535</ele>
        <time>2012-11-19T15:24:52Z</time>
      </trkpt>
      <trkpt lat="45.52127" lon="3.2125">
        <ele>537</ele>
        <time>2012-11-19T15:24:56Z</time>
      </trkpt>
      <trkpt lat="45.52105" lon="3.2125">
        <ele>535</ele>
        <time>2012-11-19T15:25:00Z</time>
      </trkpt>
      <trkpt lat="45.52083" lon="3.21256">
        <ele>536</ele>
        <time>2012-11-19T15:25:04Z</time>
      </trkpt>
      <trkpt lat="45.5206" lon="3.21263">
        <ele>536</ele>
        <time>2012-11-19T15:25:08Z</time>
      </trkpt>
      <trkpt lat="45.5204" lon="3.2127">
        <ele>536</ele>
        <time>2012-11-19T15:25:12Z</time>
      </trkpt>
      <trkpt lat="45.52021" lon="3.21279">
        <ele>537</ele>
        <time>2012-11-19T15:25:15Z</time>
      </trkpt>
      <trkpt lat="45.52003" lon="3.21282">
        <ele>537</ele>
        <time>2012-11-19T15:25:18Z</time>
      </trkpt>
      <trkpt lat="45.5198" lon="3.21288">
        <ele>539</ele>
        <time>2012-11-19T15:25:22Z</time>
      </trkpt>
      <trkpt lat="45.51956" lon="3.21291">
        <ele>540</ele>
        <time>2012-11-19T15:25:26Z</time>
      </trkpt>
      <trkpt lat="45.51934" lon="3.21293">
        <ele>541</ele>
        <time>2012-11-19T15:25:30Z</time>
      </trkpt>
      <trkpt lat="45.51912" lon="3.21292">
        <ele>543</ele>
        <time>2012-11-19T15:25:34Z</time>
      </trkpt>
      <trkpt lat="45.51889" lon="3.21292">
        <ele>543</ele>
        <time>2012-11-19T15:25:38Z</time>
      </trkpt>
      <trkpt lat="45.51866" lon="3.21296">
        <ele>543</ele>
        <time>2012-11-19T15:25:42Z</time>
      </trkpt>
      <trkpt lat="45.51846" lon="3.21306">
        <ele>543</ele>
        <time>2012-11-19T15:25:46Z</time>
      </trkpt>
      <trkpt lat="45.51828" lon="3.21316">
        <ele>543</ele>
        <time>2012-11-19T15:25:49Z</time>
      </trkpt>
      <trkpt lat="45.51812" lon="3.21329">
        <ele>543</ele>
        <time>2012-11-19T15:25:52Z</time>
      </trkpt>
      <trkpt lat="45.51794" lon="3.21344">
        <ele>543</ele>
        <time>2012-11-19T15:25:55Z</time>
      </trkpt>
      <trkpt lat="45.51777" lon="3.21359">
        <ele>542</ele>
        <time>2012-11-19T15:25:58Z</time>
      </trkpt>
      <trkpt lat="45.51758" lon="3.21375">
        <ele>542</ele>
        <time>2012-11-19T15:26:01Z</time>
      </trkpt>
      <trkpt lat="45.5174" lon="3.21391">
        <ele>541</ele>
        <time>2012-11-19T15:26:04Z</time>
      </trkpt>
      <trkpt lat="45.51724" lon="3.21405">
        <ele>541</ele>
        <time>2012-11-19T15:26:07Z</time>
      </trkpt>
      <trkpt lat="45.51707" lon="3.21422">
        <ele>542</ele>
        <time>2012-11-19T15:26:10Z</time>
      </trkpt>
      <trkpt lat="45.51687" lon="3.21437">
        <ele>542</ele>
        <time>2012-11-19T15:26:13Z</time>
      </trkpt>
      <trkpt lat="45.51669" lon="3.21451">
        <ele>542</ele>
        <time>2012-11-19T15:26:16Z</time>
      </trkpt>
      <trkpt lat="45.51652" lon="3.21465">
        <ele>542</ele>
        <time>2012-11-19T15:26:19Z</time>
      </trkpt>
      <trkpt lat="45.51636" lon="3.21481">
        <ele>543</ele>
        <time>2012-11-19T15:26:22Z</time>
      </trkpt>
      <trkpt lat="45.51617" lon="3.21495">
        <ele>543</ele>
        <time>2012-11-19T15:26:25Z</time>
      </trkpt>
      <trkpt lat="45.51598" lon="3.21513">
        <ele>544</ele>
        <time>2012-11-19T15:26:29Z</time>
      </trkpt>
      <trkpt lat="45.51579" lon="3.21532">
        <ele>547</ele>
        <time>2012-11-19T15:26:33Z</time>
      </trkpt>
      <trkpt lat="45.51562" lon="3.21545">
        <ele>548</ele>
        <time>2012-11-19T15:26:37Z</time>
      </trkpt>
      <trkpt lat="45.51547" lon="3.21561">
        <ele>548</ele>
        <time>2012-11-19T15:26:41Z</time>
      </trkpt>
      <trkpt lat="45.51529" lon="3.21576">
        <ele>549</ele>
        <time>2012-11-19T15:26:45Z</time>
      </trkpt>
      <trkpt lat="45.51515" lon="3.21592">
        <ele>551</ele>
        <time>2012-11-19T15:26:49Z</time>
      </trkpt>
      <trkpt lat="45.51499" lon="3.21605">
        <ele>552</ele>
        <time>2012-11-19T15:26:52Z</time>
      </trkpt>
      <trkpt lat="45.51481" lon="3.21623">
        <ele>553</ele>
        <time>2012-11-19T15:26:58Z</time>
      </trkpt>
      <trkpt lat="45.51465" lon="3.21636">
        <ele>553</ele>
        <time>2012-11-19T15:27:02Z</time>
      </trkpt>
      <trkpt lat="45.51448" lon="3.21653">
        <ele>553</ele>
        <time>2012-11-19T15:27:07Z</time>
      </trkpt>
      <trkpt lat="45.51429" lon="3.21668">
        <ele>553</ele>
        <time>2012-11-19T15:27:12Z</time>
      </trkpt>
      <trkpt lat="45.51411" lon="3.21681">
        <ele>553</ele>
        <time>2012-11-19T15:27:16Z</time>
      </trkpt>
      <trkpt lat="45.51395" lon="3.21694">
        <ele>553</ele>
        <time>2012-11-19T15:27:20Z</time>
      </trkpt>
      <trkpt lat="45.51379" lon="3.21707">
        <ele>553</ele>
        <time>2012-11-19T15:27:24Z</time>
      </trkpt>
      <trkpt lat="45.51359" lon="3.21719">
        <ele>553</ele>
        <time>2012-11-19T15:27:28Z</time>
      </trkpt>
      <trkpt lat="45.5134" lon="3.21737">
        <ele>552</ele>
        <time>2012-11-19T15:27:31Z</time>
      </trkpt>
      <trkpt lat="45.51321" lon="3.21753">
        <ele>553</ele>
        <time>2012-11-19T15:27:36Z</time>
      </trkpt>
      <trkpt lat="45.51303" lon="3.2177">
        <ele>553</ele>
        <time>2012-11-19T15:27:39Z</time>
      </trkpt>
      <trkpt lat="45.51287" lon="3.21785">
        <ele>554</ele>
        <time>2012-11-19T15:27:43Z</time>
      </trkpt>
      <trkpt lat="45.51268" lon="3.21801">
        <ele>554</ele>
        <time>2012-11-19T15:27:47Z</time>
      </trkpt>
      <trkpt lat="45.5125" lon="3.21806">
        <ele>554</ele>
        <time>2012-11-19T15:27:50Z</time>
      </trkpt>
      <trkpt lat="45.51229" lon="3.21812">
        <ele>555</ele>
        <time>2012-11-19T15:27:54Z</time>
      </trkpt>
      <trkpt lat="45.5121" lon="3.21812">
        <ele>555</ele>
        <time>2012-11-19T15:27:57Z</time>
      </trkpt>
      <trkpt lat="45.51191" lon="3.2181">
        <ele>555</ele>
        <time>2012-11-19T15:28:00Z</time>
      </trkpt>
      <trkpt lat="45.51167" lon="3.21812">
        <ele>556</ele>
        <time>2012-11-19T15:28:04Z</time>
      </trkpt>
      <trkpt lat="45.51148" lon="3.21813">
        <ele>556</ele>
        <time>2012-11-19T15:28:07Z</time>
      </trkpt>
      <trkpt lat="45.51125" lon="3.21817">
        <ele>556</ele>
        <time>2012-11-19T15:28:11Z</time>
      </trkpt>
      <trkpt lat="45.51101" lon="3.21826">
        <ele>556</ele>
        <time>2012-11-19T15:28:15Z</time>
      </trkpt>
      <trkpt lat="45.51085" lon="3.2184">
        <ele>556</ele>
        <time>2012-11-19T15:28:18Z</time>
      </trkpt>
      <trkpt lat="45.51071" lon="3.21857">
        <ele>556</ele>
        <time>2012-11-19T15:28:20Z</time>
      </trkpt>
      <trkpt lat="45.51053" lon="3.21873">
        <ele>556</ele>
        <time>2012-11-19T15:28:24Z</time>
      </trkpt>
      <trkpt lat="45.51036" lon="3.21886">
        <ele>556</ele>
        <time>2012-11-19T15:28:27Z</time>
      </trkpt>
      <trkpt lat="45.51017" lon="3.21895">
        <ele>556</ele>
        <time>2012-11-19T15:28:30Z</time>
      </trkpt>
      <trkpt lat="45.50996" lon="3.21903">
        <ele>557</ele>
        <time>2012-11-19T15:28:33Z</time>
      </trkpt>
      <trkpt lat="45.50974" lon="3.21912">
        <ele>557</ele>
        <time>2012-11-19T15:28:36Z</time>
      </trkpt>
      <trkpt lat="45.50954" lon="3.21916">
        <ele>557</ele>
        <time>2012-11-19T15:28:39Z</time>
      </trkpt>
      <trkpt lat="45.50934" lon="3.21924">
        <ele>557</ele>
        <time>2012-11-19T15:28:42Z</time>
      </trkpt>
      <trkpt lat="45.50916" lon="3.2193">
        <ele>557</ele>
        <time>2012-11-19T15:28:45Z</time>
      </trkpt>
      <trkpt lat="45.50896" lon="3.21939">
        <ele>557</ele>
        <time>2012-11-19T15:28:48Z</time>
      </trkpt>
      <trkpt lat="45.50876" lon="3.21948">
        <ele>557</ele>
        <time>2012-11-19T15:28:51Z</time>
      </trkpt>
      <trkpt lat="45.50856" lon="3.21952">
        <ele>557</ele>
        <time>2012-11-19T15:28:54Z</time>
      </trkpt>
    </trkseg>
  </trk>
</gpx>